<?xml version='1.0' encoding='UTF-8'?><gpx version="1.1" creator="JPX - https://github.com/jenetics/jpx" xmlns="http://www.topografix.com/GPX/1/1"><trk><trkseg><trkpt lat="40.6953281" lon="14.7260284"><ele>281.00000000000006</ele><time>2026-03-27T07:17:39.817Z</time></trkpt><trkpt lat="40.6953075" lon="14.7259437"><ele>281.0</ele><time>2026-03-27T07:17:42.817Z</time></trkpt><trkpt lat="40.6953602" lon="14.7258821"><ele>281.0</ele><time>2026-03-27T07:17:49.407Z</time></trkpt><trkpt lat="40.6953868" lon="14.7257955"><ele>281.0</ele><time>2026-03-27T07:17:54.407Z</time></trkpt><trkpt lat="40.6954383" lon="14.725719"><ele>281.0</ele><time>2026-03-27T07:18:00.407Z</time></trkpt><trkpt lat="40.695466" lon="14.72564"><ele>281.00000000000006</ele><time>2026-03-27T07:18:06.407Z</time></trkpt><trkpt lat="40.6954919" lon="14.7255539"><ele>281.0</ele><time>2026-03-27T07:18:13.408Z</time></trkpt><trkpt lat="40.6955172" lon="14.7254723"><ele>281.00000000000006</ele><time>2026-03-27T07:18:18.407Z</time></trkpt><trkpt lat="40.695546" lon="14.7253864"><ele>281.0</ele><time>2026-03-27T07:18:22.407Z</time></trkpt><trkpt lat="40.695571" lon="14.7253076"><ele>281.0</ele><time>2026-03-27T07:18:27.407Z</time></trkpt><trkpt lat="40.6955968" lon="14.7252269"><ele>281.0</ele><time>2026-03-27T07:18:33.407Z</time></trkpt><trkpt lat="40.6956148" lon="14.7251208"><ele>281.0</ele><time>2026-03-27T07:18:38.407Z</time></trkpt><trkpt lat="40.6955807" lon="14.7250442"><ele>281.00000000000006</ele><time>2026-03-27T07:18:42.407Z</time></trkpt><trkpt lat="40.6955529" lon="14.7249689"><ele>281.0</ele><time>2026-03-27T07:18:45.407Z</time></trkpt><trkpt lat="40.6955174" lon="14.7248734"><ele>280.28571428571433</ele><time>2026-03-27T07:18:49.407Z</time></trkpt><trkpt lat="40.6955099" lon="14.7247859"><ele>279.57142857142856</ele><time>2026-03-27T07:18:53.407Z</time></trkpt><trkpt lat="40.6955117" lon="14.7247"><ele>278.8571428571429</ele><time>2026-03-27T07:18:58.407Z</time></trkpt><trkpt lat="40.695527" lon="14.7246145"><ele>278.14285714285717</ele><time>2026-03-27T07:19:03.407Z</time></trkpt><trkpt lat="40.6955571" lon="14.7245309"><ele>277.42857142857144</ele><time>2026-03-27T07:19:09.407Z</time></trkpt><trkpt lat="40.6955588" lon="14.7244425"><ele>276.7142857142857</ele><time>2026-03-27T07:19:19.407Z</time></trkpt><trkpt lat="40.6955522" lon="14.7243524"><ele>276.0</ele><time>2026-03-27T07:19:25.407Z</time></trkpt><trkpt lat="40.6955499" lon="14.7242635"><ele>276.0</ele><time>2026-03-27T07:19:31.407Z</time></trkpt><trkpt lat="40.6955404" lon="14.724165"><ele>276.0</ele><time>2026-03-27T07:19:36.407Z</time></trkpt><trkpt lat="40.6955047" lon="14.7240738"><ele>276.0</ele><time>2026-03-27T07:19:41.407Z</time></trkpt><trkpt lat="40.6954687" lon="14.7239753"><ele>276.0</ele><time>2026-03-27T07:19:46.407Z</time></trkpt><trkpt lat="40.6954373" lon="14.723901"><ele>276.0</ele><time>2026-03-27T07:19:49.408Z</time></trkpt><trkpt lat="40.6953727" lon="14.7238419"><ele>276.0</ele><time>2026-03-27T07:19:53.407Z</time></trkpt><trkpt lat="40.6953074" lon="14.7238"><ele>275.14285714285717</ele><time>2026-03-27T07:19:57.407Z</time></trkpt><trkpt lat="40.6952458" lon="14.7237601"><ele>274.28571428571433</ele><time>2026-03-27T07:20:01.407Z</time></trkpt><trkpt lat="40.6951811" lon="14.7237216"><ele>273.42857142857144</ele><time>2026-03-27T07:20:07.408Z</time></trkpt><trkpt lat="40.6951152" lon="14.7236828"><ele>272.57142857142856</ele><time>2026-03-27T07:20:12.407Z</time></trkpt><trkpt lat="40.6950412" lon="14.7236369"><ele>271.71428571428567</ele><time>2026-03-27T07:20:17.407Z</time></trkpt><trkpt lat="40.6949821" lon="14.7235996"><ele>270.85714285714283</ele><time>2026-03-27T07:20:21.407Z</time></trkpt><trkpt lat="40.6949242" lon="14.7235619"><ele>270.0</ele><time>2026-03-27T07:20:26.407Z</time></trkpt><trkpt lat="40.6948654" lon="14.7235253"><ele>270.0</ele><time>2026-03-27T07:20:31.407Z</time></trkpt><trkpt lat="40.6948054" lon="14.7234861"><ele>270.0</ele><time>2026-03-27T07:20:36.407Z</time></trkpt><trkpt lat="40.694739" lon="14.7234433"><ele>270.0</ele><time>2026-03-27T07:20:41.407Z</time></trkpt><trkpt lat="40.694669" lon="14.7233936"><ele>270.0</ele><time>2026-03-27T07:20:46.407Z</time></trkpt><trkpt lat="40.6946111" lon="14.7233517"><ele>270.0</ele><time>2026-03-27T07:20:51.407Z</time></trkpt><trkpt lat="40.6945486" lon="14.7233063"><ele>270.0</ele><time>2026-03-27T07:20:56.407Z</time></trkpt><trkpt lat="40.694485" lon="14.7232595"><ele>270.0</ele><time>2026-03-27T07:21:00.407Z</time></trkpt><trkpt lat="40.694419" lon="14.7232115"><ele>266.85714285714283</ele><time>2026-03-27T07:21:04.407Z</time></trkpt><trkpt lat="40.6943638" lon="14.7231714"><ele>263.71428571428567</ele><time>2026-03-27T07:21:08.407Z</time></trkpt><trkpt lat="40.6943087" lon="14.7231296"><ele>260.57142857142856</ele><time>2026-03-27T07:21:13.407Z</time></trkpt><trkpt lat="40.6942397" lon="14.7230773"><ele>257.42857142857144</ele><time>2026-03-27T07:21:19.408Z</time></trkpt><trkpt lat="40.6941676" lon="14.7231115"><ele>254.2857142857143</ele><time>2026-03-27T07:21:24.407Z</time></trkpt><trkpt lat="40.694109" lon="14.7231648"><ele>251.14285714285717</ele><time>2026-03-27T07:21:27.407Z</time></trkpt><trkpt lat="40.6940457" lon="14.7232118"><ele>248.0</ele><time>2026-03-27T07:21:30.407Z</time></trkpt><trkpt lat="40.6939796" lon="14.72321"><ele>248.0</ele><time>2026-03-27T07:21:35.407Z</time></trkpt><trkpt lat="40.6939097" lon="14.7231814"><ele>248.00000000000003</ele><time>2026-03-27T07:21:41.407Z</time></trkpt><trkpt lat="40.6938499" lon="14.7231249"><ele>248.0</ele><time>2026-03-27T07:21:46.407Z</time></trkpt><trkpt lat="40.6937938" lon="14.7230705"><ele>248.0</ele><time>2026-03-27T07:21:53.407Z</time></trkpt><trkpt lat="40.6937416" lon="14.7230212"><ele>248.00000000000003</ele><time>2026-03-27T07:21:58.407Z</time></trkpt><trkpt lat="40.6936957" lon="14.722961"><ele>248.0</ele><time>2026-03-27T07:22:02.407Z</time></trkpt><trkpt lat="40.6936869" lon="14.7228625"><ele>248.0</ele><time>2026-03-27T07:22:07.407Z</time></trkpt><trkpt lat="40.6936152" lon="14.7227781"><ele>246.85714285714286</ele><time>2026-03-27T07:22:31.407Z</time></trkpt><trkpt lat="40.6935793" lon="14.7227064"><ele>245.71428571428572</ele><time>2026-03-27T07:22:35.408Z</time></trkpt><trkpt lat="40.6935705" lon="14.7226207"><ele>244.57142857142858</ele><time>2026-03-27T07:22:39.407Z</time></trkpt><trkpt lat="40.6935402" lon="14.7225423"><ele>243.42857142857144</ele><time>2026-03-27T07:22:44.407Z</time></trkpt><trkpt lat="40.6935091" lon="14.7224619"><ele>242.28571428571428</ele><time>2026-03-27T07:22:50.407Z</time></trkpt><trkpt lat="40.6935026" lon="14.7223692"><ele>241.14285714285717</ele><time>2026-03-27T07:22:57.407Z</time></trkpt><trkpt lat="40.6935177" lon="14.7222817"><ele>240.0</ele><time>2026-03-27T07:23:07.407Z</time></trkpt><trkpt lat="40.6935262" lon="14.7221844"><ele>240.0</ele><time>2026-03-27T07:23:11.407Z</time></trkpt><trkpt lat="40.6935321" lon="14.722087"><ele>240.0</ele><time>2026-03-27T07:23:16.407Z</time></trkpt><trkpt lat="40.6935567" lon="14.7220043"><ele>240.0</ele><time>2026-03-27T07:23:22.407Z</time></trkpt><trkpt lat="40.6935085" lon="14.7219388"><ele>240.0</ele><time>2026-03-27T07:23:29.407Z</time></trkpt><trkpt lat="40.693527" lon="14.7218511"><ele>240.0</ele><time>2026-03-27T07:23:35.407Z</time></trkpt><trkpt lat="40.6935722" lon="14.7217889"><ele>240.0</ele><time>2026-03-27T07:23:39.407Z</time></trkpt><trkpt lat="40.6936147" lon="14.7217109"><ele>240.0</ele><time>2026-03-27T07:23:45.407Z</time></trkpt><trkpt lat="40.6936596" lon="14.7216479"><ele>242.42857142857144</ele><time>2026-03-27T07:23:50.407Z</time></trkpt><trkpt lat="40.6937142" lon="14.7215826"><ele>244.85714285714283</ele><time>2026-03-27T07:23:54.407Z</time></trkpt><trkpt lat="40.6937762" lon="14.7215217"><ele>247.28571428571428</ele><time>2026-03-27T07:24:00.407Z</time></trkpt><trkpt lat="40.6938281" lon="14.7214732"><ele>249.71428571428572</ele><time>2026-03-27T07:24:03.408Z</time></trkpt><trkpt lat="40.6938849" lon="14.721424"><ele>252.14285714285717</ele><time>2026-03-27T07:24:08.408Z</time></trkpt><trkpt lat="40.6939421" lon="14.7213776"><ele>254.57142857142856</ele><time>2026-03-27T07:24:13.407Z</time></trkpt><trkpt lat="40.6939977" lon="14.7213241"><ele>257.0</ele><time>2026-03-27T07:24:18.407Z</time></trkpt><trkpt lat="40.6940557" lon="14.7212682"><ele>257.0</ele><time>2026-03-27T07:24:23.407Z</time></trkpt><trkpt lat="40.6941192" lon="14.7212088"><ele>257.0</ele><time>2026-03-27T07:24:28.408Z</time></trkpt><trkpt lat="40.6941797" lon="14.7211455"><ele>257.0</ele><time>2026-03-27T07:24:33.407Z</time></trkpt><trkpt lat="40.6942276" lon="14.721086"><ele>257.0</ele><time>2026-03-27T07:24:38.407Z</time></trkpt><trkpt lat="40.6942748" lon="14.7210246"><ele>257.0</ele><time>2026-03-27T07:24:42.407Z</time></trkpt><trkpt lat="40.6943278" lon="14.7209481"><ele>257.0</ele><time>2026-03-27T07:24:47.407Z</time></trkpt><trkpt lat="40.6943725" lon="14.7208801"><ele>257.0</ele><time>2026-03-27T07:24:51.407Z</time></trkpt><trkpt lat="40.694414" lon="14.7208153"><ele>258.0</ele><time>2026-03-27T07:24:55.407Z</time></trkpt><trkpt lat="40.6944097" lon="14.7207159"><ele>259.0</ele><time>2026-03-27T07:24:59.407Z</time></trkpt><trkpt lat="40.6944118" lon="14.7206312"><ele>260.0</ele><time>2026-03-27T07:25:03.407Z</time></trkpt><trkpt lat="40.6944283" lon="14.7205302"><ele>261.0</ele><time>2026-03-27T07:25:08.407Z</time></trkpt><trkpt lat="40.6944383" lon="14.7204364"><ele>262.0</ele><time>2026-03-27T07:25:12.407Z</time></trkpt><trkpt lat="40.6944384" lon="14.7203441"><ele>263.0</ele><time>2026-03-27T07:25:16.407Z</time></trkpt><trkpt lat="40.6944121" lon="14.7202368"><ele>264.0</ele><time>2026-03-27T07:25:54.407Z</time></trkpt><trkpt lat="40.6944015" lon="14.7201484"><ele>259.85714285714283</ele><time>2026-03-27T07:25:59.407Z</time></trkpt><trkpt lat="40.6943919" lon="14.7200597"><ele>255.71428571428572</ele><time>2026-03-27T07:26:04.407Z</time></trkpt><trkpt lat="40.6943677" lon="14.7199669"><ele>251.57142857142856</ele><time>2026-03-27T07:26:10.407Z</time></trkpt><trkpt lat="40.6943321" lon="14.7198906"><ele>247.42857142857142</ele><time>2026-03-27T07:26:14.407Z</time></trkpt><trkpt lat="40.6942883" lon="14.7198273"><ele>243.28571428571428</ele><time>2026-03-27T07:26:18.407Z</time></trkpt><trkpt lat="40.6942493" lon="14.7197537"><ele>239.14285714285714</ele><time>2026-03-27T07:26:22.407Z</time></trkpt><trkpt lat="40.6942122" lon="14.7196857"><ele>235.0</ele><time>2026-03-27T07:26:27.407Z</time></trkpt><trkpt lat="40.6941738" lon="14.7196135"><ele>235.0</ele><time>2026-03-27T07:26:31.407Z</time></trkpt><trkpt lat="40.6941345" lon="14.7195352"><ele>234.99999999999997</ele><time>2026-03-27T07:26:35.407Z</time></trkpt><trkpt lat="40.6940985" lon="14.7194554"><ele>235.0</ele><time>2026-03-27T07:26:39.407Z</time></trkpt><trkpt lat="40.694066" lon="14.7193735"><ele>235.0</ele><time>2026-03-27T07:26:43.407Z</time></trkpt><trkpt lat="40.6940379" lon="14.7192917"><ele>234.99999999999997</ele><time>2026-03-27T07:26:47.407Z</time></trkpt><trkpt lat="40.6940784" lon="14.7192221"><ele>235.0</ele><time>2026-03-27T07:26:51.407Z</time></trkpt><trkpt lat="40.6941018" lon="14.7191401"><ele>235.0</ele><time>2026-03-27T07:26:56.407Z</time></trkpt><trkpt lat="40.6940982" lon="14.7190508"><ele>236.28571428571428</ele><time>2026-03-27T07:27:00.407Z</time></trkpt><trkpt lat="40.6940955" lon="14.7189634"><ele>237.57142857142856</ele><time>2026-03-27T07:27:04.407Z</time></trkpt><trkpt lat="40.6940604" lon="14.7188822"><ele>238.85714285714283</ele><time>2026-03-27T07:27:12.407Z</time></trkpt><trkpt lat="40.6940276" lon="14.7187956"><ele>240.1428571428571</ele><time>2026-03-27T07:27:17.408Z</time></trkpt><trkpt lat="40.6940045" lon="14.7186924"><ele>241.42857142857142</ele><time>2026-03-27T07:27:21.407Z</time></trkpt><trkpt lat="40.693989" lon="14.7185877"><ele>242.71428571428567</ele><time>2026-03-27T07:27:25.407Z</time></trkpt><trkpt lat="40.6939783" lon="14.7184982"><ele>243.99999999999997</ele><time>2026-03-27T07:27:29.407Z</time></trkpt><trkpt lat="40.6939685" lon="14.7183935"><ele>243.99999999999997</ele><time>2026-03-27T07:27:34.407Z</time></trkpt><trkpt lat="40.6939695" lon="14.7182861"><ele>244.0</ele><time>2026-03-27T07:27:38.407Z</time></trkpt><trkpt lat="40.6940064" lon="14.718208"><ele>244.0</ele><time>2026-03-27T07:27:43.407Z</time></trkpt><trkpt lat="40.6940367" lon="14.718111"><ele>244.0</ele><time>2026-03-27T07:27:49.407Z</time></trkpt><trkpt lat="40.6940695" lon="14.7180227"><ele>243.99999999999997</ele><time>2026-03-27T07:27:56.408Z</time></trkpt><trkpt lat="40.6941012" lon="14.7179396"><ele>244.0</ele><time>2026-03-27T07:28:03.407Z</time></trkpt><trkpt lat="40.694136" lon="14.7178515"><ele>243.99999999999997</ele><time>2026-03-27T07:28:09.407Z</time></trkpt><trkpt lat="40.6941696" lon="14.717764"><ele>244.0</ele><time>2026-03-27T07:28:13.407Z</time></trkpt><trkpt lat="40.6942063" lon="14.7176684"><ele>244.0</ele><time>2026-03-27T07:28:18.407Z</time></trkpt><trkpt lat="40.6942376" lon="14.7175905"><ele>244.0</ele><time>2026-03-27T07:28:21.407Z</time></trkpt><trkpt lat="40.6942718" lon="14.7174896"><ele>243.99999999999997</ele><time>2026-03-27T07:28:25.407Z</time></trkpt><trkpt lat="40.6943041" lon="14.717392"><ele>244.0</ele><time>2026-03-27T07:28:30.407Z</time></trkpt><trkpt lat="40.6943301" lon="14.7173142"><ele>242.99999999999997</ele><time>2026-03-27T07:28:35.407Z</time></trkpt><trkpt lat="40.6943548" lon="14.7172362"><ele>242.0</ele><time>2026-03-27T07:28:40.407Z</time></trkpt><trkpt lat="40.6943867" lon="14.7171374"><ele>240.99999999999997</ele><time>2026-03-27T07:28:45.407Z</time></trkpt><trkpt lat="40.6944164" lon="14.7170447"><ele>239.99999999999997</ele><time>2026-03-27T07:28:49.407Z</time></trkpt><trkpt lat="40.694442" lon="14.7169675"><ele>239.0</ele><time>2026-03-27T07:28:53.407Z</time></trkpt><trkpt lat="40.6944742" lon="14.7168674"><ele>237.99999999999997</ele><time>2026-03-27T07:28:57.407Z</time></trkpt><trkpt lat="40.694453" lon="14.7167822"><ele>236.99999999999997</ele><time>2026-03-27T07:29:00.407Z</time></trkpt><trkpt lat="40.6944246" lon="14.7166919"><ele>235.1428571428571</ele><time>2026-03-27T07:29:04.407Z</time></trkpt><trkpt lat="40.6943999" lon="14.7165939"><ele>233.28571428571428</ele><time>2026-03-27T07:29:08.407Z</time></trkpt><trkpt lat="40.6943959" lon="14.7165075"><ele>231.42857142857142</ele><time>2026-03-27T07:29:12.407Z</time></trkpt><trkpt lat="40.6944428" lon="14.7164403"><ele>229.57142857142856</ele><time>2026-03-27T07:29:16.407Z</time></trkpt><trkpt lat="40.6944821" lon="14.7163652"><ele>227.71428571428572</ele><time>2026-03-27T07:29:22.407Z</time></trkpt><trkpt lat="40.6945341" lon="14.716412"><ele>225.85714285714286</ele><time>2026-03-27T07:29:30.407Z</time></trkpt><trkpt lat="40.6945738" lon="14.7164787"><ele>224.0</ele><time>2026-03-27T07:29:36.407Z</time></trkpt><trkpt lat="40.6946313" lon="14.7165163"><ele>223.71428571428572</ele><time>2026-03-27T07:29:39.407Z</time></trkpt><trkpt lat="40.6946877" lon="14.7165789"><ele>223.42857142857144</ele><time>2026-03-27T07:29:42.407Z</time></trkpt><trkpt lat="40.6947576" lon="14.7165996"><ele>223.14285714285714</ele><time>2026-03-27T07:29:46.407Z</time></trkpt><trkpt lat="40.694832" lon="14.7166155"><ele>222.85714285714286</ele><time>2026-03-27T07:29:50.408Z</time></trkpt><trkpt lat="40.6948945" lon="14.716598"><ele>222.57142857142858</ele><time>2026-03-27T07:30:01.408Z</time></trkpt><trkpt lat="40.6949646" lon="14.7166041"><ele>222.28571428571428</ele><time>2026-03-27T07:30:07.407Z</time></trkpt><trkpt lat="40.6950339" lon="14.7166168"><ele>222.0</ele><time>2026-03-27T07:30:11.407Z</time></trkpt><trkpt lat="40.6951033" lon="14.7166303"><ele>222.0</ele><time>2026-03-27T07:30:14.407Z</time></trkpt><trkpt lat="40.6951674" lon="14.7166442"><ele>222.0</ele><time>2026-03-27T07:30:17.407Z</time></trkpt><trkpt lat="40.6952375" lon="14.7166613"><ele>222.0</ele><time>2026-03-27T07:30:22.407Z</time></trkpt><trkpt lat="40.6953004" lon="14.7166759"><ele>222.0</ele><time>2026-03-27T07:30:27.407Z</time></trkpt><trkpt lat="40.6953747" lon="14.7166923"><ele>222.0</ele><time>2026-03-27T07:30:32.407Z</time></trkpt><trkpt lat="40.6954453" lon="14.7167091"><ele>222.0</ele><time>2026-03-27T07:30:36.407Z</time></trkpt><trkpt lat="40.6955099" lon="14.7167241"><ele>222.0</ele><time>2026-03-27T07:30:40.407Z</time></trkpt><trkpt lat="40.6955726" lon="14.7167388"><ele>222.28571428571428</ele><time>2026-03-27T07:30:44.407Z</time></trkpt><trkpt lat="40.6956369" lon="14.7167532"><ele>222.57142857142858</ele><time>2026-03-27T07:30:49.407Z</time></trkpt><trkpt lat="40.6957068" lon="14.7167693"><ele>222.85714285714286</ele><time>2026-03-27T07:30:55.407Z</time></trkpt><trkpt lat="40.6957111" lon="14.7168648"><ele>223.14285714285714</ele><time>2026-03-27T07:30:59.407Z</time></trkpt><trkpt lat="40.6957192" lon="14.7169529"><ele>223.42857142857144</ele><time>2026-03-27T07:31:02.407Z</time></trkpt><trkpt lat="40.6957349" lon="14.7170384"><ele>223.71428571428572</ele><time>2026-03-27T07:31:06.407Z</time></trkpt><trkpt lat="40.6957597" lon="14.7171388"><ele>224.0</ele><time>2026-03-27T07:31:11.407Z</time></trkpt><trkpt lat="40.695781" lon="14.717222"><ele>224.00000000000003</ele><time>2026-03-27T07:31:15.407Z</time></trkpt><trkpt lat="40.6958083" lon="14.7173154"><ele>224.0</ele><time>2026-03-27T07:31:20.408Z</time></trkpt><trkpt lat="40.6958784" lon="14.7173571"><ele>224.0</ele><time>2026-03-27T07:31:24.407Z</time></trkpt><trkpt lat="40.6959608" lon="14.7173694"><ele>224.0</ele><time>2026-03-27T07:31:27.407Z</time></trkpt><trkpt lat="40.6960372" lon="14.7173855"><ele>224.00000000000003</ele><time>2026-03-27T07:31:30.407Z</time></trkpt><trkpt lat="40.696115" lon="14.7173995"><ele>224.0</ele><time>2026-03-27T07:31:35.407Z</time></trkpt><trkpt lat="40.6961833" lon="14.7174128"><ele>222.28571428571428</ele><time>2026-03-27T07:31:39.407Z</time></trkpt><trkpt lat="40.6962516" lon="14.7174272"><ele>220.57142857142856</ele><time>2026-03-27T07:31:43.407Z</time></trkpt><trkpt lat="40.6963255" lon="14.7174428"><ele>218.85714285714286</ele><time>2026-03-27T07:31:48.407Z</time></trkpt><trkpt lat="40.6964076" lon="14.7174588"><ele>217.14285714285714</ele><time>2026-03-27T07:31:52.407Z</time></trkpt><trkpt lat="40.6964756" lon="14.717473"><ele>215.42857142857142</ele><time>2026-03-27T07:31:56.407Z</time></trkpt><trkpt lat="40.6965545" lon="14.7174904"><ele>213.71428571428572</ele><time>2026-03-27T07:32:00.407Z</time></trkpt><trkpt lat="40.6966063" lon="14.717424"><ele>212.0</ele><time>2026-03-27T07:32:04.407Z</time></trkpt><trkpt lat="40.6966558" lon="14.7173506"><ele>212.0</ele><time>2026-03-27T07:32:09.407Z</time></trkpt><trkpt lat="40.696679" lon="14.7172658"><ele>212.0</ele><time>2026-03-27T07:32:15.407Z</time></trkpt><trkpt lat="40.696706" lon="14.7171668"><ele>212.0</ele><time>2026-03-27T07:32:21.407Z</time></trkpt><trkpt lat="40.6967312" lon="14.7170731"><ele>212.0</ele><time>2026-03-27T07:32:26.407Z</time></trkpt><trkpt lat="40.6967461" lon="14.7169705"><ele>212.0</ele><time>2026-03-27T07:32:31.407Z</time></trkpt><trkpt lat="40.6967599" lon="14.7168758"><ele>212.0</ele><time>2026-03-27T07:32:36.407Z</time></trkpt><trkpt lat="40.6967733" lon="14.7167913"><ele>212.0</ele><time>2026-03-27T07:32:42.407Z</time></trkpt><trkpt lat="40.6968313" lon="14.7167118"><ele>211.2857142857143</ele><time>2026-03-27T07:33:04.407Z</time></trkpt><trkpt lat="40.6968908" lon="14.7166682"><ele>210.57142857142856</ele><time>2026-03-27T07:33:07.407Z</time></trkpt><trkpt lat="40.6969639" lon="14.7166078"><ele>209.85714285714286</ele><time>2026-03-27T07:33:10.408Z</time></trkpt><trkpt lat="40.6970207" lon="14.7165715"><ele>209.14285714285717</ele><time>2026-03-27T07:33:16.407Z</time></trkpt><trkpt lat="40.6970781" lon="14.7165084"><ele>208.42857142857144</ele><time>2026-03-27T07:33:28.407Z</time></trkpt><trkpt lat="40.6971411" lon="14.7164704"><ele>207.71428571428572</ele><time>2026-03-27T07:33:32.408Z</time></trkpt><trkpt lat="40.6972012" lon="14.7164328"><ele>207.0</ele><time>2026-03-27T07:33:37.407Z</time></trkpt><trkpt lat="40.6972636" lon="14.7163962"><ele>207.00000000000003</ele><time>2026-03-27T07:33:41.407Z</time></trkpt><trkpt lat="40.6973343" lon="14.7163669"><ele>207.0</ele><time>2026-03-27T07:33:48.408Z</time></trkpt><trkpt lat="40.6974053" lon="14.7163358"><ele>207.0</ele><time>2026-03-27T07:33:52.408Z</time></trkpt><trkpt lat="40.6974678" lon="14.7163091"><ele>207.0</ele><time>2026-03-27T07:33:58.407Z</time></trkpt><trkpt lat="40.6975359" lon="14.7162844"><ele>207.0</ele><time>2026-03-27T07:34:02.407Z</time></trkpt><trkpt lat="40.6976098" lon="14.7162635"><ele>207.00000000000003</ele><time>2026-03-27T07:34:08.407Z</time></trkpt><trkpt lat="40.6976811" lon="14.716268"><ele>207.0</ele><time>2026-03-27T07:34:14.407Z</time></trkpt><trkpt lat="40.6977554" lon="14.7162899"><ele>204.71428571428572</ele><time>2026-03-27T07:34:20.407Z</time></trkpt><trkpt lat="40.6978206" lon="14.7163259"><ele>202.42857142857144</ele><time>2026-03-27T07:34:24.407Z</time></trkpt><trkpt lat="40.6978939" lon="14.7163745"><ele>200.14285714285717</ele><time>2026-03-27T07:34:28.407Z</time></trkpt><trkpt lat="40.6979525" lon="14.7164126"><ele>197.85714285714286</ele><time>2026-03-27T07:34:32.407Z</time></trkpt><trkpt lat="40.6980102" lon="14.7164635"><ele>195.57142857142856</ele><time>2026-03-27T07:34:36.407Z</time></trkpt><trkpt lat="40.6980639" lon="14.7165122"><ele>193.2857142857143</ele><time>2026-03-27T07:34:40.407Z</time></trkpt><trkpt lat="40.6981199" lon="14.7165682"><ele>191.0</ele><time>2026-03-27T07:34:44.408Z</time></trkpt><trkpt lat="40.6981738" lon="14.7166206"><ele>191.0</ele><time>2026-03-27T07:34:49.407Z</time></trkpt><trkpt lat="40.6982258" lon="14.7166757"><ele>191.0</ele><time>2026-03-27T07:34:54.407Z</time></trkpt><trkpt lat="40.6982742" lon="14.7167291"><ele>191.0</ele><time>2026-03-27T07:34:59.407Z</time></trkpt><trkpt lat="40.698329" lon="14.7167991"><ele>191.0</ele><time>2026-03-27T07:35:03.407Z</time></trkpt><trkpt lat="40.6983657" lon="14.7168732"><ele>191.0</ele><time>2026-03-27T07:35:07.407Z</time></trkpt><trkpt lat="40.698412" lon="14.716933"><ele>191.0</ele><time>2026-03-27T07:35:11.407Z</time></trkpt><trkpt lat="40.6984719" lon="14.716978"><ele>191.0</ele><time>2026-03-27T07:35:15.407Z</time></trkpt><trkpt lat="40.6985461" lon="14.7170179"><ele>191.42857142857144</ele><time>2026-03-27T07:35:19.407Z</time></trkpt><trkpt lat="40.6986084" lon="14.7170461"><ele>191.85714285714283</ele><time>2026-03-27T07:35:22.407Z</time></trkpt><trkpt lat="40.69867" lon="14.7170737"><ele>192.28571428571428</ele><time>2026-03-27T07:35:28.407Z</time></trkpt><trkpt lat="40.6987346" lon="14.7171004"><ele>192.71428571428572</ele><time>2026-03-27T07:35:31.407Z</time></trkpt><trkpt lat="40.6987816" lon="14.7170416"><ele>193.14285714285717</ele><time>2026-03-27T07:35:34.407Z</time></trkpt><trkpt lat="40.6988138" lon="14.7169464"><ele>193.57142857142856</ele><time>2026-03-27T07:35:37.407Z</time></trkpt><trkpt lat="40.6988358" lon="14.7168676"><ele>194.0</ele><time>2026-03-27T07:35:40.407Z</time></trkpt><trkpt lat="40.698844" lon="14.716772"><ele>195.28571428571428</ele><time>2026-03-27T07:35:45.407Z</time></trkpt><trkpt lat="40.6988308" lon="14.7166813"><ele>196.57142857142858</ele><time>2026-03-27T07:35:50.407Z</time></trkpt><trkpt lat="40.6988096" lon="14.7165888"><ele>197.85714285714286</ele><time>2026-03-27T07:35:54.407Z</time></trkpt><trkpt lat="40.6987801" lon="14.716495"><ele>199.14285714285714</ele><time>2026-03-27T07:35:59.407Z</time></trkpt><trkpt lat="40.6987542" lon="14.7164162"><ele>200.42857142857144</ele><time>2026-03-27T07:36:03.407Z</time></trkpt><trkpt lat="40.6987274" lon="14.7163307"><ele>201.71428571428572</ele><time>2026-03-27T07:36:07.408Z</time></trkpt><trkpt lat="40.6987007" lon="14.7162534"><ele>203.0</ele><time>2026-03-27T07:36:11.407Z</time></trkpt><trkpt lat="40.698669" lon="14.7161762"><ele>203.0</ele><time>2026-03-27T07:36:16.407Z</time></trkpt><trkpt lat="40.698634" lon="14.7161058"><ele>203.0</ele><time>2026-03-27T07:36:20.407Z</time></trkpt><trkpt lat="40.6985932" lon="14.7160425"><ele>203.0</ele><time>2026-03-27T07:36:24.407Z</time></trkpt><trkpt lat="40.6985467" lon="14.7159845"><ele>203.0</ele><time>2026-03-27T07:36:27.407Z</time></trkpt><trkpt lat="40.698497" lon="14.7159203"><ele>203.0</ele><time>2026-03-27T07:36:31.407Z</time></trkpt><trkpt lat="40.6984447" lon="14.715856"><ele>203.0</ele><time>2026-03-27T07:36:35.407Z</time></trkpt><trkpt lat="40.6983831" lon="14.7157891"><ele>203.0</ele><time>2026-03-27T07:36:41.407Z</time></trkpt><trkpt lat="40.6983274" lon="14.7157342"><ele>201.42857142857142</ele><time>2026-03-27T07:36:47.407Z</time></trkpt><trkpt lat="40.6982704" lon="14.715682"><ele>199.85714285714286</ele><time>2026-03-27T07:36:52.407Z</time></trkpt><trkpt lat="40.698215" lon="14.7156313"><ele>198.28571428571428</ele><time>2026-03-27T07:36:57.407Z</time></trkpt><trkpt lat="40.6981503" lon="14.7155754"><ele>196.71428571428572</ele><time>2026-03-27T07:37:01.407Z</time></trkpt><trkpt lat="40.6980903" lon="14.7155251"><ele>195.14285714285714</ele><time>2026-03-27T07:37:05.407Z</time></trkpt><trkpt lat="40.698029" lon="14.715472"><ele>193.57142857142856</ele><time>2026-03-27T07:37:10.407Z</time></trkpt><trkpt lat="40.6979739" lon="14.7154226"><ele>192.0</ele><time>2026-03-27T07:37:15.407Z</time></trkpt><trkpt lat="40.6979187" lon="14.7153752"><ele>191.99999999999997</ele><time>2026-03-27T07:37:20.407Z</time></trkpt><trkpt lat="40.6978598" lon="14.7153229"><ele>192.0</ele><time>2026-03-27T07:37:25.407Z</time></trkpt><trkpt lat="40.6978076" lon="14.715276"><ele>192.0</ele><time>2026-03-27T07:37:30.407Z</time></trkpt><trkpt lat="40.6977537" lon="14.7152284"><ele>192.0</ele><time>2026-03-27T07:37:35.407Z</time></trkpt><trkpt lat="40.6976999" lon="14.7151799"><ele>192.0</ele><time>2026-03-27T07:37:41.407Z</time></trkpt><trkpt lat="40.6976469" lon="14.7151238"><ele>191.99999999999997</ele><time>2026-03-27T07:37:46.407Z</time></trkpt><trkpt lat="40.6975988" lon="14.7150676"><ele>192.0</ele><time>2026-03-27T07:37:50.407Z</time></trkpt><trkpt lat="40.6975498" lon="14.7150089"><ele>191.7142857142857</ele><time>2026-03-27T07:37:55.407Z</time></trkpt><trkpt lat="40.697506" lon="14.714944"><ele>191.42857142857142</ele><time>2026-03-27T07:38:00.407Z</time></trkpt><trkpt lat="40.697463" lon="14.7148756"><ele>191.14285714285714</ele><time>2026-03-27T07:38:05.407Z</time></trkpt><trkpt lat="40.697422" lon="14.7148078"><ele>190.85714285714283</ele><time>2026-03-27T07:38:11.407Z</time></trkpt><trkpt lat="40.6973762" lon="14.7147238"><ele>190.57142857142858</ele><time>2026-03-27T07:38:17.407Z</time></trkpt><trkpt lat="40.6973465" lon="14.7146344"><ele>190.28571428571428</ele><time>2026-03-27T07:38:22.407Z</time></trkpt><trkpt lat="40.6973238" lon="14.7145436"><ele>190.0</ele><time>2026-03-27T07:38:28.407Z</time></trkpt><trkpt lat="40.6972931" lon="14.7144565"><ele>189.85714285714286</ele><time>2026-03-27T07:38:35.407Z</time></trkpt><trkpt lat="40.6972509" lon="14.714376"><ele>189.71428571428572</ele><time>2026-03-27T07:38:41.407Z</time></trkpt><trkpt lat="40.6971977" lon="14.7143013"><ele>189.57142857142856</ele><time>2026-03-27T07:38:45.408Z</time></trkpt><trkpt lat="40.697151" lon="14.7142346"><ele>189.42857142857144</ele><time>2026-03-27T07:38:49.407Z</time></trkpt><trkpt lat="40.6970892" lon="14.7141973"><ele>189.28571428571428</ele><time>2026-03-27T07:38:54.407Z</time></trkpt><trkpt lat="40.6970259" lon="14.7141981"><ele>189.14285714285714</ele><time>2026-03-27T07:38:59.407Z</time></trkpt><trkpt lat="40.6969544" lon="14.7142316"><ele>189.0</ele><time>2026-03-27T07:39:04.407Z</time></trkpt><trkpt lat="40.6968929" lon="14.7142655"><ele>189.0</ele><time>2026-03-27T07:39:08.407Z</time></trkpt><trkpt lat="40.6968114" lon="14.7143109"><ele>189.0</ele><time>2026-03-27T07:39:12.407Z</time></trkpt><trkpt lat="40.6967369" lon="14.7143507"><ele>189.0</ele><time>2026-03-27T07:39:18.407Z</time></trkpt><trkpt lat="40.6966674" lon="14.7143855"><ele>189.0</ele><time>2026-03-27T07:39:22.407Z</time></trkpt><trkpt lat="40.6966158" lon="14.7143162"><ele>189.0</ele><time>2026-03-27T07:39:27.407Z</time></trkpt><trkpt lat="40.6965732" lon="14.7142479"><ele>189.0</ele><time>2026-03-27T07:39:29.407Z</time></trkpt><trkpt lat="40.6965353" lon="14.7141757"><ele>189.0</ele><time>2026-03-27T07:39:31.407Z</time></trkpt><trkpt lat="40.6964718" lon="14.7141122"><ele>189.0</ele><time>2026-03-27T07:39:34.407Z</time></trkpt><trkpt lat="40.6964346" lon="14.7140215"><ele>189.0</ele><time>2026-03-27T07:39:38.407Z</time></trkpt><trkpt lat="40.6963762" lon="14.7139597"><ele>189.0</ele><time>2026-03-27T07:39:42.407Z</time></trkpt><trkpt lat="40.6963178" lon="14.7138964"><ele>189.0</ele><time>2026-03-27T07:39:46.407Z</time></trkpt><trkpt lat="40.6962665" lon="14.7138415"><ele>189.0</ele><time>2026-03-27T07:39:51.407Z</time></trkpt><trkpt lat="40.6962117" lon="14.7137817"><ele>189.0</ele><time>2026-03-27T07:39:55.407Z</time></trkpt><trkpt lat="40.6961525" lon="14.7137155"><ele>189.0</ele><time>2026-03-27T07:40:00.407Z</time></trkpt><trkpt lat="40.696097" lon="14.7136553"><ele>189.0</ele><time>2026-03-27T07:40:05.407Z</time></trkpt><trkpt lat="40.6960391" lon="14.7135909"><ele>189.0</ele><time>2026-03-27T07:40:11.407Z</time></trkpt><trkpt lat="40.69599" lon="14.7135371"><ele>189.0</ele><time>2026-03-27T07:40:17.407Z</time></trkpt><trkpt lat="40.6959203" lon="14.7135103"><ele>189.0</ele><time>2026-03-27T07:40:33.407Z</time></trkpt><trkpt lat="40.6958678" lon="14.713453"><ele>189.0</ele><time>2026-03-27T07:40:37.407Z</time></trkpt><trkpt lat="40.6958115" lon="14.7133852"><ele>189.0</ele><time>2026-03-27T07:40:42.407Z</time></trkpt><trkpt lat="40.695805" lon="14.713301"><ele>189.28571428571428</ele><time>2026-03-27T07:40:47.407Z</time></trkpt><trkpt lat="40.6958657" lon="14.7132165"><ele>189.57142857142856</ele><time>2026-03-27T07:40:50.407Z</time></trkpt><trkpt lat="40.6959152" lon="14.7131272"><ele>189.85714285714286</ele><time>2026-03-27T07:40:53.407Z</time></trkpt><trkpt lat="40.6959544" lon="14.7130521"><ele>190.14285714285714</ele><time>2026-03-27T07:40:56.407Z</time></trkpt><trkpt lat="40.6959979" lon="14.7129801"><ele>190.42857142857142</ele><time>2026-03-27T07:41:00.407Z</time></trkpt><trkpt lat="40.6960464" lon="14.7129136"><ele>190.71428571428572</ele><time>2026-03-27T07:41:05.407Z</time></trkpt><trkpt lat="40.6960934" lon="14.7128502"><ele>191.0</ele><time>2026-03-27T07:41:10.407Z</time></trkpt><trkpt lat="40.6961377" lon="14.7127906"><ele>191.2857142857143</ele><time>2026-03-27T07:41:14.407Z</time></trkpt><trkpt lat="40.6961827" lon="14.7127313"><ele>191.57142857142856</ele><time>2026-03-27T07:41:18.407Z</time></trkpt><trkpt lat="40.6962327" lon="14.7126678"><ele>191.85714285714286</ele><time>2026-03-27T07:41:22.407Z</time></trkpt><trkpt lat="40.6962821" lon="14.7126053"><ele>192.14285714285717</ele><time>2026-03-27T07:41:27.407Z</time></trkpt><trkpt lat="40.6963326" lon="14.7125477"><ele>192.42857142857144</ele><time>2026-03-27T07:41:30.407Z</time></trkpt><trkpt lat="40.6963863" lon="14.7124971"><ele>192.71428571428572</ele><time>2026-03-27T07:41:34.407Z</time></trkpt><trkpt lat="40.696439" lon="14.7124502"><ele>193.0</ele><time>2026-03-27T07:41:38.407Z</time></trkpt><trkpt lat="40.6964928" lon="14.7124022"><ele>193.00000000000003</ele><time>2026-03-27T07:41:43.407Z</time></trkpt><trkpt lat="40.6965652" lon="14.7123971"><ele>193.0</ele><time>2026-03-27T07:41:59.407Z</time></trkpt><trkpt lat="40.6966232" lon="14.7123499"><ele>193.0</ele><time>2026-03-27T07:42:03.408Z</time></trkpt><trkpt lat="40.6966943" lon="14.7123169"><ele>193.0</ele><time>2026-03-27T07:42:09.408Z</time></trkpt><trkpt lat="40.6967507" lon="14.7122789"><ele>193.0</ele><time>2026-03-27T07:42:13.407Z</time></trkpt><trkpt lat="40.6968119" lon="14.7122176"><ele>193.00000000000003</ele><time>2026-03-27T07:42:18.407Z</time></trkpt><trkpt lat="40.6968809" lon="14.7121805"><ele>193.0</ele><time>2026-03-27T07:42:23.407Z</time></trkpt><trkpt lat="40.6969349" lon="14.7121342"><ele>193.00000000000003</ele><time>2026-03-27T07:42:28.407Z</time></trkpt><trkpt lat="40.6969544" lon="14.7120357"><ele>193.0</ele><time>2026-03-27T07:42:32.407Z</time></trkpt><trkpt lat="40.6969555" lon="14.7119338"><ele>193.0</ele><time>2026-03-27T07:42:37.407Z</time></trkpt><trkpt lat="40.696985" lon="14.7118558"><ele>193.0</ele><time>2026-03-27T07:42:43.407Z</time></trkpt><trkpt lat="40.6970367" lon="14.7118075"><ele>193.0</ele><time>2026-03-27T07:42:47.407Z</time></trkpt><trkpt lat="40.6970997" lon="14.7117621"><ele>193.00000000000003</ele><time>2026-03-27T07:42:55.407Z</time></trkpt><trkpt lat="40.6971247" lon="14.7116794"><ele>193.0</ele><time>2026-03-27T07:43:45.407Z</time></trkpt><trkpt lat="40.6971862" lon="14.7116513"><ele>193.00000000000003</ele><time>2026-03-27T07:44:32.407Z</time></trkpt><trkpt lat="40.697251" lon="14.7116195"><ele>193.0</ele><time>2026-03-27T07:44:38.407Z</time></trkpt><trkpt lat="40.6973108" lon="14.7115828"><ele>193.0</ele><time>2026-03-27T07:44:50.407Z</time></trkpt><trkpt lat="40.6973734" lon="14.7115543"><ele>193.0</ele><time>2026-03-27T07:44:56.407Z</time></trkpt><trkpt lat="40.6974429" lon="14.7115198"><ele>193.0</ele><time>2026-03-27T07:45:02.407Z</time></trkpt><trkpt lat="40.6975042" lon="14.7114784"><ele>193.00000000000003</ele><time>2026-03-27T07:45:08.407Z</time></trkpt><trkpt lat="40.6975642" lon="14.7114362"><ele>193.0</ele><time>2026-03-27T07:45:13.407Z</time></trkpt><trkpt lat="40.6976211" lon="14.7113964"><ele>192.99999999999997</ele><time>2026-03-27T07:45:18.407Z</time></trkpt><trkpt lat="40.6976836" lon="14.7113523"><ele>193.0</ele><time>2026-03-27T07:45:22.407Z</time></trkpt><trkpt lat="40.6977499" lon="14.7113062"><ele>193.0</ele><time>2026-03-27T07:45:28.407Z</time></trkpt><trkpt lat="40.6978228" lon="14.7112546"><ele>193.0</ele><time>2026-03-27T07:45:33.407Z</time></trkpt><trkpt lat="40.6979086" lon="14.7111955"><ele>192.99999999999997</ele><time>2026-03-27T07:45:39.407Z</time></trkpt><trkpt lat="40.6979839" lon="14.7111426"><ele>193.0</ele><time>2026-03-27T07:45:45.407Z</time></trkpt><trkpt lat="40.6980488" lon="14.7110971"><ele>193.83333333333331</ele><time>2026-03-27T07:45:53.407Z</time></trkpt><trkpt lat="40.6981094" lon="14.711055"><ele>194.66666666666666</ele><time>2026-03-27T07:45:58.407Z</time></trkpt><trkpt lat="40.6981773" lon="14.711007"><ele>195.5</ele><time>2026-03-27T07:46:04.407Z</time></trkpt><trkpt lat="40.6982465" lon="14.7109612"><ele>196.33333333333331</ele><time>2026-03-27T07:46:09.407Z</time></trkpt><trkpt lat="40.6983184" lon="14.7109122"><ele>197.16666666666666</ele><time>2026-03-27T07:46:15.407Z</time></trkpt><trkpt lat="40.6983908" lon="14.7108648"><ele>198.0</ele><time>2026-03-27T07:46:20.407Z</time></trkpt><trkpt lat="40.698451" lon="14.7108236"><ele>198.0</ele><time>2026-03-27T07:46:26.407Z</time></trkpt><trkpt lat="40.6985155" lon="14.710781"><ele>198.0</ele><time>2026-03-27T07:46:31.408Z</time></trkpt><trkpt lat="40.6985792" lon="14.7107386"><ele>198.0</ele><time>2026-03-27T07:46:36.408Z</time></trkpt><trkpt lat="40.6986444" lon="14.7106935"><ele>198.0</ele><time>2026-03-27T07:46:40.407Z</time></trkpt><trkpt lat="40.698705" lon="14.7106533"><ele>198.0</ele><time>2026-03-27T07:46:45.407Z</time></trkpt><trkpt lat="40.6987728" lon="14.7106082"><ele>198.0</ele><time>2026-03-27T07:46:50.408Z</time></trkpt><trkpt lat="40.6988315" lon="14.7105698"><ele>198.0</ele><time>2026-03-27T07:46:54.407Z</time></trkpt><trkpt lat="40.698894" lon="14.7105273"><ele>198.57142857142858</ele><time>2026-03-27T07:46:58.407Z</time></trkpt><trkpt lat="40.6989595" lon="14.7104826"><ele>199.14285714285714</ele><time>2026-03-27T07:47:03.407Z</time></trkpt><trkpt lat="40.6990243" lon="14.7104398"><ele>199.71428571428572</ele><time>2026-03-27T07:47:09.407Z</time></trkpt><trkpt lat="40.6990814" lon="14.710402"><ele>200.28571428571428</ele><time>2026-03-27T07:47:13.407Z</time></trkpt><trkpt lat="40.6991392" lon="14.7103634"><ele>200.85714285714283</ele><time>2026-03-27T07:47:17.407Z</time></trkpt><trkpt lat="40.6992018" lon="14.7103217"><ele>201.42857142857142</ele><time>2026-03-27T07:47:22.407Z</time></trkpt><trkpt lat="40.699265" lon="14.710279"><ele>202.0</ele><time>2026-03-27T07:47:26.407Z</time></trkpt><trkpt lat="40.6993331" lon="14.7102334"><ele>202.14285714285714</ele><time>2026-03-27T07:47:30.407Z</time></trkpt><trkpt lat="40.6993966" lon="14.7101901"><ele>202.28571428571428</ele><time>2026-03-27T07:47:34.407Z</time></trkpt><trkpt lat="40.6994537" lon="14.7101496"><ele>202.42857142857144</ele><time>2026-03-27T07:47:40.407Z</time></trkpt><trkpt lat="40.6995098" lon="14.71011"><ele>202.57142857142856</ele><time>2026-03-27T07:47:45.407Z</time></trkpt><trkpt lat="40.6995718" lon="14.7100679"><ele>202.71428571428572</ele><time>2026-03-27T07:47:51.407Z</time></trkpt><trkpt lat="40.6996297" lon="14.7100193"><ele>202.85714285714286</ele><time>2026-03-27T07:47:58.407Z</time></trkpt><trkpt lat="40.699657" lon="14.7099421"><ele>203.0</ele><time>2026-03-27T07:48:06.407Z</time></trkpt><trkpt lat="40.69964" lon="14.7098507"><ele>203.0</ele><time>2026-03-27T07:48:10.407Z</time></trkpt><trkpt lat="40.6996271" lon="14.7097672"><ele>203.0</ele><time>2026-03-27T07:48:14.407Z</time></trkpt><trkpt lat="40.6996137" lon="14.7096792"><ele>203.0</ele><time>2026-03-27T07:48:20.407Z</time></trkpt><trkpt lat="40.6996048" lon="14.7095875"><ele>203.0</ele><time>2026-03-27T07:48:25.407Z</time></trkpt><trkpt lat="40.6995791" lon="14.7095046"><ele>203.0</ele><time>2026-03-27T07:48:30.407Z</time></trkpt><trkpt lat="40.699549" lon="14.7094219"><ele>203.0</ele><time>2026-03-27T07:48:38.407Z</time></trkpt><trkpt lat="40.699513" lon="14.7093403"><ele>203.0</ele><time>2026-03-27T07:48:43.407Z</time></trkpt><trkpt lat="40.6994775" lon="14.7092602"><ele>203.57142857142858</ele><time>2026-03-27T07:48:47.407Z</time></trkpt><trkpt lat="40.6994502" lon="14.7091831"><ele>204.14285714285714</ele><time>2026-03-27T07:48:51.407Z</time></trkpt><trkpt lat="40.6994242" lon="14.7091055"><ele>204.71428571428572</ele><time>2026-03-27T07:48:56.407Z</time></trkpt><trkpt lat="40.6993944" lon="14.7090106"><ele>205.28571428571428</ele><time>2026-03-27T07:49:01.407Z</time></trkpt><trkpt lat="40.6993697" lon="14.7089338"><ele>205.85714285714286</ele><time>2026-03-27T07:49:06.407Z</time></trkpt><trkpt lat="40.6993388" lon="14.7088609"><ele>206.42857142857144</ele><time>2026-03-27T07:49:12.407Z</time></trkpt><trkpt lat="40.6992762" lon="14.7088711"><ele>207.0</ele><time>2026-03-27T07:49:18.407Z</time></trkpt><trkpt lat="40.6992027" lon="14.7088635"><ele>207.33333333333334</ele><time>2026-03-27T07:49:22.407Z</time></trkpt><trkpt lat="40.6991396" lon="14.7088447"><ele>207.66666666666669</ele><time>2026-03-27T07:49:25.407Z</time></trkpt><trkpt lat="40.6990852" lon="14.7087841"><ele>208.0</ele><time>2026-03-27T07:49:30.407Z</time></trkpt><trkpt lat="40.6991339" lon="14.708698"><ele>208.33333333333334</ele><time>2026-03-27T07:49:35.407Z</time></trkpt><trkpt lat="40.6992075" lon="14.7086518"><ele>208.66666666666669</ele><time>2026-03-27T07:49:38.407Z</time></trkpt><trkpt lat="40.6992657" lon="14.7085705"><ele>209.0</ele><time>2026-03-27T07:49:43.407Z</time></trkpt><trkpt lat="40.6993392" lon="14.7085282"><ele>209.28571428571428</ele><time>2026-03-27T07:49:46.407Z</time></trkpt><trkpt lat="40.6994156" lon="14.7084893"><ele>209.57142857142856</ele><time>2026-03-27T07:49:49.407Z</time></trkpt><trkpt lat="40.6994857" lon="14.7084518"><ele>209.85714285714286</ele><time>2026-03-27T07:49:52.407Z</time></trkpt><trkpt lat="40.6995422" lon="14.7083961"><ele>210.14285714285714</ele><time>2026-03-27T07:49:56.407Z</time></trkpt><trkpt lat="40.6995999" lon="14.7083574"><ele>210.42857142857144</ele><time>2026-03-27T07:49:59.407Z</time></trkpt><trkpt lat="40.6996661" lon="14.7083128"><ele>210.71428571428572</ele><time>2026-03-27T07:50:02.407Z</time></trkpt><trkpt lat="40.6997265" lon="14.7082724"><ele>211.0</ele><time>2026-03-27T07:50:05.407Z</time></trkpt><trkpt lat="40.6997863" lon="14.708232"><ele>211.0</ele><time>2026-03-27T07:50:09.407Z</time></trkpt><trkpt lat="40.6998411" lon="14.7081904"><ele>211.0</ele><time>2026-03-27T07:50:13.407Z</time></trkpt><trkpt lat="40.6999089" lon="14.708139"><ele>211.0</ele><time>2026-03-27T07:50:18.407Z</time></trkpt><trkpt lat="40.6999766" lon="14.7080876"><ele>211.0</ele><time>2026-03-27T07:50:24.407Z</time></trkpt><trkpt lat="40.7000345" lon="14.7080435"><ele>211.0</ele><time>2026-03-27T07:50:29.407Z</time></trkpt><trkpt lat="40.7000971" lon="14.7079963"><ele>211.0</ele><time>2026-03-27T07:50:32.407Z</time></trkpt><trkpt lat="40.7001612" lon="14.7079473"><ele>211.0</ele><time>2026-03-27T07:50:35.407Z</time></trkpt><trkpt lat="40.7002232" lon="14.7078999"><ele>210.42857142857144</ele><time>2026-03-27T07:50:39.407Z</time></trkpt><trkpt lat="40.7002896" lon="14.7078488"><ele>209.85714285714286</ele><time>2026-03-27T07:50:44.407Z</time></trkpt><trkpt lat="40.7003486" lon="14.7078053"><ele>209.28571428571428</ele><time>2026-03-27T07:50:49.407Z</time></trkpt><trkpt lat="40.7004104" lon="14.7077578"><ele>208.71428571428572</ele><time>2026-03-27T07:50:54.407Z</time></trkpt><trkpt lat="40.7004784" lon="14.7077097"><ele>208.14285714285714</ele><time>2026-03-27T07:50:59.407Z</time></trkpt><trkpt lat="40.7005386" lon="14.7076679"><ele>207.57142857142858</ele><time>2026-03-27T07:51:03.407Z</time></trkpt><trkpt lat="40.7006075" lon="14.7076203"><ele>207.0</ele><time>2026-03-27T07:51:08.407Z</time></trkpt><trkpt lat="40.7006768" lon="14.7075721"><ele>207.00000000000003</ele><time>2026-03-27T07:51:13.407Z</time></trkpt><trkpt lat="40.7007374" lon="14.7075288"><ele>207.0</ele><time>2026-03-27T07:51:17.407Z</time></trkpt><trkpt lat="40.700793" lon="14.707489"><ele>207.0</ele><time>2026-03-27T07:51:20.407Z</time></trkpt><trkpt lat="40.7008497" lon="14.7074473"><ele>207.0</ele><time>2026-03-27T07:51:24.407Z</time></trkpt><trkpt lat="40.7009138" lon="14.707401"><ele>207.0</ele><time>2026-03-27T07:51:29.407Z</time></trkpt><trkpt lat="40.7009779" lon="14.7073546"><ele>207.00000000000003</ele><time>2026-03-27T07:51:34.407Z</time></trkpt><trkpt lat="40.7010401" lon="14.707309"><ele>207.0</ele><time>2026-03-27T07:51:38.407Z</time></trkpt><trkpt lat="40.701106" lon="14.7072594"><ele>207.00000000000003</ele><time>2026-03-27T07:51:44.407Z</time></trkpt><trkpt lat="40.7011623" lon="14.7072115"><ele>207.0</ele><time>2026-03-27T07:51:49.407Z</time></trkpt><trkpt lat="40.7012202" lon="14.7071582"><ele>207.0</ele><time>2026-03-27T07:51:55.407Z</time></trkpt><trkpt lat="40.7012853" lon="14.7071138"><ele>207.0</ele><time>2026-03-27T07:51:59.407Z</time></trkpt><trkpt lat="40.7013508" lon="14.7070683"><ele>207.0</ele><time>2026-03-27T07:52:03.407Z</time></trkpt><trkpt lat="40.7014079" lon="14.7070282"><ele>207.00000000000003</ele><time>2026-03-27T07:52:07.407Z</time></trkpt><trkpt lat="40.7014724" lon="14.7069823"><ele>207.0</ele><time>2026-03-27T07:52:11.407Z</time></trkpt><trkpt lat="40.701536" lon="14.7069389"><ele>206.85714285714286</ele><time>2026-03-27T07:52:16.407Z</time></trkpt><trkpt lat="40.7016041" lon="14.7068909"><ele>206.71428571428572</ele><time>2026-03-27T07:52:20.407Z</time></trkpt><trkpt lat="40.7016625" lon="14.7068506"><ele>206.57142857142856</ele><time>2026-03-27T07:52:24.407Z</time></trkpt><trkpt lat="40.701731" lon="14.7068003"><ele>206.42857142857144</ele><time>2026-03-27T07:52:29.407Z</time></trkpt><trkpt lat="40.7017927" lon="14.7067562"><ele>206.28571428571428</ele><time>2026-03-27T07:52:33.407Z</time></trkpt><trkpt lat="40.7018512" lon="14.7067136"><ele>206.14285714285714</ele><time>2026-03-27T07:52:37.407Z</time></trkpt><trkpt lat="40.7019168" lon="14.7066949"><ele>206.0</ele><time>2026-03-27T07:52:41.407Z</time></trkpt><trkpt lat="40.7019777" lon="14.7066686"><ele>205.7142857142857</ele><time>2026-03-27T07:52:46.407Z</time></trkpt><trkpt lat="40.702034" lon="14.7066273"><ele>205.42857142857142</ele><time>2026-03-27T07:52:51.407Z</time></trkpt><trkpt lat="40.7021018" lon="14.7065801"><ele>205.14285714285714</ele><time>2026-03-27T07:52:56.407Z</time></trkpt><trkpt lat="40.7021755" lon="14.7065317"><ele>204.85714285714283</ele><time>2026-03-27T07:53:01.407Z</time></trkpt><trkpt lat="40.7022379" lon="14.7065042"><ele>204.57142857142858</ele><time>2026-03-27T07:53:05.407Z</time></trkpt><trkpt lat="40.7023032" lon="14.7064644"><ele>204.28571428571428</ele><time>2026-03-27T07:53:10.407Z</time></trkpt><trkpt lat="40.7023431" lon="14.7063993"><ele>204.0</ele><time>2026-03-27T07:53:17.407Z</time></trkpt><trkpt lat="40.7024059" lon="14.7064256"><ele>204.0</ele><time>2026-03-27T07:53:25.407Z</time></trkpt><trkpt lat="40.7024304" lon="14.7065156"><ele>204.0</ele><time>2026-03-27T07:53:28.407Z</time></trkpt><trkpt lat="40.7024643" lon="14.70659"><ele>204.0</ele><time>2026-03-27T07:53:31.407Z</time></trkpt><trkpt lat="40.7025121" lon="14.706645"><ele>204.0</ele><time>2026-03-27T07:53:34.407Z</time></trkpt><trkpt lat="40.7025483" lon="14.7067143"><ele>204.0</ele><time>2026-03-27T07:53:38.407Z</time></trkpt><trkpt lat="40.7024763" lon="14.7067113"><ele>204.0</ele><time>2026-03-27T07:53:50.407Z</time></trkpt><trkpt lat="40.7024358" lon="14.7066444"><ele>204.0</ele><time>2026-03-27T07:53:54.407Z</time></trkpt><trkpt lat="40.7024247" lon="14.7065602"><ele>204.0</ele><time>2026-03-27T07:54:00.407Z</time></trkpt><trkpt lat="40.7023974" lon="14.7064826"><ele>204.0</ele><time>2026-03-27T07:54:05.407Z</time></trkpt><trkpt lat="40.7023658" lon="14.7064007"><ele>204.0</ele><time>2026-03-27T07:54:08.407Z</time></trkpt><trkpt lat="40.7023296" lon="14.7063048"><ele>204.0</ele><time>2026-03-27T07:54:11.407Z</time></trkpt><trkpt lat="40.7023013" lon="14.7062279"><ele>204.0</ele><time>2026-03-27T07:54:25.407Z</time></trkpt><trkpt lat="40.7023079" lon="14.7061354"><ele>204.0</ele><time>2026-03-27T07:54:32.407Z</time></trkpt><trkpt lat="40.7022805" lon="14.7060589"><ele>204.0</ele><time>2026-03-27T07:54:37.407Z</time></trkpt><trkpt lat="40.7022511" lon="14.7059805"><ele>203.71428571428572</ele><time>2026-03-27T07:54:41.407Z</time></trkpt><trkpt lat="40.7022209" lon="14.7058998"><ele>203.42857142857144</ele><time>2026-03-27T07:54:50.407Z</time></trkpt><trkpt lat="40.7021901" lon="14.7058148"><ele>203.14285714285714</ele><time>2026-03-27T07:54:54.407Z</time></trkpt><trkpt lat="40.7022132" lon="14.7057283"><ele>202.85714285714286</ele><time>2026-03-27T07:55:00.407Z</time></trkpt><trkpt lat="40.7022256" lon="14.7056365"><ele>202.57142857142856</ele><time>2026-03-27T07:55:10.407Z</time></trkpt><trkpt lat="40.7021813" lon="14.7055637"><ele>202.28571428571428</ele><time>2026-03-27T07:55:16.407Z</time></trkpt><trkpt lat="40.7021391" lon="14.7054948"><ele>202.0</ele><time>2026-03-27T07:55:22.407Z</time></trkpt><trkpt lat="40.7020848" lon="14.7054512"><ele>202.0</ele><time>2026-03-27T07:55:32.407Z</time></trkpt><trkpt lat="40.702016" lon="14.7054498"><ele>202.0</ele><time>2026-03-27T07:55:43.406Z</time></trkpt><trkpt lat="40.7019421" lon="14.705448"><ele>202.0</ele><time>2026-03-27T07:55:48.406Z</time></trkpt><trkpt lat="40.7018723" lon="14.7054597"><ele>202.0</ele><time>2026-03-27T07:55:53.406Z</time></trkpt><trkpt lat="40.701786" lon="14.7054986"><ele>202.0</ele><time>2026-03-27T07:56:02.406Z</time></trkpt><trkpt lat="40.7017245" lon="14.7055181"><ele>202.0</ele><time>2026-03-27T07:56:08.406Z</time></trkpt><trkpt lat="40.7016678" lon="14.7054565"><ele>202.0</ele><time>2026-03-27T07:56:13.406Z</time></trkpt><trkpt lat="40.7016218" lon="14.7053685"><ele>202.14285714285714</ele><time>2026-03-27T07:56:17.406Z</time></trkpt><trkpt lat="40.7015928" lon="14.705292"><ele>202.28571428571428</ele><time>2026-03-27T07:56:20.406Z</time></trkpt><trkpt lat="40.7015629" lon="14.7052151"><ele>202.42857142857144</ele><time>2026-03-27T07:56:23.406Z</time></trkpt><trkpt lat="40.7015311" lon="14.7051335"><ele>202.57142857142856</ele><time>2026-03-27T07:56:27.406Z</time></trkpt><trkpt lat="40.7015003" lon="14.7050555"><ele>202.71428571428572</ele><time>2026-03-27T07:56:31.406Z</time></trkpt><trkpt lat="40.7014652" lon="14.7049655"><ele>202.85714285714286</ele><time>2026-03-27T07:56:36.407Z</time></trkpt><trkpt lat="40.7014365" lon="14.7048895"><ele>203.0</ele><time>2026-03-27T07:56:45.406Z</time></trkpt><trkpt lat="40.7013722" lon="14.7048616"><ele>203.71428571428572</ele><time>2026-03-27T07:56:54.406Z</time></trkpt><trkpt lat="40.7013219" lon="14.7048087"><ele>204.42857142857144</ele><time>2026-03-27T07:57:00.406Z</time></trkpt><trkpt lat="40.7012895" lon="14.7047285"><ele>205.14285714285714</ele><time>2026-03-27T07:57:06.406Z</time></trkpt><trkpt lat="40.7012574" lon="14.704649"><ele>205.85714285714286</ele><time>2026-03-27T07:57:12.406Z</time></trkpt><trkpt lat="40.7012177" lon="14.7045521"><ele>206.57142857142858</ele><time>2026-03-27T07:57:17.406Z</time></trkpt><trkpt lat="40.7011838" lon="14.7044728"><ele>207.28571428571428</ele><time>2026-03-27T07:57:21.406Z</time></trkpt><trkpt lat="40.7011484" lon="14.7043923"><ele>208.0</ele><time>2026-03-27T07:57:26.406Z</time></trkpt><trkpt lat="40.7011097" lon="14.7043042"><ele>208.42857142857142</ele><time>2026-03-27T07:57:31.406Z</time></trkpt><trkpt lat="40.7010748" lon="14.7042234"><ele>208.85714285714286</ele><time>2026-03-27T07:57:36.406Z</time></trkpt><trkpt lat="40.701081" lon="14.7041331"><ele>209.28571428571428</ele><time>2026-03-27T07:57:47.406Z</time></trkpt><trkpt lat="40.701083" lon="14.7040326"><ele>209.71428571428572</ele><time>2026-03-27T07:58:00.406Z</time></trkpt><trkpt lat="40.7010269" lon="14.7039868"><ele>210.14285714285717</ele><time>2026-03-27T07:58:05.407Z</time></trkpt><trkpt lat="40.7009564" lon="14.703959"><ele>210.57142857142858</ele><time>2026-03-27T07:58:11.406Z</time></trkpt><trkpt lat="40.7008872" lon="14.7039678"><ele>211.0</ele><time>2026-03-27T07:58:16.406Z</time></trkpt><trkpt lat="40.7008309" lon="14.7040154"><ele>211.57142857142858</ele><time>2026-03-27T07:58:21.406Z</time></trkpt><trkpt lat="40.7007706" lon="14.7040709"><ele>212.14285714285717</ele><time>2026-03-27T07:58:26.406Z</time></trkpt><trkpt lat="40.7007155" lon="14.7041194"><ele>212.71428571428572</ele><time>2026-03-27T07:58:31.406Z</time></trkpt><trkpt lat="40.7006633" lon="14.7041666"><ele>213.28571428571428</ele><time>2026-03-27T07:58:36.406Z</time></trkpt><trkpt lat="40.7006021" lon="14.7041149"><ele>213.85714285714286</ele><time>2026-03-27T07:58:47.406Z</time></trkpt><trkpt lat="40.7005511" lon="14.7040423"><ele>214.42857142857142</ele><time>2026-03-27T07:58:51.407Z</time></trkpt><trkpt lat="40.7005146" lon="14.7039646"><ele>215.0</ele><time>2026-03-27T07:58:55.406Z</time></trkpt><trkpt lat="40.700489" lon="14.7038739"><ele>215.0</ele><time>2026-03-27T07:58:59.406Z</time></trkpt><trkpt lat="40.7004539" lon="14.7037924"><ele>215.0</ele><time>2026-03-27T07:59:14.406Z</time></trkpt><trkpt lat="40.70043" lon="14.7037058"><ele>215.0</ele><time>2026-03-27T07:59:20.406Z</time></trkpt><trkpt lat="40.7004105" lon="14.7036147"><ele>215.0</ele><time>2026-03-27T07:59:27.406Z</time></trkpt><trkpt lat="40.7003946" lon="14.7035298"><ele>215.0</ele><time>2026-03-27T07:59:33.406Z</time></trkpt><trkpt lat="40.7003791" lon="14.7034424"><ele>215.0</ele><time>2026-03-27T07:59:38.406Z</time></trkpt><trkpt lat="40.7003633" lon="14.7033436"><ele>215.0</ele><time>2026-03-27T07:59:43.406Z</time></trkpt><trkpt lat="40.7003488" lon="14.7032536"><ele>215.28571428571428</ele><time>2026-03-27T07:59:48.406Z</time></trkpt><trkpt lat="40.7003334" lon="14.7031588"><ele>215.57142857142858</ele><time>2026-03-27T07:59:56.407Z</time></trkpt><trkpt lat="40.7003184" lon="14.7030641"><ele>215.85714285714286</ele><time>2026-03-27T08:00:01.406Z</time></trkpt><trkpt lat="40.7003022" lon="14.702966"><ele>216.14285714285714</ele><time>2026-03-27T08:00:06.406Z</time></trkpt><trkpt lat="40.7002867" lon="14.7028759"><ele>216.42857142857144</ele><time>2026-03-27T08:00:11.407Z</time></trkpt><trkpt lat="40.7002511" lon="14.7028058"><ele>216.71428571428572</ele><time>2026-03-27T08:00:15.406Z</time></trkpt><trkpt lat="40.7002431" lon="14.7027173"><ele>217.0</ele><time>2026-03-27T08:00:19.406Z</time></trkpt><trkpt lat="40.7002306" lon="14.7026274"><ele>218.0</ele><time>2026-03-27T08:00:27.406Z</time></trkpt><trkpt lat="40.7002001" lon="14.702538"><ele>219.0</ele><time>2026-03-27T08:00:33.406Z</time></trkpt><trkpt lat="40.7001613" lon="14.702464"><ele>220.0</ele><time>2026-03-27T08:00:37.406Z</time></trkpt><trkpt lat="40.7001151" lon="14.7023924"><ele>221.0</ele><time>2026-03-27T08:00:42.406Z</time></trkpt><trkpt lat="40.7000742" lon="14.7023174"><ele>222.0</ele><time>2026-03-27T08:00:50.406Z</time></trkpt><trkpt lat="40.7000378" lon="14.7022311"><ele>223.0</ele><time>2026-03-27T08:00:56.406Z</time></trkpt><trkpt lat="40.7000035" lon="14.7021518"><ele>224.0</ele><time>2026-03-27T08:01:02.406Z</time></trkpt><trkpt lat="40.6999673" lon="14.7020546"><ele>224.0</ele><time>2026-03-27T08:01:22.406Z</time></trkpt><trkpt lat="40.6999341" lon="14.7019569"><ele>224.0</ele><time>2026-03-27T08:01:28.406Z</time></trkpt><trkpt lat="40.6998951" lon="14.7018732"><ele>224.0</ele><time>2026-03-27T08:01:32.406Z</time></trkpt><trkpt lat="40.6998513" lon="14.7017873"><ele>224.0</ele><time>2026-03-27T08:01:37.406Z</time></trkpt><trkpt lat="40.6998129" lon="14.701711"><ele>224.0</ele><time>2026-03-27T08:01:41.406Z</time></trkpt><trkpt lat="40.6997745" lon="14.7016386"><ele>224.0</ele><time>2026-03-27T08:01:45.406Z</time></trkpt><trkpt lat="40.6997376" lon="14.7015652"><ele>224.0</ele><time>2026-03-27T08:01:49.406Z</time></trkpt><trkpt lat="40.6996979" lon="14.7014887"><ele>224.85714285714286</ele><time>2026-03-27T08:01:53.406Z</time></trkpt><trkpt lat="40.6996497" lon="14.7014085"><ele>225.71428571428572</ele><time>2026-03-27T08:01:58.406Z</time></trkpt><trkpt lat="40.699595" lon="14.701348"><ele>226.57142857142856</ele><time>2026-03-27T08:02:03.406Z</time></trkpt><trkpt lat="40.6995625" lon="14.7012757"><ele>227.42857142857142</ele><time>2026-03-27T08:02:09.406Z</time></trkpt><trkpt lat="40.6995281" lon="14.7012061"><ele>228.28571428571428</ele><time>2026-03-27T08:02:16.406Z</time></trkpt><trkpt lat="40.6994853" lon="14.701132"><ele>229.1428571428571</ele><time>2026-03-27T08:02:23.406Z</time></trkpt><trkpt lat="40.6994444" lon="14.7010626"><ele>229.99999999999997</ele><time>2026-03-27T08:02:28.406Z</time></trkpt><trkpt lat="40.6993928" lon="14.7009795"><ele>231.28571428571425</ele><time>2026-03-27T08:02:34.406Z</time></trkpt><trkpt lat="40.6993508" lon="14.700911"><ele>232.57142857142856</ele><time>2026-03-27T08:02:37.406Z</time></trkpt><trkpt lat="40.6992919" lon="14.7008661"><ele>233.85714285714286</ele><time>2026-03-27T08:02:42.406Z</time></trkpt><trkpt lat="40.6992325" lon="14.7008133"><ele>235.14285714285714</ele><time>2026-03-27T08:02:49.406Z</time></trkpt><trkpt lat="40.6992078" lon="14.7007339"><ele>236.42857142857144</ele><time>2026-03-27T08:02:53.406Z</time></trkpt><trkpt lat="40.6991546" lon="14.7006775"><ele>237.71428571428575</ele><time>2026-03-27T08:02:58.406Z</time></trkpt><trkpt lat="40.6990994" lon="14.7006197"><ele>239.00000000000003</ele><time>2026-03-27T08:03:02.406Z</time></trkpt><trkpt lat="40.699049" lon="14.7005656"><ele>239.00000000000003</ele><time>2026-03-27T08:03:06.407Z</time></trkpt><trkpt lat="40.6989989" lon="14.7005136"><ele>239.0</ele><time>2026-03-27T08:03:10.407Z</time></trkpt><trkpt lat="40.6989481" lon="14.7004579"><ele>239.00000000000003</ele><time>2026-03-27T08:03:15.406Z</time></trkpt><trkpt lat="40.6988891" lon="14.700393"><ele>239.00000000000003</ele><time>2026-03-27T08:03:20.406Z</time></trkpt><trkpt lat="40.6988403" lon="14.7003256"><ele>239.0</ele><time>2026-03-27T08:03:25.406Z</time></trkpt><trkpt lat="40.6987975" lon="14.700264"><ele>239.00000000000003</ele><time>2026-03-27T08:03:29.406Z</time></trkpt><trkpt lat="40.6987503" lon="14.7001939"><ele>239.00000000000003</ele><time>2026-03-27T08:03:34.406Z</time></trkpt><trkpt lat="40.6986916" lon="14.7001096"><ele>239.14285714285717</ele><time>2026-03-27T08:03:40.406Z</time></trkpt><trkpt lat="40.6986457" lon="14.7000411"><ele>239.28571428571428</ele><time>2026-03-27T08:03:45.406Z</time></trkpt><trkpt lat="40.6985952" lon="14.6999685"><ele>239.42857142857144</ele><time>2026-03-27T08:03:51.407Z</time></trkpt><trkpt lat="40.6985338" lon="14.6999119"><ele>239.57142857142858</ele><time>2026-03-27T08:03:56.406Z</time></trkpt><trkpt lat="40.698498" lon="14.6998267"><ele>239.71428571428572</ele><time>2026-03-27T08:04:01.406Z</time></trkpt><trkpt lat="40.698467" lon="14.6997535"><ele>239.85714285714286</ele><time>2026-03-27T08:04:06.406Z</time></trkpt><trkpt lat="40.6984105" lon="14.699695"><ele>240.0</ele><time>2026-03-27T08:04:13.406Z</time></trkpt><trkpt lat="40.6983384" lon="14.699686"><ele>240.85714285714286</ele><time>2026-03-27T08:04:19.406Z</time></trkpt><trkpt lat="40.698263" lon="14.6996945"><ele>241.71428571428572</ele><time>2026-03-27T08:04:25.407Z</time></trkpt><trkpt lat="40.6981986" lon="14.699721"><ele>242.57142857142858</ele><time>2026-03-27T08:04:29.406Z</time></trkpt><trkpt lat="40.6981373" lon="14.6997619"><ele>243.42857142857144</ele><time>2026-03-27T08:04:32.406Z</time></trkpt><trkpt lat="40.6980703" lon="14.6998167"><ele>244.28571428571428</ele><time>2026-03-27T08:04:37.406Z</time></trkpt><trkpt lat="40.6980053" lon="14.6998732"><ele>245.14285714285717</ele><time>2026-03-27T08:04:42.406Z</time></trkpt><trkpt lat="40.69795" lon="14.6999219"><ele>246.00000000000003</ele><time>2026-03-27T08:04:47.406Z</time></trkpt><trkpt lat="40.6978892" lon="14.6999836"><ele>246.00000000000003</ele><time>2026-03-27T08:04:51.406Z</time></trkpt><trkpt lat="40.6978568" lon="14.7000626"><ele>246.0</ele><time>2026-03-27T08:05:00.406Z</time></trkpt><trkpt lat="40.6978365" lon="14.7001469"><ele>246.00000000000003</ele><time>2026-03-27T08:05:09.406Z</time></trkpt><trkpt lat="40.6977846" lon="14.7002018"><ele>246.00000000000003</ele><time>2026-03-27T08:05:16.406Z</time></trkpt><trkpt lat="40.6977187" lon="14.7002461"><ele>246.0</ele><time>2026-03-27T08:05:34.406Z</time></trkpt><trkpt lat="40.6976694" lon="14.7002989"><ele>246.00000000000003</ele><time>2026-03-27T08:05:39.406Z</time></trkpt><trkpt lat="40.6976197" lon="14.7003534"><ele>246.00000000000003</ele><time>2026-03-27T08:05:44.406Z</time></trkpt><trkpt lat="40.6975656" lon="14.7004095"><ele>246.00000000000003</ele><time>2026-03-27T08:05:51.406Z</time></trkpt><trkpt lat="40.6975132" lon="14.7004654"><ele>246.0</ele><time>2026-03-27T08:05:58.406Z</time></trkpt><trkpt lat="40.697459" lon="14.700517"><ele>246.00000000000003</ele><time>2026-03-27T08:06:07.407Z</time></trkpt><trkpt lat="40.6974035" lon="14.7005581"><ele>246.00000000000003</ele><time>2026-03-27T08:06:13.406Z</time></trkpt><trkpt lat="40.6973254" lon="14.7005624"><ele>246.0</ele><time>2026-03-27T08:06:18.407Z</time></trkpt><trkpt lat="40.6972517" lon="14.7005438"><ele>246.00000000000003</ele><time>2026-03-27T08:06:23.407Z</time></trkpt><trkpt lat="40.6971816" lon="14.7005067"><ele>246.00000000000003</ele><time>2026-03-27T08:06:29.406Z</time></trkpt><trkpt lat="40.6971245" lon="14.7004556"><ele>246.00000000000003</ele><time>2026-03-27T08:06:34.406Z</time></trkpt><trkpt lat="40.6970807" lon="14.700376"><ele>246.0</ele><time>2026-03-27T08:06:40.406Z</time></trkpt><trkpt lat="40.6970807" lon="14.7002891"><ele>246.00000000000003</ele><time>2026-03-27T08:06:45.406Z</time></trkpt><trkpt lat="40.697069" lon="14.7001873"><ele>246.00000000000003</ele><time>2026-03-27T08:06:50.406Z</time></trkpt><trkpt lat="40.6970879" lon="14.7001004"><ele>246.0</ele><time>2026-03-27T08:06:54.406Z</time></trkpt><trkpt lat="40.6970879" lon="14.700017"><ele>246.00000000000003</ele><time>2026-03-27T08:06:58.406Z</time></trkpt><trkpt lat="40.6970884" lon="14.6999325"><ele>246.00000000000003</ele><time>2026-03-27T08:07:03.406Z</time></trkpt><trkpt lat="40.69709" lon="14.6998362"><ele>246.42857142857144</ele><time>2026-03-27T08:07:07.406Z</time></trkpt><trkpt lat="40.6970931" lon="14.6997434"><ele>246.85714285714286</ele><time>2026-03-27T08:07:12.407Z</time></trkpt><trkpt lat="40.6970981" lon="14.6996512"><ele>247.28571428571428</ele><time>2026-03-27T08:07:17.406Z</time></trkpt><trkpt lat="40.6971043" lon="14.699554"><ele>247.71428571428572</ele><time>2026-03-27T08:07:22.406Z</time></trkpt><trkpt lat="40.6971197" lon="14.6994717"><ele>248.1428571428571</ele><time>2026-03-27T08:07:27.406Z</time></trkpt><trkpt lat="40.6971347" lon="14.6993885"><ele>248.57142857142856</ele><time>2026-03-27T08:07:32.406Z</time></trkpt><trkpt lat="40.6971557" lon="14.6992791"><ele>249.0</ele><time>2026-03-27T08:07:37.406Z</time></trkpt><trkpt lat="40.6971744" lon="14.6991823"><ele>249.57142857142856</ele><time>2026-03-27T08:07:42.406Z</time></trkpt><trkpt lat="40.6971894" lon="14.6991"><ele>250.1428571428571</ele><time>2026-03-27T08:07:46.406Z</time></trkpt><trkpt lat="40.697206" lon="14.6990175"><ele>250.71428571428572</ele><time>2026-03-27T08:07:50.406Z</time></trkpt><trkpt lat="40.6972194" lon="14.6989303"><ele>251.28571428571428</ele><time>2026-03-27T08:07:56.406Z</time></trkpt><trkpt lat="40.697232" lon="14.6988353"><ele>251.85714285714286</ele><time>2026-03-27T08:08:00.406Z</time></trkpt><trkpt lat="40.6972439" lon="14.698743"><ele>252.42857142857144</ele><time>2026-03-27T08:08:05.406Z</time></trkpt><trkpt lat="40.6972577" lon="14.698641"><ele>253.00000000000003</ele><time>2026-03-27T08:08:11.406Z</time></trkpt><trkpt lat="40.6972689" lon="14.6985553"><ele>253.00000000000003</ele><time>2026-03-27T08:08:16.406Z</time></trkpt><trkpt lat="40.6972814" lon="14.6984665"><ele>253.0</ele><time>2026-03-27T08:08:21.406Z</time></trkpt><trkpt lat="40.6972931" lon="14.6983684"><ele>253.00000000000003</ele><time>2026-03-27T08:08:27.406Z</time></trkpt><trkpt lat="40.6972998" lon="14.6982785"><ele>253.00000000000003</ele><time>2026-03-27T08:08:33.406Z</time></trkpt><trkpt lat="40.6972973" lon="14.6981847"><ele>253.0</ele><time>2026-03-27T08:08:38.406Z</time></trkpt><trkpt lat="40.6972739" lon="14.6980957"><ele>253.00000000000003</ele><time>2026-03-27T08:08:43.406Z</time></trkpt><trkpt lat="40.6972485" lon="14.698017"><ele>253.00000000000003</ele><time>2026-03-27T08:08:49.406Z</time></trkpt><trkpt lat="40.6972235" lon="14.6979378"><ele>253.00000000000003</ele><time>2026-03-27T08:08:54.406Z</time></trkpt><trkpt lat="40.6971943" lon="14.6978492"><ele>253.0</ele><time>2026-03-27T08:08:59.406Z</time></trkpt><trkpt lat="40.6971675" lon="14.697767"><ele>253.00000000000003</ele><time>2026-03-27T08:09:03.406Z</time></trkpt><trkpt lat="40.6971415" lon="14.6976836"><ele>253.00000000000003</ele><time>2026-03-27T08:09:08.406Z</time></trkpt><trkpt lat="40.6971133" lon="14.6975955"><ele>253.0</ele><time>2026-03-27T08:09:14.406Z</time></trkpt><trkpt lat="40.6970836" lon="14.6975042"><ele>253.00000000000003</ele><time>2026-03-27T08:09:20.406Z</time></trkpt><trkpt lat="40.6970537" lon="14.6974132"><ele>253.00000000000003</ele><time>2026-03-27T08:09:25.406Z</time></trkpt><trkpt lat="40.6970279" lon="14.697334"><ele>253.42857142857144</ele><time>2026-03-27T08:09:30.406Z</time></trkpt><trkpt lat="40.6969764" lon="14.697274"><ele>253.85714285714286</ele><time>2026-03-27T08:09:45.406Z</time></trkpt><trkpt lat="40.6969538" lon="14.6971804"><ele>254.28571428571428</ele><time>2026-03-27T08:09:50.406Z</time></trkpt><trkpt lat="40.6969311" lon="14.6970985"><ele>254.71428571428572</ele><time>2026-03-27T08:09:54.406Z</time></trkpt><trkpt lat="40.6969094" lon="14.6970121"><ele>255.1428571428571</ele><time>2026-03-27T08:10:00.406Z</time></trkpt><trkpt lat="40.6968854" lon="14.6969209"><ele>255.57142857142856</ele><time>2026-03-27T08:10:07.406Z</time></trkpt><trkpt lat="40.6968735" lon="14.6968304"><ele>256.0</ele><time>2026-03-27T08:10:13.406Z</time></trkpt><trkpt lat="40.6968716" lon="14.6967335"><ele>256.0</ele><time>2026-03-27T08:10:19.406Z</time></trkpt><trkpt lat="40.6968733" lon="14.6966453"><ele>255.99999999999997</ele><time>2026-03-27T08:10:25.406Z</time></trkpt><trkpt lat="40.6968764" lon="14.6965618"><ele>256.0</ele><time>2026-03-27T08:10:29.406Z</time></trkpt><trkpt lat="40.6968861" lon="14.6964661"><ele>256.0</ele><time>2026-03-27T08:10:33.406Z</time></trkpt><trkpt lat="40.6968877" lon="14.6963789"><ele>255.99999999999997</ele><time>2026-03-27T08:10:45.406Z</time></trkpt><trkpt lat="40.6968551" lon="14.6962897"><ele>256.0</ele><time>2026-03-27T08:10:50.406Z</time></trkpt><trkpt lat="40.6968092" lon="14.696208"><ele>256.0</ele><time>2026-03-27T08:10:54.406Z</time></trkpt><trkpt lat="40.6967658" lon="14.696145"><ele>257.85714285714283</ele><time>2026-03-27T08:11:00.406Z</time></trkpt><trkpt lat="40.6967235" lon="14.6960834"><ele>259.71428571428567</ele><time>2026-03-27T08:11:06.406Z</time></trkpt><trkpt lat="40.696675" lon="14.69602"><ele>261.57142857142856</ele><time>2026-03-27T08:11:11.406Z</time></trkpt><trkpt lat="40.696615" lon="14.6959937"><ele>263.42857142857144</ele><time>2026-03-27T08:11:15.406Z</time></trkpt><trkpt lat="40.6965453" lon="14.6959652"><ele>265.28571428571433</ele><time>2026-03-27T08:11:21.406Z</time></trkpt><trkpt lat="40.6964751" lon="14.6959533"><ele>267.14285714285717</ele><time>2026-03-27T08:11:26.406Z</time></trkpt><trkpt lat="40.6964037" lon="14.6959287"><ele>269.0</ele><time>2026-03-27T08:11:31.406Z</time></trkpt><trkpt lat="40.6963396" lon="14.6959125"><ele>269.0</ele><time>2026-03-27T08:11:35.406Z</time></trkpt><trkpt lat="40.6962747" lon="14.6959154"><ele>269.0</ele><time>2026-03-27T08:11:41.406Z</time></trkpt><trkpt lat="40.6962087" lon="14.6959108"><ele>269.0</ele><time>2026-03-27T08:11:46.406Z</time></trkpt><trkpt lat="40.6961415" lon="14.6958953"><ele>269.0</ele><time>2026-03-27T08:11:51.406Z</time></trkpt><trkpt lat="40.6960779" lon="14.6958647"><ele>269.0</ele><time>2026-03-27T08:11:56.406Z</time></trkpt><trkpt lat="40.6960184" lon="14.6958255"><ele>269.0</ele><time>2026-03-27T08:12:00.406Z</time></trkpt><trkpt lat="40.6959717" lon="14.6957655"><ele>269.0</ele><time>2026-03-27T08:12:06.406Z</time></trkpt><trkpt lat="40.695993" lon="14.6956787"><ele>269.2857142857143</ele><time>2026-03-27T08:12:13.406Z</time></trkpt><trkpt lat="40.695981" lon="14.6955841"><ele>269.5714285714286</ele><time>2026-03-27T08:12:18.406Z</time></trkpt><trkpt lat="40.6959587" lon="14.6955055"><ele>269.8571428571429</ele><time>2026-03-27T08:12:22.406Z</time></trkpt><trkpt lat="40.6959235" lon="14.6954278"><ele>270.14285714285717</ele><time>2026-03-27T08:12:26.406Z</time></trkpt><trkpt lat="40.6958838" lon="14.6953436"><ele>270.42857142857144</ele><time>2026-03-27T08:12:30.406Z</time></trkpt><trkpt lat="40.695845" lon="14.6952456"><ele>270.7142857142857</ele><time>2026-03-27T08:12:35.406Z</time></trkpt><trkpt lat="40.6957797" lon="14.6951912"><ele>271.0</ele><time>2026-03-27T08:12:44.406Z</time></trkpt><trkpt lat="40.695711" lon="14.6951774"><ele>271.0</ele><time>2026-03-27T08:12:49.406Z</time></trkpt><trkpt lat="40.6956442" lon="14.6952195"><ele>271.0</ele><time>2026-03-27T08:12:55.407Z</time></trkpt><trkpt lat="40.6956119" lon="14.6952994"><ele>271.0</ele><time>2026-03-27T08:13:00.406Z</time></trkpt><trkpt lat="40.6956289" lon="14.6953932"><ele>271.0</ele><time>2026-03-27T08:13:06.406Z</time></trkpt><trkpt lat="40.6956049" lon="14.6954772"><ele>271.0</ele><time>2026-03-27T08:13:11.406Z</time></trkpt><trkpt lat="40.6956069" lon="14.6955793"><ele>271.0</ele><time>2026-03-27T08:13:16.406Z</time></trkpt><trkpt lat="40.6956055" lon="14.6956836"><ele>271.0</ele><time>2026-03-27T08:13:21.406Z</time></trkpt><trkpt lat="40.6956116" lon="14.6957743"><ele>271.0</ele><time>2026-03-27T08:13:26.407Z</time></trkpt><trkpt lat="40.6956164" lon="14.6958663"><ele>271.0</ele><time>2026-03-27T08:13:32.406Z</time></trkpt><trkpt lat="40.6956121" lon="14.6959563"><ele>271.0</ele><time>2026-03-27T08:13:37.406Z</time></trkpt><trkpt lat="40.6956127" lon="14.6960458"><ele>271.0</ele><time>2026-03-27T08:13:42.406Z</time></trkpt><trkpt lat="40.6956023" lon="14.6961377"><ele>271.0</ele><time>2026-03-27T08:13:47.406Z</time></trkpt><trkpt lat="40.6955897" lon="14.6962227"><ele>271.0</ele><time>2026-03-27T08:13:52.406Z</time></trkpt><trkpt lat="40.6955929" lon="14.6963146"><ele>271.0</ele><time>2026-03-27T08:13:58.406Z</time></trkpt><trkpt lat="40.6955962" lon="14.6964062"><ele>271.0</ele><time>2026-03-27T08:14:04.406Z</time></trkpt><trkpt lat="40.6955977" lon="14.6964901"><ele>271.0</ele><time>2026-03-27T08:14:09.406Z</time></trkpt><trkpt lat="40.6955895" lon="14.6965732"><ele>271.0</ele><time>2026-03-27T08:14:14.406Z</time></trkpt><trkpt lat="40.6955459" lon="14.6966343"><ele>271.0</ele><time>2026-03-27T08:14:19.406Z</time></trkpt><trkpt lat="40.6955118" lon="14.6967214"><ele>271.0</ele><time>2026-03-27T08:14:25.406Z</time></trkpt><trkpt lat="40.6954659" lon="14.696801"><ele>271.0</ele><time>2026-03-27T08:14:30.406Z</time></trkpt><trkpt lat="40.6954253" lon="14.6968717"><ele>271.0</ele><time>2026-03-27T08:14:36.406Z</time></trkpt><trkpt lat="40.6953615" lon="14.6969068"><ele>271.2857142857143</ele><time>2026-03-27T08:14:42.406Z</time></trkpt><trkpt lat="40.6952946" lon="14.6969312"><ele>271.57142857142856</ele><time>2026-03-27T08:14:49.406Z</time></trkpt><trkpt lat="40.6952191" lon="14.6969435"><ele>271.8571428571429</ele><time>2026-03-27T08:14:55.406Z</time></trkpt><trkpt lat="40.695155" lon="14.6969473"><ele>272.1428571428571</ele><time>2026-03-27T08:14:59.406Z</time></trkpt><trkpt lat="40.6950895" lon="14.6969484"><ele>272.42857142857144</ele><time>2026-03-27T08:15:04.406Z</time></trkpt><trkpt lat="40.6950217" lon="14.6969726"><ele>272.7142857142857</ele><time>2026-03-27T08:15:09.406Z</time></trkpt><trkpt lat="40.6949536" lon="14.6969717"><ele>273.0</ele><time>2026-03-27T08:15:15.406Z</time></trkpt><trkpt lat="40.6948785" lon="14.6969776"><ele>273.42857142857144</ele><time>2026-03-27T08:15:20.406Z</time></trkpt><trkpt lat="40.6948132" lon="14.6970038"><ele>273.8571428571429</ele><time>2026-03-27T08:15:24.406Z</time></trkpt><trkpt lat="40.6947466" lon="14.6970086"><ele>274.2857142857143</ele><time>2026-03-27T08:15:28.406Z</time></trkpt><trkpt lat="40.6946715" lon="14.6970152"><ele>274.7142857142857</ele><time>2026-03-27T08:15:33.406Z</time></trkpt><trkpt lat="40.6946008" lon="14.6970342"><ele>275.14285714285717</ele><time>2026-03-27T08:15:37.406Z</time></trkpt><trkpt lat="40.6945391" lon="14.6970519"><ele>275.57142857142856</ele><time>2026-03-27T08:15:41.406Z</time></trkpt><trkpt lat="40.6944742" lon="14.6970665"><ele>276.0</ele><time>2026-03-27T08:15:45.407Z</time></trkpt><trkpt lat="40.694408" lon="14.6970776"><ele>276.0</ele><time>2026-03-27T08:15:51.406Z</time></trkpt><trkpt lat="40.6943434" lon="14.6970874"><ele>276.0</ele><time>2026-03-27T08:15:56.406Z</time></trkpt><trkpt lat="40.6942782" lon="14.697108"><ele>276.0</ele><time>2026-03-27T08:16:00.406Z</time></trkpt><trkpt lat="40.6942055" lon="14.6971244"><ele>276.0</ele><time>2026-03-27T08:16:05.407Z</time></trkpt><trkpt lat="40.6941367" lon="14.6971342"><ele>276.0</ele><time>2026-03-27T08:16:10.406Z</time></trkpt><trkpt lat="40.6940736" lon="14.6971232"><ele>276.0</ele><time>2026-03-27T08:16:15.406Z</time></trkpt><trkpt lat="40.6940176" lon="14.6971612"><ele>276.0</ele><time>2026-03-27T08:16:19.407Z</time></trkpt><trkpt lat="40.6939544" lon="14.6971691"><ele>276.0</ele><time>2026-03-27T08:16:24.406Z</time></trkpt><trkpt lat="40.6938838" lon="14.6972111"><ele>276.0</ele><time>2026-03-27T08:16:28.406Z</time></trkpt><trkpt lat="40.6938117" lon="14.6972327"><ele>276.0</ele><time>2026-03-27T08:16:33.406Z</time></trkpt><trkpt lat="40.6937447" lon="14.6972498"><ele>276.0</ele><time>2026-03-27T08:16:38.406Z</time></trkpt><trkpt lat="40.6936723" lon="14.6972512"><ele>276.0</ele><time>2026-03-27T08:16:43.406Z</time></trkpt><trkpt lat="40.6936078" lon="14.6972819"><ele>276.0</ele><time>2026-03-27T08:16:48.406Z</time></trkpt><trkpt lat="40.6935322" lon="14.6972965"><ele>276.0</ele><time>2026-03-27T08:16:53.406Z</time></trkpt><trkpt lat="40.6934549" lon="14.697305"><ele>277.42857142857144</ele><time>2026-03-27T08:16:58.406Z</time></trkpt><trkpt lat="40.6933908" lon="14.6973365"><ele>278.8571428571429</ele><time>2026-03-27T08:17:03.406Z</time></trkpt><trkpt lat="40.6933253" lon="14.6973508"><ele>280.2857142857143</ele><time>2026-03-27T08:17:08.406Z</time></trkpt><trkpt lat="40.6932604" lon="14.6973573"><ele>281.7142857142857</ele><time>2026-03-27T08:17:14.407Z</time></trkpt><trkpt lat="40.6931947" lon="14.6973528"><ele>283.1428571428571</ele><time>2026-03-27T08:17:19.406Z</time></trkpt><trkpt lat="40.6931299" lon="14.6973338"><ele>284.57142857142856</ele><time>2026-03-27T08:17:24.406Z</time></trkpt><trkpt lat="40.6930645" lon="14.6972936"><ele>286.0</ele><time>2026-03-27T08:17:30.406Z</time></trkpt><trkpt lat="40.6930066" lon="14.6972529"><ele>285.99999999999994</ele><time>2026-03-27T08:17:35.406Z</time></trkpt><trkpt lat="40.69295" lon="14.697205"><ele>286.0</ele><time>2026-03-27T08:17:40.406Z</time></trkpt><trkpt lat="40.6929125" lon="14.6971227"><ele>286.0</ele><time>2026-03-27T08:17:46.406Z</time></trkpt><trkpt lat="40.6928776" lon="14.6970353"><ele>286.0</ele><time>2026-03-27T08:17:52.406Z</time></trkpt><trkpt lat="40.6928533" lon="14.6969495"><ele>286.0</ele><time>2026-03-27T08:17:57.406Z</time></trkpt><trkpt lat="40.6928258" lon="14.6968659"><ele>285.99999999999994</ele><time>2026-03-27T08:18:01.406Z</time></trkpt><trkpt lat="40.6927939" lon="14.6967904"><ele>286.0</ele><time>2026-03-27T08:18:05.406Z</time></trkpt><trkpt lat="40.6927425" lon="14.6967375"><ele>288.99999999999994</ele><time>2026-03-27T08:18:09.406Z</time></trkpt><trkpt lat="40.6926711" lon="14.6967003"><ele>292.0</ele><time>2026-03-27T08:18:15.407Z</time></trkpt><trkpt lat="40.6926192" lon="14.6966469"><ele>295.0</ele><time>2026-03-27T08:18:20.406Z</time></trkpt><trkpt lat="40.6925762" lon="14.6965758"><ele>298.0</ele><time>2026-03-27T08:18:25.406Z</time></trkpt><trkpt lat="40.6925412" lon="14.6964994"><ele>301.0</ele><time>2026-03-27T08:18:30.406Z</time></trkpt><trkpt lat="40.6924819" lon="14.6964595"><ele>303.99999999999994</ele><time>2026-03-27T08:18:34.406Z</time></trkpt><trkpt lat="40.6924311" lon="14.6964002"><ele>307.0</ele><time>2026-03-27T08:18:39.406Z</time></trkpt><trkpt lat="40.6923739" lon="14.6963319"><ele>306.99999999999994</ele><time>2026-03-27T08:18:45.406Z</time></trkpt><trkpt lat="40.6922963" lon="14.6962965"><ele>307.0</ele><time>2026-03-27T08:18:50.406Z</time></trkpt><trkpt lat="40.6922332" lon="14.6963303"><ele>307.0</ele><time>2026-03-27T08:18:54.407Z</time></trkpt><trkpt lat="40.6921501" lon="14.6963462"><ele>307.0</ele><time>2026-03-27T08:18:58.406Z</time></trkpt><trkpt lat="40.6920779" lon="14.696385"><ele>307.0</ele><time>2026-03-27T08:19:02.406Z</time></trkpt><trkpt lat="40.6920126" lon="14.6964208"><ele>306.99999999999994</ele><time>2026-03-27T08:19:06.407Z</time></trkpt><trkpt lat="40.6919522" lon="14.6964465"><ele>307.0</ele><time>2026-03-27T08:19:11.406Z</time></trkpt><trkpt lat="40.6918929" lon="14.696491"><ele>307.85714285714283</ele><time>2026-03-27T08:19:16.406Z</time></trkpt><trkpt lat="40.6918313" lon="14.69654"><ele>308.7142857142857</ele><time>2026-03-27T08:19:21.406Z</time></trkpt><trkpt lat="40.6917668" lon="14.6965861"><ele>309.57142857142856</ele><time>2026-03-27T08:19:27.406Z</time></trkpt><trkpt lat="40.6917116" lon="14.6966262"><ele>310.42857142857144</ele><time>2026-03-27T08:19:31.406Z</time></trkpt><trkpt lat="40.6916518" lon="14.6966739"><ele>311.2857142857143</ele><time>2026-03-27T08:19:36.406Z</time></trkpt><trkpt lat="40.6915951" lon="14.6967407"><ele>312.1428571428571</ele><time>2026-03-27T08:19:42.406Z</time></trkpt><trkpt lat="40.6915456" lon="14.696799"><ele>313.0</ele><time>2026-03-27T08:19:47.406Z</time></trkpt><trkpt lat="40.6914921" lon="14.6968634"><ele>313.0</ele><time>2026-03-27T08:19:52.406Z</time></trkpt><trkpt lat="40.6914278" lon="14.6969172"><ele>313.0</ele><time>2026-03-27T08:19:57.406Z</time></trkpt><trkpt lat="40.6913707" lon="14.696955"><ele>313.0</ele><time>2026-03-27T08:20:01.406Z</time></trkpt><trkpt lat="40.6913065" lon="14.6969828"><ele>313.0</ele><time>2026-03-27T08:20:06.406Z</time></trkpt><trkpt lat="40.6912405" lon="14.6969979"><ele>313.0</ele><time>2026-03-27T08:20:11.407Z</time></trkpt><trkpt lat="40.6911712" lon="14.6970344"><ele>313.0</ele><time>2026-03-27T08:20:16.406Z</time></trkpt><trkpt lat="40.6911116" lon="14.6970739"><ele>313.0</ele><time>2026-03-27T08:20:20.406Z</time></trkpt><trkpt lat="40.6910439" lon="14.697083"><ele>315.1428571428571</ele><time>2026-03-27T08:20:25.406Z</time></trkpt><trkpt lat="40.6909791" lon="14.6970793"><ele>317.2857142857143</ele><time>2026-03-27T08:20:30.406Z</time></trkpt><trkpt lat="40.6909156" lon="14.6970555"><ele>319.42857142857144</ele><time>2026-03-27T08:20:36.406Z</time></trkpt><trkpt lat="40.6908553" lon="14.6970178"><ele>321.57142857142856</ele><time>2026-03-27T08:20:41.406Z</time></trkpt><trkpt lat="40.690788" lon="14.6969799"><ele>323.7142857142857</ele><time>2026-03-27T08:20:46.406Z</time></trkpt><trkpt lat="40.6907235" lon="14.6969448"><ele>325.85714285714283</ele><time>2026-03-27T08:20:52.406Z</time></trkpt><trkpt lat="40.69066" lon="14.696896"><ele>328.0</ele><time>2026-03-27T08:20:58.406Z</time></trkpt><trkpt lat="40.6905919" lon="14.6968645"><ele>327.99999999999994</ele><time>2026-03-27T08:21:03.406Z</time></trkpt><trkpt lat="40.6905221" lon="14.6968222"><ele>328.0</ele><time>2026-03-27T08:21:08.406Z</time></trkpt><trkpt lat="40.6904567" lon="14.6967984"><ele>328.0</ele><time>2026-03-27T08:21:12.406Z</time></trkpt><trkpt lat="40.6903929" lon="14.6967574"><ele>328.0</ele><time>2026-03-27T08:21:17.406Z</time></trkpt><trkpt lat="40.6903298" lon="14.6967432"><ele>328.0</ele><time>2026-03-27T08:21:23.406Z</time></trkpt><trkpt lat="40.6902585" lon="14.6967157"><ele>327.99999999999994</ele><time>2026-03-27T08:21:28.406Z</time></trkpt><trkpt lat="40.690183" lon="14.696698"><ele>328.0</ele><time>2026-03-27T08:21:34.406Z</time></trkpt><trkpt lat="40.690115" lon="14.6966798"><ele>327.1428571428571</ele><time>2026-03-27T08:21:38.406Z</time></trkpt><trkpt lat="40.6900429" lon="14.6966472"><ele>326.2857142857143</ele><time>2026-03-27T08:21:42.406Z</time></trkpt><trkpt lat="40.6899817" lon="14.6966119"><ele>325.42857142857144</ele><time>2026-03-27T08:21:51.406Z</time></trkpt><trkpt lat="40.6899172" lon="14.6965772"><ele>324.57142857142856</ele><time>2026-03-27T08:21:55.406Z</time></trkpt><trkpt lat="40.6898438" lon="14.6965468"><ele>323.7142857142857</ele><time>2026-03-27T08:21:59.406Z</time></trkpt><trkpt lat="40.6897755" lon="14.6965167"><ele>322.85714285714283</ele><time>2026-03-27T08:22:05.406Z</time></trkpt><trkpt lat="40.6897233" lon="14.6964675"><ele>322.0</ele><time>2026-03-27T08:22:10.406Z</time></trkpt><trkpt lat="40.689656" lon="14.6964524"><ele>322.0</ele><time>2026-03-27T08:22:15.406Z</time></trkpt><trkpt lat="40.6895962" lon="14.6964855"><ele>322.0</ele><time>2026-03-27T08:22:21.406Z</time></trkpt><trkpt lat="40.6895873" lon="14.6965778"><ele>322.0</ele><time>2026-03-27T08:22:26.406Z</time></trkpt><trkpt lat="40.6895815" lon="14.6966742"><ele>322.0</ele><time>2026-03-27T08:22:30.406Z</time></trkpt><trkpt lat="40.6895657" lon="14.6967618"><ele>322.0</ele><time>2026-03-27T08:22:35.406Z</time></trkpt><trkpt lat="40.6895473" lon="14.6968463"><ele>322.0</ele><time>2026-03-27T08:22:40.406Z</time></trkpt><trkpt lat="40.6895053" lon="14.6969258"><ele>322.0</ele><time>2026-03-27T08:22:46.406Z</time></trkpt><trkpt lat="40.6894475" lon="14.6969605"><ele>323.7142857142857</ele><time>2026-03-27T08:22:50.406Z</time></trkpt><trkpt lat="40.689386" lon="14.6969877"><ele>325.42857142857144</ele><time>2026-03-27T08:22:55.406Z</time></trkpt><trkpt lat="40.6893168" lon="14.6969717"><ele>327.1428571428571</ele><time>2026-03-27T08:23:00.406Z</time></trkpt><trkpt lat="40.6892463" lon="14.6969529"><ele>328.8571428571429</ele><time>2026-03-27T08:23:05.406Z</time></trkpt><trkpt lat="40.6891784" lon="14.6969265"><ele>330.57142857142856</ele><time>2026-03-27T08:23:10.406Z</time></trkpt><trkpt lat="40.6891066" lon="14.6969006"><ele>332.2857142857143</ele><time>2026-03-27T08:23:15.407Z</time></trkpt><trkpt lat="40.6890333" lon="14.6968694"><ele>334.0</ele><time>2026-03-27T08:23:20.406Z</time></trkpt><trkpt lat="40.6889623" lon="14.6968306"><ele>334.0</ele><time>2026-03-27T08:23:25.406Z</time></trkpt><trkpt lat="40.6889046" lon="14.6967959"><ele>334.0</ele><time>2026-03-27T08:23:29.406Z</time></trkpt><trkpt lat="40.6888436" lon="14.6967568"><ele>334.0</ele><time>2026-03-27T08:23:33.406Z</time></trkpt><trkpt lat="40.688775" lon="14.6967197"><ele>334.0</ele><time>2026-03-27T08:23:38.406Z</time></trkpt><trkpt lat="40.6887089" lon="14.6966982"><ele>334.0</ele><time>2026-03-27T08:23:46.406Z</time></trkpt><trkpt lat="40.6886536" lon="14.6967379"><ele>334.0</ele><time>2026-03-27T08:23:51.406Z</time></trkpt><trkpt lat="40.6885923" lon="14.6967839"><ele>334.0</ele><time>2026-03-27T08:23:56.406Z</time></trkpt><trkpt lat="40.6885247" lon="14.6968158"><ele>333.7142857142857</ele><time>2026-03-27T08:24:02.406Z</time></trkpt><trkpt lat="40.6884585" lon="14.6968242"><ele>333.42857142857144</ele><time>2026-03-27T08:24:07.406Z</time></trkpt><trkpt lat="40.68839" lon="14.6968614"><ele>333.1428571428571</ele><time>2026-03-27T08:24:12.406Z</time></trkpt><trkpt lat="40.6883479" lon="14.6969323"><ele>332.8571428571429</ele><time>2026-03-27T08:24:17.406Z</time></trkpt><trkpt lat="40.688313" lon="14.6970119"><ele>332.5714285714286</ele><time>2026-03-27T08:24:21.406Z</time></trkpt><trkpt lat="40.6882744" lon="14.6970812"><ele>332.2857142857143</ele><time>2026-03-27T08:24:25.406Z</time></trkpt><trkpt lat="40.6882353" lon="14.6971488"><ele>332.0</ele><time>2026-03-27T08:24:30.406Z</time></trkpt><trkpt lat="40.6882427" lon="14.6972422"><ele>332.0</ele><time>2026-03-27T08:24:35.406Z</time></trkpt><trkpt lat="40.68826" lon="14.6973313"><ele>332.0</ele><time>2026-03-27T08:24:44.406Z</time></trkpt><trkpt lat="40.6882802" lon="14.6974319"><ele>332.0</ele><time>2026-03-27T08:24:49.406Z</time></trkpt><trkpt lat="40.688291" lon="14.6975173"><ele>332.0</ele><time>2026-03-27T08:24:54.406Z</time></trkpt><trkpt lat="40.6882664" lon="14.697598"><ele>332.0</ele><time>2026-03-27T08:24:59.406Z</time></trkpt><trkpt lat="40.6882457" lon="14.6976766"><ele>332.0</ele><time>2026-03-27T08:25:04.407Z</time></trkpt><trkpt lat="40.6882419" lon="14.6977595"><ele>332.0</ele><time>2026-03-27T08:25:10.406Z</time></trkpt><trkpt lat="40.6882427" lon="14.6978503"><ele>330.57142857142856</ele><time>2026-03-27T08:25:16.406Z</time></trkpt><trkpt lat="40.6882317" lon="14.6979476"><ele>329.14285714285717</ele><time>2026-03-27T08:25:21.406Z</time></trkpt><trkpt lat="40.6882188" lon="14.6980307"><ele>327.7142857142857</ele><time>2026-03-27T08:25:26.406Z</time></trkpt><trkpt lat="40.6881835" lon="14.6981009"><ele>326.2857142857143</ele><time>2026-03-27T08:25:31.406Z</time></trkpt><trkpt lat="40.6881509" lon="14.6981849"><ele>324.8571428571429</ele><time>2026-03-27T08:25:36.406Z</time></trkpt><trkpt lat="40.6880829" lon="14.6982308"><ele>323.42857142857144</ele><time>2026-03-27T08:25:41.406Z</time></trkpt><trkpt lat="40.6880153" lon="14.6982574"><ele>322.0</ele><time>2026-03-27T08:25:46.406Z</time></trkpt><trkpt lat="40.6879523" lon="14.6983217"><ele>322.0</ele><time>2026-03-27T08:25:52.406Z</time></trkpt><trkpt lat="40.6878932" lon="14.6983547"><ele>322.0</ele><time>2026-03-27T08:25:58.406Z</time></trkpt><trkpt lat="40.6878272" lon="14.6983879"><ele>322.0</ele><time>2026-03-27T08:26:03.406Z</time></trkpt><trkpt lat="40.6877644" lon="14.6983967"><ele>322.0</ele><time>2026-03-27T08:26:08.406Z</time></trkpt><trkpt lat="40.6876966" lon="14.6983902"><ele>322.0</ele><time>2026-03-27T08:26:14.407Z</time></trkpt><trkpt lat="40.6876255" lon="14.698377"><ele>322.0</ele><time>2026-03-27T08:26:20.406Z</time></trkpt><trkpt lat="40.6875529" lon="14.6983595"><ele>322.0</ele><time>2026-03-27T08:26:25.406Z</time></trkpt><trkpt lat="40.6874817" lon="14.6983422"><ele>325.14285714285717</ele><time>2026-03-27T08:26:29.406Z</time></trkpt><trkpt lat="40.6874199" lon="14.6983256"><ele>328.2857142857143</ele><time>2026-03-27T08:26:33.406Z</time></trkpt><trkpt lat="40.6873525" lon="14.698315"><ele>331.42857142857144</ele><time>2026-03-27T08:26:39.406Z</time></trkpt><trkpt lat="40.6872867" lon="14.6983032"><ele>334.57142857142856</ele><time>2026-03-27T08:26:44.406Z</time></trkpt><trkpt lat="40.6872222" lon="14.6982991"><ele>337.7142857142857</ele><time>2026-03-27T08:26:48.406Z</time></trkpt><trkpt lat="40.6871518" lon="14.6982802"><ele>340.8571428571429</ele><time>2026-03-27T08:26:53.406Z</time></trkpt><trkpt lat="40.687075" lon="14.6982594"><ele>344.0</ele><time>2026-03-27T08:26:59.406Z</time></trkpt><trkpt lat="40.6870046" lon="14.6982365"><ele>344.00000000000006</ele><time>2026-03-27T08:27:06.406Z</time></trkpt><trkpt lat="40.6869311" lon="14.6982224"><ele>344.0</ele><time>2026-03-27T08:27:11.406Z</time></trkpt><trkpt lat="40.686868" lon="14.6982104"><ele>344.0</ele><time>2026-03-27T08:27:16.406Z</time></trkpt><trkpt lat="40.6867976" lon="14.6981765"><ele>344.0</ele><time>2026-03-27T08:27:21.406Z</time></trkpt><trkpt lat="40.686739" lon="14.6981326"><ele>344.0</ele><time>2026-03-27T08:27:27.406Z</time></trkpt><trkpt lat="40.6866709" lon="14.6980948"><ele>344.00000000000006</ele><time>2026-03-27T08:27:33.406Z</time></trkpt><trkpt lat="40.6865972" lon="14.6980807"><ele>344.0</ele><time>2026-03-27T08:27:38.406Z</time></trkpt><trkpt lat="40.6865368" lon="14.698057"><ele>344.14285714285717</ele><time>2026-03-27T08:27:43.406Z</time></trkpt><trkpt lat="40.6864603" lon="14.6980215"><ele>344.2857142857143</ele><time>2026-03-27T08:27:49.406Z</time></trkpt><trkpt lat="40.6863989" lon="14.697994"><ele>344.42857142857144</ele><time>2026-03-27T08:27:54.406Z</time></trkpt><trkpt lat="40.6863507" lon="14.6979311"><ele>344.57142857142856</ele><time>2026-03-27T08:27:58.406Z</time></trkpt><trkpt lat="40.6862738" lon="14.6979277"><ele>344.7142857142857</ele><time>2026-03-27T08:28:04.406Z</time></trkpt><trkpt lat="40.6862256" lon="14.6978684"><ele>344.8571428571429</ele><time>2026-03-27T08:28:12.406Z</time></trkpt><trkpt lat="40.6861895" lon="14.6977948"><ele>345.0</ele><time>2026-03-27T08:28:16.406Z</time></trkpt><trkpt lat="40.6861444" lon="14.6977079"><ele>346.2857142857143</ele><time>2026-03-27T08:28:20.406Z</time></trkpt><trkpt lat="40.6861065" lon="14.697628"><ele>347.57142857142856</ele><time>2026-03-27T08:28:24.406Z</time></trkpt><trkpt lat="40.6860704" lon="14.6975598"><ele>348.8571428571429</ele><time>2026-03-27T08:28:27.406Z</time></trkpt><trkpt lat="40.6860313" lon="14.6974731"><ele>350.1428571428571</ele><time>2026-03-27T08:28:32.406Z</time></trkpt><trkpt lat="40.685994" lon="14.6973959"><ele>351.4285714285714</ele><time>2026-03-27T08:28:36.406Z</time></trkpt><trkpt lat="40.6859606" lon="14.6973251"><ele>352.7142857142857</ele><time>2026-03-27T08:28:40.406Z</time></trkpt><trkpt lat="40.68592" lon="14.6972353"><ele>354.0</ele><time>2026-03-27T08:28:45.406Z</time></trkpt><trkpt lat="40.6858868" lon="14.6971535"><ele>354.0</ele><time>2026-03-27T08:28:51.406Z</time></trkpt><trkpt lat="40.6858466" lon="14.6970618"><ele>354.0</ele><time>2026-03-27T08:28:57.406Z</time></trkpt><trkpt lat="40.6858086" lon="14.6969763"><ele>354.0</ele><time>2026-03-27T08:29:02.406Z</time></trkpt><trkpt lat="40.6857663" lon="14.6968865"><ele>354.0</ele><time>2026-03-27T08:29:07.406Z</time></trkpt><trkpt lat="40.6856981" lon="14.6968561"><ele>354.0</ele><time>2026-03-27T08:29:14.406Z</time></trkpt><trkpt lat="40.6856297" lon="14.6968997"><ele>354.0</ele><time>2026-03-27T08:29:16.406Z</time></trkpt><trkpt lat="40.68557" lon="14.6969326"><ele>354.0</ele><time>2026-03-27T08:29:18.406Z</time></trkpt><trkpt lat="40.685508" lon="14.6969488"><ele>355.14285714285717</ele><time>2026-03-27T08:29:21.406Z</time></trkpt><trkpt lat="40.6854377" lon="14.6969121"><ele>356.2857142857143</ele><time>2026-03-27T08:29:25.406Z</time></trkpt><trkpt lat="40.6853634" lon="14.696882"><ele>357.42857142857144</ele><time>2026-03-27T08:29:30.406Z</time></trkpt><trkpt lat="40.6852989" lon="14.6968534"><ele>358.57142857142856</ele><time>2026-03-27T08:29:35.406Z</time></trkpt><trkpt lat="40.6852333" lon="14.6968216"><ele>359.71428571428567</ele><time>2026-03-27T08:29:40.406Z</time></trkpt><trkpt lat="40.6851639" lon="14.6967869"><ele>360.85714285714283</ele><time>2026-03-27T08:29:46.406Z</time></trkpt><trkpt lat="40.6850981" lon="14.6967441"><ele>362.0</ele><time>2026-03-27T08:29:53.406Z</time></trkpt><trkpt lat="40.6850364" lon="14.6967017"><ele>362.0</ele><time>2026-03-27T08:29:58.406Z</time></trkpt><trkpt lat="40.6849835" lon="14.6966522"><ele>362.0</ele><time>2026-03-27T08:30:02.406Z</time></trkpt><trkpt lat="40.6849227" lon="14.6966069"><ele>362.0</ele><time>2026-03-27T08:30:07.406Z</time></trkpt><trkpt lat="40.6848489" lon="14.6965875"><ele>362.0</ele><time>2026-03-27T08:30:13.406Z</time></trkpt><trkpt lat="40.6847859" lon="14.6965676"><ele>362.0</ele><time>2026-03-27T08:30:18.406Z</time></trkpt><trkpt lat="40.6847204" lon="14.6965391"><ele>362.0</ele><time>2026-03-27T08:30:23.406Z</time></trkpt><trkpt lat="40.6846384" lon="14.696493"><ele>362.0</ele><time>2026-03-27T08:30:27.406Z</time></trkpt><trkpt lat="40.6845493" lon="14.6964733"><ele>362.0</ele><time>2026-03-27T08:30:30.407Z</time></trkpt><trkpt lat="40.6844736" lon="14.6964509"><ele>362.0</ele><time>2026-03-27T08:30:33.406Z</time></trkpt><trkpt lat="40.6843985" lon="14.6964158"><ele>362.0</ele><time>2026-03-27T08:30:39.406Z</time></trkpt><trkpt lat="40.6843553" lon="14.6963488"><ele>362.0</ele><time>2026-03-27T08:30:44.406Z</time></trkpt><trkpt lat="40.684316" lon="14.6962776"><ele>362.0</ele><time>2026-03-27T08:30:51.406Z</time></trkpt><trkpt lat="40.6842534" lon="14.69622"><ele>362.0</ele><time>2026-03-27T08:30:57.406Z</time></trkpt><trkpt lat="40.6841983" lon="14.6961714"><ele>362.0</ele><time>2026-03-27T08:31:01.406Z</time></trkpt><trkpt lat="40.6841392" lon="14.6961075"><ele>362.2857142857143</ele><time>2026-03-27T08:31:07.406Z</time></trkpt><trkpt lat="40.6840787" lon="14.6960496"><ele>362.57142857142856</ele><time>2026-03-27T08:31:14.406Z</time></trkpt><trkpt lat="40.6840689" lon="14.6959531"><ele>362.8571428571429</ele><time>2026-03-27T08:31:20.406Z</time></trkpt><trkpt lat="40.6840628" lon="14.6958689"><ele>363.1428571428571</ele><time>2026-03-27T08:31:25.406Z</time></trkpt><trkpt lat="40.6840679" lon="14.6957756"><ele>363.42857142857144</ele><time>2026-03-27T08:31:30.406Z</time></trkpt><trkpt lat="40.6840819" lon="14.6956944"><ele>363.7142857142857</ele><time>2026-03-27T08:31:35.406Z</time></trkpt><trkpt lat="40.684097" lon="14.6956033"><ele>364.0</ele><time>2026-03-27T08:31:43.406Z</time></trkpt><trkpt lat="40.6841066" lon="14.6955177"><ele>364.0</ele><time>2026-03-27T08:31:48.406Z</time></trkpt><trkpt lat="40.6841228" lon="14.6954275"><ele>364.0</ele><time>2026-03-27T08:31:54.406Z</time></trkpt><trkpt lat="40.6841306" lon="14.6953338"><ele>364.0</ele><time>2026-03-27T08:32:01.406Z</time></trkpt><trkpt lat="40.6841092" lon="14.6952463"><ele>364.0</ele><time>2026-03-27T08:32:06.406Z</time></trkpt><trkpt lat="40.6840813" lon="14.695165"><ele>364.0</ele><time>2026-03-27T08:32:11.406Z</time></trkpt><trkpt lat="40.6840601" lon="14.6950727"><ele>364.0</ele><time>2026-03-27T08:32:17.406Z</time></trkpt><trkpt lat="40.684052" lon="14.6949744"><ele>364.0</ele><time>2026-03-27T08:32:23.406Z</time></trkpt><trkpt lat="40.6840601" lon="14.6948858"><ele>365.2857142857143</ele><time>2026-03-27T08:32:29.406Z</time></trkpt><trkpt lat="40.6840469" lon="14.6947965"><ele>366.57142857142856</ele><time>2026-03-27T08:32:36.406Z</time></trkpt><trkpt lat="40.6840311" lon="14.6947044"><ele>367.8571428571429</ele><time>2026-03-27T08:32:43.407Z</time></trkpt><trkpt lat="40.6840042" lon="14.6946263"><ele>369.1428571428571</ele><time>2026-03-27T08:32:49.406Z</time></trkpt><trkpt lat="40.6839759" lon="14.6945443"><ele>370.42857142857144</ele><time>2026-03-27T08:32:55.406Z</time></trkpt><trkpt lat="40.6839455" lon="14.6944611"><ele>371.7142857142857</ele><time>2026-03-27T08:33:01.406Z</time></trkpt><trkpt lat="40.6839154" lon="14.6943843"><ele>373.0</ele><time>2026-03-27T08:33:06.406Z</time></trkpt><trkpt lat="40.6838876" lon="14.6943076"><ele>374.57142857142856</ele><time>2026-03-27T08:33:11.406Z</time></trkpt><trkpt lat="40.6838615" lon="14.6942278"><ele>376.14285714285717</ele><time>2026-03-27T08:33:18.406Z</time></trkpt><trkpt lat="40.6838455" lon="14.6941437"><ele>377.71428571428567</ele><time>2026-03-27T08:33:24.406Z</time></trkpt><trkpt lat="40.6838216" lon="14.6940505"><ele>379.2857142857143</ele><time>2026-03-27T08:33:31.406Z</time></trkpt><trkpt lat="40.6837949" lon="14.693963"><ele>380.85714285714283</ele><time>2026-03-27T08:33:38.406Z</time></trkpt><trkpt lat="40.6837729" lon="14.69387"><ele>382.4285714285714</ele><time>2026-03-27T08:33:45.406Z</time></trkpt><trkpt lat="40.6837727" lon="14.6937856"><ele>384.0</ele><time>2026-03-27T08:33:50.406Z</time></trkpt><trkpt lat="40.6837911" lon="14.6937059"><ele>383.99999999999994</ele><time>2026-03-27T08:33:55.406Z</time></trkpt><trkpt lat="40.6838258" lon="14.6936192"><ele>384.0</ele><time>2026-03-27T08:34:01.407Z</time></trkpt><trkpt lat="40.6838439" lon="14.6935394"><ele>384.0</ele><time>2026-03-27T08:34:06.406Z</time></trkpt><trkpt lat="40.6838508" lon="14.6934517"><ele>384.0</ele><time>2026-03-27T08:34:12.406Z</time></trkpt><trkpt lat="40.6838706" lon="14.6933649"><ele>384.0</ele><time>2026-03-27T08:34:17.406Z</time></trkpt><trkpt lat="40.6839088" lon="14.6932874"><ele>383.99999999999994</ele><time>2026-03-27T08:34:23.406Z</time></trkpt><trkpt lat="40.6839379" lon="14.6932105"><ele>384.0</ele><time>2026-03-27T08:34:28.406Z</time></trkpt><trkpt lat="40.6839689" lon="14.6931221"><ele>383.85714285714283</ele><time>2026-03-27T08:34:34.406Z</time></trkpt><trkpt lat="40.6839805" lon="14.6930365"><ele>383.7142857142857</ele><time>2026-03-27T08:34:39.406Z</time></trkpt><trkpt lat="40.6839575" lon="14.6929437"><ele>383.57142857142856</ele><time>2026-03-27T08:34:44.406Z</time></trkpt><trkpt lat="40.6839129" lon="14.6928825"><ele>383.42857142857144</ele><time>2026-03-27T08:34:51.406Z</time></trkpt><trkpt lat="40.6838346" lon="14.6928912"><ele>383.2857142857143</ele><time>2026-03-27T08:34:56.406Z</time></trkpt><trkpt lat="40.6837757" lon="14.6929372"><ele>383.1428571428571</ele><time>2026-03-27T08:35:01.406Z</time></trkpt><trkpt lat="40.6837279" lon="14.6930078"><ele>383.0</ele><time>2026-03-27T08:35:09.406Z</time></trkpt><trkpt lat="40.6836745" lon="14.6930529"><ele>383.0</ele><time>2026-03-27T08:35:16.407Z</time></trkpt><trkpt lat="40.6836245" lon="14.6931055"><ele>383.0</ele><time>2026-03-27T08:35:22.406Z</time></trkpt><trkpt lat="40.6835707" lon="14.6931539"><ele>383.0</ele><time>2026-03-27T08:35:27.406Z</time></trkpt><trkpt lat="40.683507" lon="14.6932023"><ele>383.0</ele><time>2026-03-27T08:35:32.406Z</time></trkpt><trkpt lat="40.6834399" lon="14.6932391"><ele>383.0</ele><time>2026-03-27T08:35:38.406Z</time></trkpt><trkpt lat="40.6833751" lon="14.6932623"><ele>383.0</ele><time>2026-03-27T08:35:45.407Z</time></trkpt><trkpt lat="40.6833108" lon="14.6932899"><ele>383.0</ele><time>2026-03-27T08:35:51.406Z</time></trkpt><trkpt lat="40.6832574" lon="14.6933487"><ele>380.85714285714283</ele><time>2026-03-27T08:35:56.406Z</time></trkpt><trkpt lat="40.6832181" lon="14.6934317"><ele>378.71428571428567</ele><time>2026-03-27T08:36:02.406Z</time></trkpt><trkpt lat="40.6831847" lon="14.6935064"><ele>376.57142857142856</ele><time>2026-03-27T08:36:08.406Z</time></trkpt><trkpt lat="40.6831381" lon="14.6935808"><ele>374.42857142857144</ele><time>2026-03-27T08:36:14.406Z</time></trkpt><trkpt lat="40.6830876" lon="14.6936544"><ele>372.2857142857143</ele><time>2026-03-27T08:36:19.407Z</time></trkpt><trkpt lat="40.6830324" lon="14.6937088"><ele>370.14285714285717</ele><time>2026-03-27T08:36:26.406Z</time></trkpt><trkpt lat="40.6829753" lon="14.6937571"><ele>368.0</ele><time>2026-03-27T08:36:32.406Z</time></trkpt><trkpt lat="40.6829131" lon="14.6937998"><ele>366.14285714285717</ele><time>2026-03-27T08:36:37.406Z</time></trkpt><trkpt lat="40.6828434" lon="14.6938108"><ele>364.2857142857143</ele><time>2026-03-27T08:36:42.406Z</time></trkpt><trkpt lat="40.6827767" lon="14.693806"><ele>362.42857142857144</ele><time>2026-03-27T08:36:48.406Z</time></trkpt><trkpt lat="40.6827064" lon="14.6937879"><ele>360.57142857142856</ele><time>2026-03-27T08:36:53.406Z</time></trkpt><trkpt lat="40.6826403" lon="14.6937427"><ele>358.7142857142857</ele><time>2026-03-27T08:36:59.406Z</time></trkpt><trkpt lat="40.6825775" lon="14.6937118"><ele>356.85714285714283</ele><time>2026-03-27T08:37:06.406Z</time></trkpt><trkpt lat="40.6825368" lon="14.6936426"><ele>355.0</ele><time>2026-03-27T08:37:11.406Z</time></trkpt><trkpt lat="40.6825377" lon="14.6935497"><ele>355.0</ele><time>2026-03-27T08:37:17.406Z</time></trkpt><trkpt lat="40.6825351" lon="14.693454"><ele>355.0</ele><time>2026-03-27T08:37:22.406Z</time></trkpt><trkpt lat="40.6825142" lon="14.693362"><ele>355.0</ele><time>2026-03-27T08:37:29.406Z</time></trkpt><trkpt lat="40.6825023" lon="14.6932785"><ele>355.0</ele><time>2026-03-27T08:37:35.406Z</time></trkpt><trkpt lat="40.6824847" lon="14.6931916"><ele>355.0</ele><time>2026-03-27T08:37:41.406Z</time></trkpt><trkpt lat="40.6824692" lon="14.6931076"><ele>355.0</ele><time>2026-03-27T08:37:47.406Z</time></trkpt><trkpt lat="40.6824296" lon="14.6930293"><ele>355.0</ele><time>2026-03-27T08:37:51.406Z</time></trkpt><trkpt lat="40.6823926" lon="14.692957"><ele>355.0</ele><time>2026-03-27T08:37:55.406Z</time></trkpt><trkpt lat="40.6823717" lon="14.6928735"><ele>355.0</ele><time>2026-03-27T08:38:01.406Z</time></trkpt><trkpt lat="40.6823394" lon="14.6928015"><ele>355.0</ele><time>2026-03-27T08:38:06.406Z</time></trkpt><trkpt lat="40.6822954" lon="14.6927392"><ele>355.0</ele><time>2026-03-27T08:38:13.406Z</time></trkpt><trkpt lat="40.6822201" lon="14.6926549"><ele>355.0</ele><time>2026-03-27T08:38:20.406Z</time></trkpt><trkpt lat="40.6821753" lon="14.6925717"><ele>355.0</ele><time>2026-03-27T08:38:28.406Z</time></trkpt><trkpt lat="40.6821235" lon="14.6925114"><ele>355.0</ele><time>2026-03-27T08:38:35.406Z</time></trkpt><trkpt lat="40.6821301" lon="14.6924198"><ele>357.42857142857144</ele><time>2026-03-27T08:38:41.406Z</time></trkpt><trkpt lat="40.68214" lon="14.6923222"><ele>359.8571428571429</ele><time>2026-03-27T08:38:47.406Z</time></trkpt><trkpt lat="40.6821531" lon="14.692226"><ele>362.28571428571433</ele><time>2026-03-27T08:38:52.406Z</time></trkpt><trkpt lat="40.6821583" lon="14.6921426"><ele>364.7142857142857</ele><time>2026-03-27T08:38:57.406Z</time></trkpt><trkpt lat="40.6821435" lon="14.6920413"><ele>367.14285714285717</ele><time>2026-03-27T08:39:03.406Z</time></trkpt><trkpt lat="40.682139" lon="14.6919506"><ele>369.5714285714286</ele><time>2026-03-27T08:39:09.406Z</time></trkpt><trkpt lat="40.6821258" lon="14.6918657"><ele>372.0</ele><time>2026-03-27T08:39:15.406Z</time></trkpt><trkpt lat="40.682114" lon="14.6917702"><ele>373.5714285714286</ele><time>2026-03-27T08:39:21.406Z</time></trkpt><trkpt lat="40.6821275" lon="14.6916887"><ele>375.14285714285717</ele><time>2026-03-27T08:39:26.406Z</time></trkpt><trkpt lat="40.6820953" lon="14.6915927"><ele>376.7142857142857</ele><time>2026-03-27T08:39:39.406Z</time></trkpt><trkpt lat="40.6820672" lon="14.6916729"><ele>378.28571428571433</ele><time>2026-03-27T08:40:03.406Z</time></trkpt><trkpt lat="40.6820597" lon="14.6917601"><ele>379.85714285714283</ele><time>2026-03-27T08:40:09.406Z</time></trkpt><trkpt lat="40.6820306" lon="14.6916822"><ele>381.42857142857144</ele><time>2026-03-27T08:40:26.406Z</time></trkpt><trkpt lat="40.6820332" lon="14.6915854"><ele>383.0</ele><time>2026-03-27T08:40:34.406Z</time></trkpt><trkpt lat="40.6820384" lon="14.6915024"><ele>383.0</ele><time>2026-03-27T08:40:40.406Z</time></trkpt><trkpt lat="40.6820162" lon="14.6914169"><ele>383.0</ele><time>2026-03-27T08:40:45.406Z</time></trkpt><trkpt lat="40.6819655" lon="14.6913394"><ele>383.0</ele><time>2026-03-27T08:40:50.406Z</time></trkpt><trkpt lat="40.6819092" lon="14.6913946"><ele>383.0</ele><time>2026-03-27T08:40:55.406Z</time></trkpt><trkpt lat="40.6818921" lon="14.6914794"><ele>383.0</ele><time>2026-03-27T08:40:59.406Z</time></trkpt><trkpt lat="40.6819284" lon="14.6915501"><ele>383.0</ele><time>2026-03-27T08:41:05.406Z</time></trkpt><trkpt lat="40.6819479" lon="14.6916432"><ele>383.0</ele><time>2026-03-27T08:41:13.406Z</time></trkpt><trkpt lat="40.6818909" lon="14.6915927"><ele>377.57142857142856</ele><time>2026-03-27T08:41:29.406Z</time></trkpt><trkpt lat="40.6818516" lon="14.6915227"><ele>372.1428571428571</ele><time>2026-03-27T08:41:35.406Z</time></trkpt><trkpt lat="40.6818355" lon="14.6914308"><ele>366.7142857142857</ele><time>2026-03-27T08:41:43.406Z</time></trkpt><trkpt lat="40.6818047" lon="14.6913479"><ele>361.2857142857143</ele><time>2026-03-27T08:41:50.406Z</time></trkpt><trkpt lat="40.6817875" lon="14.6912643"><ele>355.85714285714283</ele><time>2026-03-27T08:41:54.406Z</time></trkpt><trkpt lat="40.6817904" lon="14.6911798"><ele>350.42857142857144</ele><time>2026-03-27T08:41:59.406Z</time></trkpt><trkpt lat="40.6817686" lon="14.691094"><ele>345.0</ele><time>2026-03-27T08:42:04.406Z</time></trkpt><trkpt lat="40.6817063" lon="14.6911082"><ele>345.0</ele><time>2026-03-27T08:42:10.406Z</time></trkpt><trkpt lat="40.6816625" lon="14.6911702"><ele>345.0</ele><time>2026-03-27T08:42:16.406Z</time></trkpt><trkpt lat="40.6817061" lon="14.6912369"><ele>345.0</ele><time>2026-03-27T08:42:28.406Z</time></trkpt><trkpt lat="40.6817548" lon="14.6913039"><ele>345.0</ele><time>2026-03-27T08:42:32.406Z</time></trkpt><trkpt lat="40.6817648" lon="14.6913903"><ele>345.0</ele><time>2026-03-27T08:42:38.406Z</time></trkpt><trkpt lat="40.6817903" lon="14.69147"><ele>345.0</ele><time>2026-03-27T08:42:44.406Z</time></trkpt><trkpt lat="40.681728" lon="14.6914919"><ele>345.0</ele><time>2026-03-27T08:42:52.406Z</time></trkpt><trkpt lat="40.681665" lon="14.6914747"><ele>345.0</ele><time>2026-03-27T08:42:58.406Z</time></trkpt><trkpt lat="40.6815986" lon="14.6914792"><ele>345.0</ele><time>2026-03-27T08:43:03.406Z</time></trkpt><trkpt lat="40.6815256" lon="14.6914868"><ele>345.0</ele><time>2026-03-27T08:43:09.406Z</time></trkpt><trkpt lat="40.6814815" lon="14.6914246"><ele>345.0</ele><time>2026-03-27T08:43:20.406Z</time></trkpt><trkpt lat="40.6814926" lon="14.6913413"><ele>345.0</ele><time>2026-03-27T08:43:26.406Z</time></trkpt><trkpt lat="40.6815067" lon="14.6912568"><ele>345.0</ele><time>2026-03-27T08:43:32.406Z</time></trkpt><trkpt lat="40.6815503" lon="14.691099"><ele>345.0</ele><time>2026-03-27T08:44:51.406Z</time></trkpt><trkpt lat="40.6815644" lon="14.6911814"><ele>345.0</ele><time>2026-03-27T08:45:28.406Z</time></trkpt><trkpt lat="40.6815289" lon="14.6912612"><ele>345.0</ele><time>2026-03-27T08:45:34.406Z</time></trkpt><trkpt lat="40.6815556" lon="14.6913373"><ele>345.0</ele><time>2026-03-27T08:45:42.406Z</time></trkpt><trkpt lat="40.6815496" lon="14.6914254"><ele>345.0</ele><time>2026-03-27T08:45:50.406Z</time></trkpt><trkpt lat="40.6816717" lon="14.6914889"><ele>345.0</ele><time>2026-03-27T08:46:38.406Z</time></trkpt><trkpt lat="40.6818708" lon="14.6910743"><ele>345.0</ele><time>2026-03-27T08:47:47.913Z</time></trkpt><trkpt lat="40.6818763" lon="14.6911685"><ele>345.0</ele><time>2026-03-27T08:47:53.413Z</time></trkpt><trkpt lat="40.6818343" lon="14.6912352"><ele>345.0</ele><time>2026-03-27T08:48:01.413Z</time></trkpt><trkpt lat="40.6818564" lon="14.6913167"><ele>345.0</ele><time>2026-03-27T08:48:09.413Z</time></trkpt><trkpt lat="40.6818904" lon="14.6913921"><ele>345.0</ele><time>2026-03-27T08:48:16.413Z</time></trkpt><trkpt lat="40.6818868" lon="14.691475"><ele>345.0</ele><time>2026-03-27T08:48:22.413Z</time></trkpt><trkpt lat="40.6819117" lon="14.691564"><ele>345.0</ele><time>2026-03-27T08:48:28.413Z</time></trkpt><trkpt lat="40.6819416" lon="14.6916374"><ele>345.0</ele><time>2026-03-27T08:48:35.413Z</time></trkpt><trkpt lat="40.6819437" lon="14.691544"><ele>345.0</ele><time>2026-03-27T08:48:48.413Z</time></trkpt><trkpt lat="40.6819192" lon="14.6914657"><ele>345.0</ele><time>2026-03-27T08:48:54.413Z</time></trkpt><trkpt lat="40.6819377" lon="14.6913824"><ele>345.0</ele><time>2026-03-27T08:49:02.413Z</time></trkpt><trkpt lat="40.6820023" lon="14.6913897"><ele>345.0</ele><time>2026-03-27T08:49:12.413Z</time></trkpt><trkpt lat="40.6820163" lon="14.6914721"><ele>345.0</ele><time>2026-03-27T08:49:17.413Z</time></trkpt><trkpt lat="40.6820485" lon="14.691559"><ele>345.0</ele><time>2026-03-27T08:49:23.413Z</time></trkpt><trkpt lat="40.6820523" lon="14.6916433"><ele>350.42857142857144</ele><time>2026-03-27T08:49:29.413Z</time></trkpt><trkpt lat="40.6820458" lon="14.6917285"><ele>355.85714285714283</ele><time>2026-03-27T08:49:38.413Z</time></trkpt><trkpt lat="40.6820622" lon="14.6916431"><ele>361.2857142857143</ele><time>2026-03-27T08:49:50.413Z</time></trkpt><trkpt lat="40.6820588" lon="14.691558"><ele>366.7142857142857</ele><time>2026-03-27T08:49:58.414Z</time></trkpt><trkpt lat="40.6821219" lon="14.6915726"><ele>372.1428571428571</ele><time>2026-03-27T08:50:09.413Z</time></trkpt><trkpt lat="40.6821559" lon="14.6916582"><ele>377.57142857142856</ele><time>2026-03-27T08:50:16.413Z</time></trkpt><trkpt lat="40.682159" lon="14.6917424"><ele>383.0</ele><time>2026-03-27T08:50:22.413Z</time></trkpt><trkpt lat="40.6821534" lon="14.6918266"><ele>383.0</ele><time>2026-03-27T08:50:27.413Z</time></trkpt><trkpt lat="40.6821506" lon="14.691919"><ele>383.0</ele><time>2026-03-27T08:50:32.413Z</time></trkpt><trkpt lat="40.682153" lon="14.6920162"><ele>383.0</ele><time>2026-03-27T08:50:38.413Z</time></trkpt><trkpt lat="40.6821439" lon="14.6921138"><ele>383.0</ele><time>2026-03-27T08:50:45.413Z</time></trkpt><trkpt lat="40.6821092" lon="14.6921943"><ele>383.0</ele><time>2026-03-27T08:50:51.413Z</time></trkpt><trkpt lat="40.6821084" lon="14.6922868"><ele>383.0</ele><time>2026-03-27T08:50:57.413Z</time></trkpt><trkpt lat="40.6821142" lon="14.6923726"><ele>383.0</ele><time>2026-03-27T08:51:03.413Z</time></trkpt><trkpt lat="40.6821132" lon="14.6924731"><ele>381.42857142857144</ele><time>2026-03-27T08:51:10.413Z</time></trkpt><trkpt lat="40.6821353" lon="14.6925563"><ele>379.85714285714283</ele><time>2026-03-27T08:51:16.413Z</time></trkpt><trkpt lat="40.6821959" lon="14.6926135"><ele>378.28571428571433</ele><time>2026-03-27T08:51:24.413Z</time></trkpt><trkpt lat="40.6822322" lon="14.6926885"><ele>376.7142857142857</ele><time>2026-03-27T08:51:30.413Z</time></trkpt><trkpt lat="40.6822839" lon="14.6927582"><ele>375.14285714285717</ele><time>2026-03-27T08:51:37.413Z</time></trkpt><trkpt lat="40.6823311" lon="14.6928175"><ele>373.5714285714286</ele><time>2026-03-27T08:51:45.413Z</time></trkpt><trkpt lat="40.6823719" lon="14.6928845"><ele>372.0</ele><time>2026-03-27T08:51:52.413Z</time></trkpt><trkpt lat="40.6824009" lon="14.69296"><ele>369.5714285714286</ele><time>2026-03-27T08:51:59.413Z</time></trkpt><trkpt lat="40.6824377" lon="14.6930409"><ele>367.14285714285717</ele><time>2026-03-27T08:52:05.413Z</time></trkpt><trkpt lat="40.6824726" lon="14.6931188"><ele>364.7142857142857</ele><time>2026-03-27T08:52:11.413Z</time></trkpt><trkpt lat="40.6824946" lon="14.6932046"><ele>362.28571428571433</ele><time>2026-03-27T08:52:19.413Z</time></trkpt><trkpt lat="40.6825073" lon="14.6932951"><ele>359.8571428571429</ele><time>2026-03-27T08:52:26.413Z</time></trkpt><trkpt lat="40.6825396" lon="14.6933715"><ele>357.42857142857144</ele><time>2026-03-27T08:52:33.413Z</time></trkpt><trkpt lat="40.6825923" lon="14.6934458"><ele>355.0</ele><time>2026-03-27T08:52:40.413Z</time></trkpt><trkpt lat="40.6826055" lon="14.6935423"><ele>355.0</ele><time>2026-03-27T08:52:45.413Z</time></trkpt><trkpt lat="40.6826277" lon="14.6936323"><ele>355.0</ele><time>2026-03-27T08:52:50.413Z</time></trkpt><trkpt lat="40.6826711" lon="14.6936976"><ele>355.0</ele><time>2026-03-27T08:52:55.413Z</time></trkpt><trkpt lat="40.6827334" lon="14.693738"><ele>355.0</ele><time>2026-03-27T08:53:01.413Z</time></trkpt><trkpt lat="40.6827982" lon="14.6937462"><ele>355.0</ele><time>2026-03-27T08:53:08.413Z</time></trkpt><trkpt lat="40.6828637" lon="14.6937512"><ele>355.0</ele><time>2026-03-27T08:53:14.413Z</time></trkpt><trkpt lat="40.682925" lon="14.6937182"><ele>355.0</ele><time>2026-03-27T08:53:22.413Z</time></trkpt><trkpt lat="40.6829932" lon="14.6936694"><ele>355.0</ele><time>2026-03-27T08:53:28.413Z</time></trkpt><trkpt lat="40.6830465" lon="14.6936186"><ele>355.0</ele><time>2026-03-27T08:53:34.413Z</time></trkpt><trkpt lat="40.6830917" lon="14.6935522"><ele>355.0</ele><time>2026-03-27T08:53:45.413Z</time></trkpt><trkpt lat="40.683137" lon="14.693493"><ele>355.0</ele><time>2026-03-27T08:53:52.414Z</time></trkpt><trkpt lat="40.683174" lon="14.6934238"><ele>355.0</ele><time>2026-03-27T08:53:59.413Z</time></trkpt><trkpt lat="40.6832324" lon="14.693315"><ele>355.0</ele><time>2026-03-27T08:54:16.413Z</time></trkpt><trkpt lat="40.6832863" lon="14.6932651"><ele>355.0</ele><time>2026-03-27T08:54:22.413Z</time></trkpt><trkpt lat="40.6833453" lon="14.6932292"><ele>356.85714285714283</ele><time>2026-03-27T08:54:27.413Z</time></trkpt><trkpt lat="40.6833987" lon="14.693166"><ele>358.7142857142857</ele><time>2026-03-27T08:54:33.413Z</time></trkpt><trkpt lat="40.6834543" lon="14.6931212"><ele>360.57142857142856</ele><time>2026-03-27T08:54:38.413Z</time></trkpt><trkpt lat="40.6835239" lon="14.6930757"><ele>362.42857142857144</ele><time>2026-03-27T08:54:44.413Z</time></trkpt><trkpt lat="40.6835776" lon="14.693024"><ele>364.2857142857143</ele><time>2026-03-27T08:54:49.413Z</time></trkpt><trkpt lat="40.6836352" lon="14.6929777"><ele>366.14285714285717</ele><time>2026-03-27T08:54:55.414Z</time></trkpt><trkpt lat="40.6836868" lon="14.6929149"><ele>368.0</ele><time>2026-03-27T08:55:02.413Z</time></trkpt><trkpt lat="40.6837598" lon="14.6928782"><ele>370.14285714285717</ele><time>2026-03-27T08:55:07.413Z</time></trkpt><trkpt lat="40.6838256" lon="14.6928504"><ele>372.2857142857143</ele><time>2026-03-27T08:55:12.413Z</time></trkpt><trkpt lat="40.6838925" lon="14.6928717"><ele>374.42857142857144</ele><time>2026-03-27T08:55:17.413Z</time></trkpt><trkpt lat="40.6839501" lon="14.6929127"><ele>376.57142857142856</ele><time>2026-03-27T08:55:22.413Z</time></trkpt><trkpt lat="40.6839918" lon="14.6929749"><ele>378.71428571428567</ele><time>2026-03-27T08:55:26.413Z</time></trkpt><trkpt lat="40.6840074" lon="14.693066"><ele>380.85714285714283</ele><time>2026-03-27T08:55:31.413Z</time></trkpt><trkpt lat="40.6839734" lon="14.6931432"><ele>383.0</ele><time>2026-03-27T08:55:36.413Z</time></trkpt><trkpt lat="40.6839242" lon="14.6932164"><ele>383.0</ele><time>2026-03-27T08:55:42.413Z</time></trkpt><trkpt lat="40.6839038" lon="14.6932965"><ele>383.0</ele><time>2026-03-27T08:55:47.413Z</time></trkpt><trkpt lat="40.6838705" lon="14.6933707"><ele>383.0</ele><time>2026-03-27T08:55:52.413Z</time></trkpt><trkpt lat="40.6838279" lon="14.6934402"><ele>383.0</ele><time>2026-03-27T08:55:57.414Z</time></trkpt><trkpt lat="40.6838188" lon="14.6935226"><ele>383.0</ele><time>2026-03-27T08:56:02.413Z</time></trkpt><trkpt lat="40.6837948" lon="14.6936028"><ele>383.0</ele><time>2026-03-27T08:56:08.413Z</time></trkpt><trkpt lat="40.6837801" lon="14.6936868"><ele>383.0</ele><time>2026-03-27T08:56:14.413Z</time></trkpt><trkpt lat="40.6837713" lon="14.6937725"><ele>383.1428571428571</ele><time>2026-03-27T08:56:19.413Z</time></trkpt><trkpt lat="40.6837691" lon="14.6938645"><ele>383.2857142857143</ele><time>2026-03-27T08:56:25.413Z</time></trkpt><trkpt lat="40.6837727" lon="14.6939599"><ele>383.42857142857144</ele><time>2026-03-27T08:56:31.413Z</time></trkpt><trkpt lat="40.6838111" lon="14.6940469"><ele>383.57142857142856</ele><time>2026-03-27T08:56:36.413Z</time></trkpt><trkpt lat="40.6838381" lon="14.6941263"><ele>383.7142857142857</ele><time>2026-03-27T08:56:41.414Z</time></trkpt><trkpt lat="40.6838684" lon="14.6942092"><ele>383.85714285714283</ele><time>2026-03-27T08:56:47.413Z</time></trkpt><trkpt lat="40.6838845" lon="14.6943004"><ele>384.0</ele><time>2026-03-27T08:56:53.413Z</time></trkpt><trkpt lat="40.6839205" lon="14.6943717"><ele>382.4285714285714</ele><time>2026-03-27T08:56:58.413Z</time></trkpt><trkpt lat="40.6839529" lon="14.6944458"><ele>380.85714285714283</ele><time>2026-03-27T08:57:03.413Z</time></trkpt><trkpt lat="40.6839779" lon="14.6945346"><ele>379.2857142857143</ele><time>2026-03-27T08:57:09.413Z</time></trkpt><trkpt lat="40.6840144" lon="14.6946156"><ele>377.71428571428567</ele><time>2026-03-27T08:57:14.413Z</time></trkpt><trkpt lat="40.6840319" lon="14.6946983"><ele>376.14285714285717</ele><time>2026-03-27T08:57:20.413Z</time></trkpt><trkpt lat="40.684051" lon="14.6947874"><ele>374.57142857142856</ele><time>2026-03-27T08:57:27.413Z</time></trkpt><trkpt lat="40.6840566" lon="14.6948802"><ele>373.0</ele><time>2026-03-27T08:57:33.413Z</time></trkpt><trkpt lat="40.6840581" lon="14.6949745"><ele>373.0</ele><time>2026-03-27T08:57:39.413Z</time></trkpt><trkpt lat="40.6840421" lon="14.6950678"><ele>373.0</ele><time>2026-03-27T08:57:45.413Z</time></trkpt><trkpt lat="40.6840163" lon="14.6951467"><ele>373.0</ele><time>2026-03-27T08:57:50.413Z</time></trkpt><trkpt lat="40.6839909" lon="14.6952323"><ele>373.0</ele><time>2026-03-27T08:57:55.413Z</time></trkpt><trkpt lat="40.6839704" lon="14.6953131"><ele>373.0</ele><time>2026-03-27T08:58:01.413Z</time></trkpt><trkpt lat="40.6839638" lon="14.6953976"><ele>373.0</ele><time>2026-03-27T08:58:07.413Z</time></trkpt><trkpt lat="40.6839691" lon="14.695492"><ele>373.0</ele><time>2026-03-27T08:58:13.413Z</time></trkpt><trkpt lat="40.6839644" lon="14.6955798"><ele>371.7142857142857</ele><time>2026-03-27T08:58:19.413Z</time></trkpt><trkpt lat="40.6839371" lon="14.6956649"><ele>370.42857142857144</ele><time>2026-03-27T08:58:25.413Z</time></trkpt><trkpt lat="40.6839229" lon="14.6957521"><ele>369.1428571428571</ele><time>2026-03-27T08:58:31.413Z</time></trkpt><trkpt lat="40.6839111" lon="14.6958386"><ele>367.8571428571429</ele><time>2026-03-27T08:58:37.413Z</time></trkpt><trkpt lat="40.683903" lon="14.6959237"><ele>366.57142857142856</ele><time>2026-03-27T08:58:42.413Z</time></trkpt><trkpt lat="40.6839036" lon="14.6960145"><ele>365.2857142857143</ele><time>2026-03-27T08:58:47.413Z</time></trkpt><trkpt lat="40.6839169" lon="14.6961061"><ele>364.0</ele><time>2026-03-27T08:58:53.413Z</time></trkpt><trkpt lat="40.6839481" lon="14.6961799"><ele>362.42857142857144</ele><time>2026-03-27T08:58:58.413Z</time></trkpt><trkpt lat="40.6839655" lon="14.6962628"><ele>360.8571428571429</ele><time>2026-03-27T08:59:03.413Z</time></trkpt><trkpt lat="40.6839745" lon="14.6963462"><ele>359.2857142857143</ele><time>2026-03-27T08:59:09.414Z</time></trkpt><trkpt lat="40.6839972" lon="14.6964254"><ele>357.7142857142857</ele><time>2026-03-27T08:59:14.413Z</time></trkpt><trkpt lat="40.6840188" lon="14.6965188"><ele>356.14285714285717</ele><time>2026-03-27T08:59:20.413Z</time></trkpt><trkpt lat="40.6840296" lon="14.6966071"><ele>354.57142857142856</ele><time>2026-03-27T08:59:26.413Z</time></trkpt><trkpt lat="40.6840598" lon="14.6966838"><ele>353.0</ele><time>2026-03-27T08:59:32.413Z</time></trkpt><trkpt lat="40.6841116" lon="14.6967812"><ele>353.0</ele><time>2026-03-27T08:59:58.413Z</time></trkpt><trkpt lat="40.6841244" lon="14.6968715"><ele>353.0</ele><time>2026-03-27T09:00:02.413Z</time></trkpt><trkpt lat="40.6841338" lon="14.6969617"><ele>353.0</ele><time>2026-03-27T09:00:06.413Z</time></trkpt><trkpt lat="40.6841485" lon="14.6970572"><ele>353.0</ele><time>2026-03-27T09:00:12.413Z</time></trkpt><trkpt lat="40.6841614" lon="14.6971466"><ele>353.0</ele><time>2026-03-27T09:00:17.413Z</time></trkpt><trkpt lat="40.6841728" lon="14.6972319"><ele>353.0</ele><time>2026-03-27T09:00:22.413Z</time></trkpt><trkpt lat="40.6841631" lon="14.6973264"><ele>353.0</ele><time>2026-03-27T09:00:34.413Z</time></trkpt><trkpt lat="40.68416" lon="14.6974095"><ele>351.1428571428571</ele><time>2026-03-27T09:00:39.413Z</time></trkpt><trkpt lat="40.6841726" lon="14.6975048"><ele>349.28571428571433</ele><time>2026-03-27T09:00:44.413Z</time></trkpt><trkpt lat="40.6841828" lon="14.6975914"><ele>347.42857142857144</ele><time>2026-03-27T09:00:49.413Z</time></trkpt><trkpt lat="40.6841685" lon="14.6976739"><ele>345.57142857142856</ele><time>2026-03-27T09:00:55.413Z</time></trkpt><trkpt lat="40.6841705" lon="14.6977617"><ele>343.71428571428567</ele><time>2026-03-27T09:01:01.414Z</time></trkpt><trkpt lat="40.6841692" lon="14.6978534"><ele>341.8571428571429</ele><time>2026-03-27T09:01:06.414Z</time></trkpt><trkpt lat="40.6841608" lon="14.697947"><ele>340.0</ele><time>2026-03-27T09:01:12.413Z</time></trkpt><trkpt lat="40.6841582" lon="14.6980429"><ele>338.5714285714286</ele><time>2026-03-27T09:01:19.413Z</time></trkpt><trkpt lat="40.6841476" lon="14.6981313"><ele>337.1428571428571</ele><time>2026-03-27T09:01:24.413Z</time></trkpt><trkpt lat="40.684156" lon="14.6982267"><ele>335.7142857142857</ele><time>2026-03-27T09:01:30.413Z</time></trkpt><trkpt lat="40.6841545" lon="14.6983217"><ele>334.28571428571433</ele><time>2026-03-27T09:01:36.413Z</time></trkpt><trkpt lat="40.684153" lon="14.6984126"><ele>332.8571428571429</ele><time>2026-03-27T09:01:41.413Z</time></trkpt><trkpt lat="40.6841626" lon="14.6985035"><ele>331.42857142857144</ele><time>2026-03-27T09:01:46.413Z</time></trkpt><trkpt lat="40.6841575" lon="14.6985912"><ele>330.0</ele><time>2026-03-27T09:01:51.413Z</time></trkpt><trkpt lat="40.6841523" lon="14.698688"><ele>329.7142857142857</ele><time>2026-03-27T09:01:57.413Z</time></trkpt><trkpt lat="40.6841434" lon="14.6987776"><ele>329.42857142857144</ele><time>2026-03-27T09:02:02.413Z</time></trkpt><trkpt lat="40.6841308" lon="14.6988722"><ele>329.1428571428571</ele><time>2026-03-27T09:02:08.413Z</time></trkpt><trkpt lat="40.6841159" lon="14.6989641"><ele>328.8571428571429</ele><time>2026-03-27T09:02:16.413Z</time></trkpt><trkpt lat="40.6841088" lon="14.6990636"><ele>328.57142857142856</ele><time>2026-03-27T09:02:21.413Z</time></trkpt><trkpt lat="40.684107" lon="14.6991588"><ele>328.2857142857143</ele><time>2026-03-27T09:02:26.413Z</time></trkpt><trkpt lat="40.6841024" lon="14.6992444"><ele>328.0</ele><time>2026-03-27T09:02:30.413Z</time></trkpt><trkpt lat="40.6840814" lon="14.6993337"><ele>328.2857142857143</ele><time>2026-03-27T09:02:35.413Z</time></trkpt><trkpt lat="40.6840716" lon="14.6994197"><ele>328.57142857142856</ele><time>2026-03-27T09:02:40.414Z</time></trkpt><trkpt lat="40.6840688" lon="14.6995091"><ele>328.8571428571429</ele><time>2026-03-27T09:02:48.413Z</time></trkpt><trkpt lat="40.6840881" lon="14.6995969"><ele>329.1428571428571</ele><time>2026-03-27T09:02:53.413Z</time></trkpt><trkpt lat="40.6841134" lon="14.6996894"><ele>329.42857142857144</ele><time>2026-03-27T09:02:58.413Z</time></trkpt><trkpt lat="40.6841183" lon="14.6997729"><ele>329.7142857142857</ele><time>2026-03-27T09:03:03.413Z</time></trkpt><trkpt lat="40.6841133" lon="14.699864"><ele>330.0</ele><time>2026-03-27T09:03:08.413Z</time></trkpt><trkpt lat="40.6841157" lon="14.699958"><ele>330.00000000000006</ele><time>2026-03-27T09:03:14.413Z</time></trkpt><trkpt lat="40.6841461" lon="14.7000419"><ele>330.0</ele><time>2026-03-27T09:03:20.413Z</time></trkpt><trkpt lat="40.6841932" lon="14.7001066"><ele>330.0</ele><time>2026-03-27T09:03:25.413Z</time></trkpt><trkpt lat="40.6842551" lon="14.7001644"><ele>330.0</ele><time>2026-03-27T09:03:30.413Z</time></trkpt><trkpt lat="40.6843088" lon="14.7002371"><ele>330.0</ele><time>2026-03-27T09:03:35.413Z</time></trkpt><trkpt lat="40.684363" lon="14.7002916"><ele>330.00000000000006</ele><time>2026-03-27T09:03:40.413Z</time></trkpt><trkpt lat="40.6844129" lon="14.70035"><ele>330.0</ele><time>2026-03-27T09:03:45.413Z</time></trkpt><trkpt lat="40.6844583" lon="14.7004166"><ele>328.28571428571433</ele><time>2026-03-27T09:03:54.413Z</time></trkpt><trkpt lat="40.684511" lon="14.7004768"><ele>326.57142857142856</ele><time>2026-03-27T09:03:59.413Z</time></trkpt><trkpt lat="40.6845618" lon="14.7005295"><ele>324.8571428571429</ele><time>2026-03-27T09:04:05.414Z</time></trkpt><trkpt lat="40.6846156" lon="14.7005805"><ele>323.14285714285717</ele><time>2026-03-27T09:04:10.413Z</time></trkpt><trkpt lat="40.6846753" lon="14.7006198"><ele>321.42857142857144</ele><time>2026-03-27T09:04:20.413Z</time></trkpt><trkpt lat="40.6847395" lon="14.7006203"><ele>319.7142857142857</ele><time>2026-03-27T09:04:26.413Z</time></trkpt><trkpt lat="40.6848117" lon="14.7006413"><ele>318.0</ele><time>2026-03-27T09:04:31.414Z</time></trkpt><trkpt lat="40.6848779" lon="14.7006628"><ele>318.0</ele><time>2026-03-27T09:04:35.413Z</time></trkpt><trkpt lat="40.6849389" lon="14.7007066"><ele>318.0</ele><time>2026-03-27T09:04:39.413Z</time></trkpt><trkpt lat="40.6849931" lon="14.700783"><ele>318.0</ele><time>2026-03-27T09:04:43.413Z</time></trkpt><trkpt lat="40.6850516" lon="14.7008439"><ele>318.0</ele><time>2026-03-27T09:04:48.413Z</time></trkpt><trkpt lat="40.6851177" lon="14.7009019"><ele>318.0</ele><time>2026-03-27T09:04:52.413Z</time></trkpt><trkpt lat="40.6851829" lon="14.7009574"><ele>318.0</ele><time>2026-03-27T09:04:57.413Z</time></trkpt><trkpt lat="40.6852438" lon="14.7010271"><ele>316.57142857142856</ele><time>2026-03-27T09:05:02.414Z</time></trkpt><trkpt lat="40.6852997" lon="14.7010923"><ele>315.14285714285717</ele><time>2026-03-27T09:05:07.413Z</time></trkpt><trkpt lat="40.6853357" lon="14.701171"><ele>313.7142857142857</ele><time>2026-03-27T09:05:12.413Z</time></trkpt><trkpt lat="40.6853591" lon="14.7012484"><ele>312.2857142857143</ele><time>2026-03-27T09:05:17.413Z</time></trkpt><trkpt lat="40.6853731" lon="14.7013297"><ele>310.8571428571429</ele><time>2026-03-27T09:05:23.413Z</time></trkpt><trkpt lat="40.6853985" lon="14.7014215"><ele>309.42857142857144</ele><time>2026-03-27T09:05:29.413Z</time></trkpt><trkpt lat="40.6854185" lon="14.7015076"><ele>308.0</ele><time>2026-03-27T09:05:35.413Z</time></trkpt><trkpt lat="40.6854721" lon="14.7015574"><ele>308.0</ele><time>2026-03-27T09:05:42.413Z</time></trkpt><trkpt lat="40.6855028" lon="14.7016299"><ele>308.0</ele><time>2026-03-27T09:05:47.414Z</time></trkpt><trkpt lat="40.6855405" lon="14.7017164"><ele>308.0</ele><time>2026-03-27T09:05:52.413Z</time></trkpt><trkpt lat="40.6855513" lon="14.7018205"><ele>308.0</ele><time>2026-03-27T09:05:56.413Z</time></trkpt><trkpt lat="40.6855487" lon="14.701912"><ele>308.0</ele><time>2026-03-27T09:06:01.413Z</time></trkpt><trkpt lat="40.6856129" lon="14.7020305"><ele>308.0</ele><time>2026-03-27T09:06:21.413Z</time></trkpt><trkpt lat="40.6856385" lon="14.7021112"><ele>306.85714285714283</ele><time>2026-03-27T09:06:26.413Z</time></trkpt><trkpt lat="40.6856674" lon="14.7021979"><ele>305.7142857142857</ele><time>2026-03-27T09:06:32.414Z</time></trkpt><trkpt lat="40.6856919" lon="14.7022758"><ele>304.57142857142856</ele><time>2026-03-27T09:06:39.413Z</time></trkpt><trkpt lat="40.685744" lon="14.7023426"><ele>303.42857142857144</ele><time>2026-03-27T09:06:53.413Z</time></trkpt><trkpt lat="40.6857836" lon="14.7024167"><ele>302.2857142857143</ele><time>2026-03-27T09:06:58.413Z</time></trkpt><trkpt lat="40.6858188" lon="14.7025043"><ele>301.1428571428571</ele><time>2026-03-27T09:07:31.413Z</time></trkpt><trkpt lat="40.6858648" lon="14.7025663"><ele>300.0</ele><time>2026-03-27T09:07:36.413Z</time></trkpt><trkpt lat="40.6859241" lon="14.7026195"><ele>299.99999999999994</ele><time>2026-03-27T09:07:42.413Z</time></trkpt><trkpt lat="40.6859842" lon="14.7026697"><ele>300.0</ele><time>2026-03-27T09:07:50.413Z</time></trkpt><trkpt lat="40.6860448" lon="14.7027088"><ele>300.0</ele><time>2026-03-27T09:07:55.413Z</time></trkpt><trkpt lat="40.6861086" lon="14.7027648"><ele>300.0</ele><time>2026-03-27T09:08:00.413Z</time></trkpt><trkpt lat="40.6861537" lon="14.7028327"><ele>300.0</ele><time>2026-03-27T09:08:05.413Z</time></trkpt><trkpt lat="40.6861842" lon="14.7029136"><ele>299.99999999999994</ele><time>2026-03-27T09:08:10.413Z</time></trkpt><trkpt lat="40.6861952" lon="14.7030035"><ele>300.0</ele><time>2026-03-27T09:08:15.413Z</time></trkpt><trkpt lat="40.6861971" lon="14.7030923"><ele>299.4285714285714</ele><time>2026-03-27T09:08:20.413Z</time></trkpt><trkpt lat="40.6862031" lon="14.703191"><ele>298.85714285714283</ele><time>2026-03-27T09:08:25.413Z</time></trkpt><trkpt lat="40.6862098" lon="14.7032846"><ele>298.2857142857143</ele><time>2026-03-27T09:08:32.413Z</time></trkpt><trkpt lat="40.6862163" lon="14.7033764"><ele>297.71428571428567</ele><time>2026-03-27T09:08:37.413Z</time></trkpt><trkpt lat="40.6862261" lon="14.7034767"><ele>297.1428571428571</ele><time>2026-03-27T09:08:42.413Z</time></trkpt><trkpt lat="40.6862381" lon="14.7035604"><ele>296.57142857142856</ele><time>2026-03-27T09:08:47.413Z</time></trkpt><trkpt lat="40.6862609" lon="14.7036484"><ele>296.0</ele><time>2026-03-27T09:08:53.413Z</time></trkpt><trkpt lat="40.686281" lon="14.7037273"><ele>295.14285714285717</ele><time>2026-03-27T09:08:57.413Z</time></trkpt><trkpt lat="40.6863096" lon="14.7038199"><ele>294.2857142857143</ele><time>2026-03-27T09:09:02.413Z</time></trkpt><trkpt lat="40.6863375" lon="14.7039096"><ele>293.42857142857144</ele><time>2026-03-27T09:09:08.413Z</time></trkpt><trkpt lat="40.6863641" lon="14.703995"><ele>292.57142857142856</ele><time>2026-03-27T09:09:13.413Z</time></trkpt><trkpt lat="40.6863939" lon="14.7040885"><ele>291.7142857142857</ele><time>2026-03-27T09:09:23.413Z</time></trkpt><trkpt lat="40.6864204" lon="14.7041652"><ele>290.8571428571429</ele><time>2026-03-27T09:09:28.413Z</time></trkpt><trkpt lat="40.6864557" lon="14.7042593"><ele>290.0</ele><time>2026-03-27T09:09:34.413Z</time></trkpt><trkpt lat="40.6864901" lon="14.7043362"><ele>288.57142857142856</ele><time>2026-03-27T09:09:39.413Z</time></trkpt><trkpt lat="40.686526" lon="14.7044186"><ele>287.14285714285717</ele><time>2026-03-27T09:09:43.413Z</time></trkpt><trkpt lat="40.6865642" lon="14.7045044"><ele>285.7142857142857</ele><time>2026-03-27T09:09:46.413Z</time></trkpt><trkpt lat="40.6866384" lon="14.7045412"><ele>284.2857142857143</ele><time>2026-03-27T09:09:50.413Z</time></trkpt><trkpt lat="40.6867065" lon="14.7045905"><ele>282.8571428571429</ele><time>2026-03-27T09:09:53.413Z</time></trkpt><trkpt lat="40.6867654" lon="14.7046311"><ele>281.42857142857144</ele><time>2026-03-27T09:09:57.413Z</time></trkpt><trkpt lat="40.6868237" lon="14.7046711"><ele>280.0</ele><time>2026-03-27T09:10:01.413Z</time></trkpt><trkpt lat="40.6868858" lon="14.7047077"><ele>280.0</ele><time>2026-03-27T09:10:05.413Z</time></trkpt><trkpt lat="40.6869451" lon="14.7047498"><ele>280.0</ele><time>2026-03-27T09:10:13.413Z</time></trkpt><trkpt lat="40.6870123" lon="14.7047904"><ele>280.0</ele><time>2026-03-27T09:10:19.414Z</time></trkpt><trkpt lat="40.6870659" lon="14.7048549"><ele>280.0</ele><time>2026-03-27T09:10:25.413Z</time></trkpt><trkpt lat="40.6870442" lon="14.7049393"><ele>280.0</ele><time>2026-03-27T09:10:30.413Z</time></trkpt><trkpt lat="40.6869958" lon="14.7049983"><ele>280.0</ele><time>2026-03-27T09:10:35.413Z</time></trkpt><trkpt lat="40.6869433" lon="14.7050532"><ele>280.0</ele><time>2026-03-27T09:10:43.413Z</time></trkpt><trkpt lat="40.6868873" lon="14.7051077"><ele>280.0</ele><time>2026-03-27T09:10:48.413Z</time></trkpt><trkpt lat="40.6868365" lon="14.7051585"><ele>280.0</ele><time>2026-03-27T09:10:53.413Z</time></trkpt><trkpt lat="40.686781" lon="14.7052128"><ele>280.0</ele><time>2026-03-27T09:10:58.413Z</time></trkpt><trkpt lat="40.686736" lon="14.7052754"><ele>280.0</ele><time>2026-03-27T09:11:04.413Z</time></trkpt><trkpt lat="40.686675" lon="14.7053392"><ele>280.0</ele><time>2026-03-27T09:11:17.413Z</time></trkpt><trkpt lat="40.6866123" lon="14.7053771"><ele>280.0</ele><time>2026-03-27T09:11:20.413Z</time></trkpt><trkpt lat="40.6865509" lon="14.7054246"><ele>280.0</ele><time>2026-03-27T09:11:27.413Z</time></trkpt><trkpt lat="40.6864834" lon="14.7054864"><ele>278.57142857142856</ele><time>2026-03-27T09:11:31.413Z</time></trkpt><trkpt lat="40.686435" lon="14.7055406"><ele>277.1428571428571</ele><time>2026-03-27T09:11:36.413Z</time></trkpt><trkpt lat="40.6863838" lon="14.705601"><ele>275.7142857142857</ele><time>2026-03-27T09:11:42.413Z</time></trkpt><trkpt lat="40.6863144" lon="14.7056456"><ele>274.2857142857143</ele><time>2026-03-27T09:11:56.413Z</time></trkpt><trkpt lat="40.6862625" lon="14.7057142"><ele>272.85714285714283</ele><time>2026-03-27T09:12:03.413Z</time></trkpt><trkpt lat="40.6862136" lon="14.7057718"><ele>271.42857142857144</ele><time>2026-03-27T09:12:09.413Z</time></trkpt><trkpt lat="40.6861616" lon="14.7058344"><ele>270.0</ele><time>2026-03-27T09:12:15.413Z</time></trkpt><trkpt lat="40.6861229" lon="14.7059102"><ele>270.0</ele><time>2026-03-27T09:12:20.413Z</time></trkpt><trkpt lat="40.6861025" lon="14.7059971"><ele>270.0</ele><time>2026-03-27T09:12:27.413Z</time></trkpt><trkpt lat="40.6860907" lon="14.7060901"><ele>270.0</ele><time>2026-03-27T09:12:32.413Z</time></trkpt><trkpt lat="40.6860891" lon="14.7061773"><ele>270.0</ele><time>2026-03-27T09:12:36.413Z</time></trkpt><trkpt lat="40.6861057" lon="14.7062606"><ele>270.0</ele><time>2026-03-27T09:12:40.413Z</time></trkpt><trkpt lat="40.6861293" lon="14.7063411"><ele>270.0</ele><time>2026-03-27T09:12:44.413Z</time></trkpt><trkpt lat="40.686177" lon="14.7063991"><ele>270.0</ele><time>2026-03-27T09:12:49.413Z</time></trkpt><trkpt lat="40.6862185" lon="14.7064837"><ele>269.1428571428571</ele><time>2026-03-27T09:12:54.413Z</time></trkpt><trkpt lat="40.6862558" lon="14.7065617"><ele>268.2857142857143</ele><time>2026-03-27T09:12:59.413Z</time></trkpt><trkpt lat="40.6862921" lon="14.7066378"><ele>267.42857142857144</ele><time>2026-03-27T09:13:04.413Z</time></trkpt><trkpt lat="40.6863286" lon="14.7067153"><ele>266.57142857142856</ele><time>2026-03-27T09:13:08.414Z</time></trkpt><trkpt lat="40.6863649" lon="14.7067898"><ele>265.7142857142857</ele><time>2026-03-27T09:13:12.414Z</time></trkpt><trkpt lat="40.6864022" lon="14.7068641"><ele>264.85714285714283</ele><time>2026-03-27T09:13:17.414Z</time></trkpt><trkpt lat="40.6864452" lon="14.7069517"><ele>264.0</ele><time>2026-03-27T09:13:23.414Z</time></trkpt><trkpt lat="40.6864813" lon="14.7070209"><ele>262.42857142857144</ele><time>2026-03-27T09:13:27.414Z</time></trkpt><trkpt lat="40.6865186" lon="14.7070948"><ele>260.8571428571429</ele><time>2026-03-27T09:13:31.414Z</time></trkpt><trkpt lat="40.6865578" lon="14.707172"><ele>259.28571428571433</ele><time>2026-03-27T09:13:35.414Z</time></trkpt><trkpt lat="40.6865966" lon="14.7072474"><ele>257.7142857142857</ele><time>2026-03-27T09:13:40.414Z</time></trkpt><trkpt lat="40.686637" lon="14.7073279"><ele>256.14285714285717</ele><time>2026-03-27T09:13:45.414Z</time></trkpt><trkpt lat="40.6866755" lon="14.7074056"><ele>254.5714285714286</ele><time>2026-03-27T09:13:50.414Z</time></trkpt><trkpt lat="40.6867134" lon="14.7074855"><ele>253.00000000000003</ele><time>2026-03-27T09:13:54.414Z</time></trkpt><trkpt lat="40.6867525" lon="14.7075669"><ele>253.00000000000003</ele><time>2026-03-27T09:13:58.414Z</time></trkpt><trkpt lat="40.6867943" lon="14.7076554"><ele>253.0</ele><time>2026-03-27T09:14:05.414Z</time></trkpt><trkpt lat="40.6868373" lon="14.7077456"><ele>253.00000000000003</ele><time>2026-03-27T09:14:10.414Z</time></trkpt><trkpt lat="40.6868775" lon="14.7078263"><ele>253.00000000000003</ele><time>2026-03-27T09:14:16.414Z</time></trkpt><trkpt lat="40.6869132" lon="14.7078981"><ele>253.0</ele><time>2026-03-27T09:14:21.414Z</time></trkpt><trkpt lat="40.6869479" lon="14.7079679"><ele>253.00000000000003</ele><time>2026-03-27T09:14:25.414Z</time></trkpt><trkpt lat="40.6869889" lon="14.7080446"><ele>253.00000000000003</ele><time>2026-03-27T09:14:31.414Z</time></trkpt><trkpt lat="40.687034" lon="14.7081267"><ele>252.5714285714286</ele><time>2026-03-27T09:14:36.414Z</time></trkpt><trkpt lat="40.6870726" lon="14.7081955"><ele>252.14285714285717</ele><time>2026-03-27T09:14:40.414Z</time></trkpt><trkpt lat="40.6871217" lon="14.7082636"><ele>251.71428571428572</ele><time>2026-03-27T09:14:46.414Z</time></trkpt><trkpt lat="40.6871885" lon="14.7082604"><ele>251.2857142857143</ele><time>2026-03-27T09:14:52.414Z</time></trkpt><trkpt lat="40.6872643" lon="14.7082264"><ele>250.8571428571429</ele><time>2026-03-27T09:14:57.414Z</time></trkpt><trkpt lat="40.6873371" lon="14.7081886"><ele>250.42857142857142</ele><time>2026-03-27T09:15:02.414Z</time></trkpt><trkpt lat="40.6874015" lon="14.7081541"><ele>250.0</ele><time>2026-03-27T09:15:06.414Z</time></trkpt><trkpt lat="40.6874764" lon="14.708115"><ele>250.0</ele><time>2026-03-27T09:15:11.414Z</time></trkpt><trkpt lat="40.6875375" lon="14.7080818"><ele>250.0</ele><time>2026-03-27T09:15:15.415Z</time></trkpt><trkpt lat="40.6876074" lon="14.7080472"><ele>250.0</ele><time>2026-03-27T09:15:21.414Z</time></trkpt><trkpt lat="40.6876693" lon="14.708022"><ele>250.0</ele><time>2026-03-27T09:15:27.414Z</time></trkpt><trkpt lat="40.6877351" lon="14.7080164"><ele>250.0</ele><time>2026-03-27T09:15:31.414Z</time></trkpt><trkpt lat="40.6878187" lon="14.7080212"><ele>250.0</ele><time>2026-03-27T09:15:35.414Z</time></trkpt><trkpt lat="40.6878849" lon="14.7080298"><ele>250.0</ele><time>2026-03-27T09:15:38.414Z</time></trkpt><trkpt lat="40.6879567" lon="14.7080462"><ele>249.14285714285714</ele><time>2026-03-27T09:15:43.414Z</time></trkpt><trkpt lat="40.688021" lon="14.7080633"><ele>248.28571428571428</ele><time>2026-03-27T09:15:47.414Z</time></trkpt><trkpt lat="40.6880878" lon="14.708083"><ele>247.42857142857142</ele><time>2026-03-27T09:15:53.414Z</time></trkpt><trkpt lat="40.6881519" lon="14.7080967"><ele>246.57142857142856</ele><time>2026-03-27T09:15:59.414Z</time></trkpt><trkpt lat="40.6882193" lon="14.708135"><ele>245.71428571428572</ele><time>2026-03-27T09:16:04.414Z</time></trkpt><trkpt lat="40.6882749" lon="14.7081859"><ele>244.85714285714283</ele><time>2026-03-27T09:16:08.414Z</time></trkpt><trkpt lat="40.6883351" lon="14.7082418"><ele>243.99999999999997</ele><time>2026-03-27T09:16:12.414Z</time></trkpt><trkpt lat="40.6883905" lon="14.7083106"><ele>243.99999999999997</ele><time>2026-03-27T09:16:15.414Z</time></trkpt><trkpt lat="40.6884373" lon="14.7083691"><ele>244.0</ele><time>2026-03-27T09:16:18.414Z</time></trkpt><trkpt lat="40.6884937" lon="14.7084431"><ele>243.99999999999997</ele><time>2026-03-27T09:16:23.414Z</time></trkpt><trkpt lat="40.68854" lon="14.7085098"><ele>243.99999999999997</ele><time>2026-03-27T09:16:28.414Z</time></trkpt><trkpt lat="40.6885877" lon="14.708584"><ele>244.0</ele><time>2026-03-27T09:16:34.414Z</time></trkpt><trkpt lat="40.6886364" lon="14.708656"><ele>243.99999999999997</ele><time>2026-03-27T09:16:41.414Z</time></trkpt><trkpt lat="40.6886795" lon="14.7087192"><ele>243.99999999999997</ele><time>2026-03-27T09:16:46.414Z</time></trkpt><trkpt lat="40.6887252" lon="14.7087812"><ele>242.57142857142856</ele><time>2026-03-27T09:16:52.414Z</time></trkpt><trkpt lat="40.6887769" lon="14.7088518"><ele>241.14285714285714</ele><time>2026-03-27T09:16:57.414Z</time></trkpt><trkpt lat="40.6888245" lon="14.7089147"><ele>239.71428571428572</ele><time>2026-03-27T09:17:01.414Z</time></trkpt><trkpt lat="40.6888733" lon="14.7089785"><ele>238.28571428571428</ele><time>2026-03-27T09:17:09.414Z</time></trkpt><trkpt lat="40.6889075" lon="14.7090579"><ele>236.8571428571429</ele><time>2026-03-27T09:17:21.414Z</time></trkpt><trkpt lat="40.6889475" lon="14.7091376"><ele>235.42857142857144</ele><time>2026-03-27T09:17:27.414Z</time></trkpt><trkpt lat="40.6889742" lon="14.7092241"><ele>234.0</ele><time>2026-03-27T09:17:32.414Z</time></trkpt><trkpt lat="40.6889978" lon="14.7093134"><ele>234.0</ele><time>2026-03-27T09:17:37.414Z</time></trkpt><trkpt lat="40.6890182" lon="14.7093945"><ele>234.00000000000003</ele><time>2026-03-27T09:17:42.414Z</time></trkpt><trkpt lat="40.6890375" lon="14.7094737"><ele>234.0</ele><time>2026-03-27T09:17:49.415Z</time></trkpt><trkpt lat="40.6890579" lon="14.709565"><ele>234.0</ele><time>2026-03-27T09:17:55.414Z</time></trkpt><trkpt lat="40.6890803" lon="14.7096736"><ele>234.00000000000003</ele><time>2026-03-27T09:18:20.414Z</time></trkpt><trkpt lat="40.6890984" lon="14.7097574"><ele>234.0</ele><time>2026-03-27T09:18:25.414Z</time></trkpt><trkpt lat="40.6891212" lon="14.7098581"><ele>234.0</ele><time>2026-03-27T09:18:30.414Z</time></trkpt><trkpt lat="40.6891391" lon="14.7099417"><ele>233.57142857142858</ele><time>2026-03-27T09:18:36.414Z</time></trkpt><trkpt lat="40.689156" lon="14.710027"><ele>233.14285714285717</ele><time>2026-03-27T09:18:50.414Z</time></trkpt><trkpt lat="40.6891784" lon="14.710121"><ele>232.71428571428572</ele><time>2026-03-27T09:18:55.414Z</time></trkpt><trkpt lat="40.6892015" lon="14.7102076"><ele>232.28571428571428</ele><time>2026-03-27T09:19:01.415Z</time></trkpt><trkpt lat="40.6892314" lon="14.7102861"><ele>231.85714285714286</ele><time>2026-03-27T09:19:07.414Z</time></trkpt><trkpt lat="40.6892987" lon="14.7102567"><ele>231.42857142857144</ele><time>2026-03-27T09:19:12.414Z</time></trkpt><trkpt lat="40.6893649" lon="14.7102041"><ele>231.0</ele><time>2026-03-27T09:19:16.414Z</time></trkpt><trkpt lat="40.68942" lon="14.7101508"><ele>230.0</ele><time>2026-03-27T09:19:20.414Z</time></trkpt><trkpt lat="40.6894765" lon="14.7101072"><ele>229.0</ele><time>2026-03-27T09:19:25.414Z</time></trkpt><trkpt lat="40.6896226" lon="14.7100841"><ele>228.0</ele><time>2026-03-27T09:19:53.414Z</time></trkpt><trkpt lat="40.6896442" lon="14.7101785"><ele>227.0</ele><time>2026-03-27T09:19:58.414Z</time></trkpt><trkpt lat="40.6897059" lon="14.7102025"><ele>226.0</ele><time>2026-03-27T09:20:00.414Z</time></trkpt><trkpt lat="40.6897767" lon="14.7102133"><ele>225.0</ele><time>2026-03-27T09:20:02.414Z</time></trkpt><trkpt lat="40.6898537" lon="14.7102391"><ele>224.5714285714286</ele><time>2026-03-27T09:20:06.414Z</time></trkpt><trkpt lat="40.6899159" lon="14.7102847"><ele>224.14285714285717</ele><time>2026-03-27T09:20:10.414Z</time></trkpt><trkpt lat="40.6899745" lon="14.7103269"><ele>223.71428571428572</ele><time>2026-03-27T09:20:13.414Z</time></trkpt><trkpt lat="40.6900441" lon="14.7103751"><ele>223.2857142857143</ele><time>2026-03-27T09:20:16.414Z</time></trkpt><trkpt lat="40.6901007" lon="14.7104123"><ele>222.8571428571429</ele><time>2026-03-27T09:20:20.414Z</time></trkpt><trkpt lat="40.6901653" lon="14.7104477"><ele>222.42857142857142</ele><time>2026-03-27T09:20:32.414Z</time></trkpt><trkpt lat="40.6902252" lon="14.7104873"><ele>222.0</ele><time>2026-03-27T09:20:37.414Z</time></trkpt><trkpt lat="40.6902901" lon="14.7105366"><ele>220.57142857142856</ele><time>2026-03-27T09:20:42.414Z</time></trkpt><trkpt lat="40.6903547" lon="14.7105903"><ele>219.14285714285717</ele><time>2026-03-27T09:20:47.414Z</time></trkpt><trkpt lat="40.6904116" lon="14.71064"><ele>217.71428571428572</ele><time>2026-03-27T09:20:52.414Z</time></trkpt><trkpt lat="40.6904725" lon="14.7106915"><ele>216.28571428571428</ele><time>2026-03-27T09:20:58.415Z</time></trkpt><trkpt lat="40.6905313" lon="14.7107416"><ele>214.85714285714283</ele><time>2026-03-27T09:21:03.414Z</time></trkpt><trkpt lat="40.6905863" lon="14.7107881"><ele>213.42857142857144</ele><time>2026-03-27T09:21:07.414Z</time></trkpt><trkpt lat="40.6906473" lon="14.7108399"><ele>212.0</ele><time>2026-03-27T09:21:12.414Z</time></trkpt><trkpt lat="40.6907184" lon="14.7109019"><ele>212.0</ele><time>2026-03-27T09:21:16.414Z</time></trkpt><trkpt lat="40.6907749" lon="14.7109496"><ele>212.0</ele><time>2026-03-27T09:21:19.414Z</time></trkpt><trkpt lat="40.6908321" lon="14.7109981"><ele>212.0</ele><time>2026-03-27T09:21:28.414Z</time></trkpt><trkpt lat="40.690891" lon="14.7110483"><ele>212.0</ele><time>2026-03-27T09:21:34.414Z</time></trkpt><trkpt lat="40.690953" lon="14.7111016"><ele>212.0</ele><time>2026-03-27T09:21:38.414Z</time></trkpt><trkpt lat="40.6910107" lon="14.7111502"><ele>212.0</ele><time>2026-03-27T09:21:41.414Z</time></trkpt><trkpt lat="40.6910656" lon="14.7111976"><ele>212.0</ele><time>2026-03-27T09:21:46.414Z</time></trkpt><trkpt lat="40.6911268" lon="14.711249"><ele>211.42857142857144</ele><time>2026-03-27T09:21:51.414Z</time></trkpt><trkpt lat="40.6911843" lon="14.7113011"><ele>210.85714285714283</ele><time>2026-03-27T09:21:55.414Z</time></trkpt><trkpt lat="40.6912444" lon="14.7113614"><ele>210.28571428571428</ele><time>2026-03-27T09:22:01.414Z</time></trkpt><trkpt lat="40.6912943" lon="14.7114253"><ele>209.71428571428572</ele><time>2026-03-27T09:22:05.414Z</time></trkpt><trkpt lat="40.6913416" lon="14.7114949"><ele>209.14285714285717</ele><time>2026-03-27T09:22:10.414Z</time></trkpt><trkpt lat="40.6913886" lon="14.7115754"><ele>208.57142857142856</ele><time>2026-03-27T09:22:16.414Z</time></trkpt><trkpt lat="40.6914271" lon="14.7116421"><ele>208.0</ele><time>2026-03-27T09:22:20.414Z</time></trkpt><trkpt lat="40.6914673" lon="14.7117133"><ele>208.0</ele><time>2026-03-27T09:22:24.414Z</time></trkpt><trkpt lat="40.6915054" lon="14.7117809"><ele>208.0</ele><time>2026-03-27T09:22:28.414Z</time></trkpt><trkpt lat="40.6915702" lon="14.7117498"><ele>208.0</ele><time>2026-03-27T09:22:37.414Z</time></trkpt><trkpt lat="40.6916378" lon="14.7117298"><ele>208.0</ele><time>2026-03-27T09:22:42.414Z</time></trkpt><trkpt lat="40.6917017" lon="14.7117032"><ele>208.0</ele><time>2026-03-27T09:22:47.414Z</time></trkpt><trkpt lat="40.6917655" lon="14.7116669"><ele>208.0</ele><time>2026-03-27T09:22:54.414Z</time></trkpt><trkpt lat="40.6918235" lon="14.7116339"><ele>208.0</ele><time>2026-03-27T09:23:01.414Z</time></trkpt><trkpt lat="40.6918761" lon="14.7115873"><ele>205.57142857142856</ele><time>2026-03-27T09:23:08.414Z</time></trkpt><trkpt lat="40.6919299" lon="14.7115363"><ele>203.14285714285717</ele><time>2026-03-27T09:23:12.414Z</time></trkpt><trkpt lat="40.6919892" lon="14.7114775"><ele>200.71428571428572</ele><time>2026-03-27T09:23:16.415Z</time></trkpt><trkpt lat="40.692044" lon="14.7114228"><ele>198.28571428571428</ele><time>2026-03-27T09:23:20.414Z</time></trkpt><trkpt lat="40.6920997" lon="14.7113699"><ele>195.85714285714283</ele><time>2026-03-27T09:23:24.414Z</time></trkpt><trkpt lat="40.6921556" lon="14.7113173"><ele>193.42857142857144</ele><time>2026-03-27T09:23:29.414Z</time></trkpt><trkpt lat="40.6922165" lon="14.7112691"><ele>191.0</ele><time>2026-03-27T09:23:36.414Z</time></trkpt><trkpt lat="40.6922722" lon="14.7112218"><ele>191.0</ele><time>2026-03-27T09:23:40.414Z</time></trkpt><trkpt lat="40.6923381" lon="14.7112013"><ele>191.0</ele><time>2026-03-27T09:23:43.414Z</time></trkpt><trkpt lat="40.6924199" lon="14.7111888"><ele>191.0</ele><time>2026-03-27T09:23:47.414Z</time></trkpt><trkpt lat="40.6924951" lon="14.7111832"><ele>191.0</ele><time>2026-03-27T09:23:52.414Z</time></trkpt><trkpt lat="40.6925731" lon="14.7111863"><ele>191.0</ele><time>2026-03-27T09:23:56.414Z</time></trkpt><trkpt lat="40.6926411" lon="14.7111913"><ele>191.0</ele><time>2026-03-27T09:24:01.414Z</time></trkpt><trkpt lat="40.6927198" lon="14.7111963"><ele>187.66666666666666</ele><time>2026-03-27T09:24:07.415Z</time></trkpt><trkpt lat="40.6927945" lon="14.7112012"><ele>184.33333333333331</ele><time>2026-03-27T09:24:11.415Z</time></trkpt><trkpt lat="40.6928752" lon="14.7112047"><ele>181.0</ele><time>2026-03-27T09:24:15.414Z</time></trkpt><trkpt lat="40.6929385" lon="14.7112383"><ele>177.66666666666666</ele><time>2026-03-27T09:24:21.414Z</time></trkpt><trkpt lat="40.6930051" lon="14.7112381"><ele>174.33333333333334</ele><time>2026-03-27T09:24:25.414Z</time></trkpt><trkpt lat="40.6930694" lon="14.7112329"><ele>171.0</ele><time>2026-03-27T09:24:30.414Z</time></trkpt><trkpt lat="40.6931848" lon="14.7112913"><ele>170.99999999999997</ele><time>2026-03-27T09:28:48.414Z</time></trkpt><trkpt lat="40.6932404" lon="14.7113675"><ele>171.0</ele><time>2026-03-27T09:28:52.414Z</time></trkpt><trkpt lat="40.6932944" lon="14.7114271"><ele>171.0</ele><time>2026-03-27T09:28:58.414Z</time></trkpt><trkpt lat="40.6933719" lon="14.7114176"><ele>171.0</ele><time>2026-03-27T09:29:05.414Z</time></trkpt><trkpt lat="40.6934478" lon="14.7113947"><ele>171.0</ele><time>2026-03-27T09:29:11.414Z</time></trkpt><trkpt lat="40.6935118" lon="14.7113746"><ele>170.99999999999997</ele><time>2026-03-27T09:29:16.414Z</time></trkpt><trkpt lat="40.6935767" lon="14.7113544"><ele>171.0</ele><time>2026-03-27T09:29:21.414Z</time></trkpt><trkpt lat="40.6936549" lon="14.7113288"><ele>169.57142857142856</ele><time>2026-03-27T09:29:27.414Z</time></trkpt><trkpt lat="40.6937251" lon="14.711309"><ele>168.14285714285714</ele><time>2026-03-27T09:29:32.414Z</time></trkpt><trkpt lat="40.6937878" lon="14.7112907"><ele>166.71428571428572</ele><time>2026-03-27T09:29:38.414Z</time></trkpt><trkpt lat="40.6938547" lon="14.7112724"><ele>165.28571428571428</ele><time>2026-03-27T09:29:42.414Z</time></trkpt><trkpt lat="40.6939291" lon="14.7112518"><ele>163.85714285714286</ele><time>2026-03-27T09:29:49.414Z</time></trkpt><trkpt lat="40.694006" lon="14.711229"><ele>162.42857142857142</ele><time>2026-03-27T09:29:55.414Z</time></trkpt><trkpt lat="40.6940727" lon="14.711211"><ele>161.0</ele><time>2026-03-27T09:30:01.414Z</time></trkpt><trkpt lat="40.6941391" lon="14.711192"><ele>161.0</ele><time>2026-03-27T09:30:06.414Z</time></trkpt><trkpt lat="40.6942013" lon="14.7111751"><ele>161.0</ele><time>2026-03-27T09:30:11.414Z</time></trkpt><trkpt lat="40.6942739" lon="14.7111556"><ele>161.0</ele><time>2026-03-27T09:30:17.414Z</time></trkpt><trkpt lat="40.6943429" lon="14.7111354"><ele>161.0</ele><time>2026-03-27T09:30:23.414Z</time></trkpt><trkpt lat="40.6944075" lon="14.7111184"><ele>161.0</ele><time>2026-03-27T09:30:29.414Z</time></trkpt><trkpt lat="40.6944737" lon="14.7110985"><ele>161.0</ele><time>2026-03-27T09:30:34.414Z</time></trkpt><trkpt lat="40.694538" lon="14.7110817"><ele>161.0</ele><time>2026-03-27T09:30:39.414Z</time></trkpt><trkpt lat="40.6946138" lon="14.7110602"><ele>164.57142857142858</ele><time>2026-03-27T09:30:44.414Z</time></trkpt><trkpt lat="40.6946765" lon="14.7110423"><ele>168.14285714285714</ele><time>2026-03-27T09:30:48.414Z</time></trkpt><trkpt lat="40.6947413" lon="14.711025"><ele>171.71428571428572</ele><time>2026-03-27T09:30:53.414Z</time></trkpt><trkpt lat="40.6948041" lon="14.7110075"><ele>175.28571428571428</ele><time>2026-03-27T09:31:00.414Z</time></trkpt><trkpt lat="40.6948693" lon="14.7109874"><ele>178.85714285714286</ele><time>2026-03-27T09:31:10.414Z</time></trkpt><trkpt lat="40.6949428" lon="14.7109656"><ele>182.42857142857144</ele><time>2026-03-27T09:31:16.414Z</time></trkpt><trkpt lat="40.6950108" lon="14.7109442"><ele>186.0</ele><time>2026-03-27T09:31:24.414Z</time></trkpt><trkpt lat="40.6950856" lon="14.7109214"><ele>186.00000000000003</ele><time>2026-03-27T09:31:31.414Z</time></trkpt><trkpt lat="40.6951547" lon="14.7109008"><ele>186.0</ele><time>2026-03-27T09:31:36.415Z</time></trkpt><trkpt lat="40.6952203" lon="14.7108818"><ele>186.0</ele><time>2026-03-27T09:31:41.415Z</time></trkpt><trkpt lat="40.6952833" lon="14.7108797"><ele>186.0</ele><time>2026-03-27T09:31:47.414Z</time></trkpt><trkpt lat="40.6953457" lon="14.710862"><ele>186.0</ele><time>2026-03-27T09:31:50.414Z</time></trkpt><trkpt lat="40.6954212" lon="14.7108412"><ele>186.00000000000003</ele><time>2026-03-27T09:31:54.414Z</time></trkpt><trkpt lat="40.6954874" lon="14.7108225"><ele>186.0</ele><time>2026-03-27T09:31:59.414Z</time></trkpt><trkpt lat="40.6955618" lon="14.7108363"><ele>186.57142857142858</ele><time>2026-03-27T09:32:05.415Z</time></trkpt><trkpt lat="40.6956226" lon="14.7108668"><ele>187.14285714285714</ele><time>2026-03-27T09:32:10.415Z</time></trkpt><trkpt lat="40.6956916" lon="14.7108301"><ele>187.71428571428572</ele><time>2026-03-27T09:32:15.415Z</time></trkpt><trkpt lat="40.6957568" lon="14.7107878"><ele>188.28571428571428</ele><time>2026-03-27T09:32:20.415Z</time></trkpt><trkpt lat="40.6958189" lon="14.7108326"><ele>188.85714285714286</ele><time>2026-03-27T09:32:27.415Z</time></trkpt><trkpt lat="40.6958342" lon="14.7109141"><ele>189.42857142857144</ele><time>2026-03-27T09:32:30.415Z</time></trkpt><trkpt lat="40.695834" lon="14.7110053"><ele>190.0</ele><time>2026-03-27T09:32:35.415Z</time></trkpt><trkpt lat="40.6958819" lon="14.7110617"><ele>190.0</ele><time>2026-03-27T09:32:41.415Z</time></trkpt><trkpt lat="40.6959349" lon="14.711117"><ele>190.0</ele><time>2026-03-27T09:32:47.415Z</time></trkpt><trkpt lat="40.6960114" lon="14.7111389"><ele>190.0</ele><time>2026-03-27T09:32:52.415Z</time></trkpt><trkpt lat="40.6961408" lon="14.7112379"><ele>190.0</ele><time>2026-03-27T09:33:04.415Z</time></trkpt><trkpt lat="40.6961854" lon="14.7112976"><ele>190.0</ele><time>2026-03-27T09:33:08.415Z</time></trkpt><trkpt lat="40.6962105" lon="14.7113811"><ele>190.0</ele><time>2026-03-27T09:33:12.415Z</time></trkpt><trkpt lat="40.6962474" lon="14.7114592"><ele>190.0</ele><time>2026-03-27T09:33:17.415Z</time></trkpt><trkpt lat="40.6962977" lon="14.711514"><ele>190.0</ele><time>2026-03-27T09:33:21.416Z</time></trkpt><trkpt lat="40.6963528" lon="14.7115677"><ele>190.0</ele><time>2026-03-27T09:33:29.415Z</time></trkpt><trkpt lat="40.6964128" lon="14.7115941"><ele>190.0</ele><time>2026-03-27T09:33:34.415Z</time></trkpt><trkpt lat="40.6964622" lon="14.7116587"><ele>190.0</ele><time>2026-03-27T09:33:39.415Z</time></trkpt><trkpt lat="40.6965032" lon="14.7117299"><ele>190.0</ele><time>2026-03-27T09:33:43.415Z</time></trkpt><trkpt lat="40.6965361" lon="14.7118235"><ele>190.0</ele><time>2026-03-27T09:33:48.415Z</time></trkpt><trkpt lat="40.6965596" lon="14.7119065"><ele>190.42857142857144</ele><time>2026-03-27T09:33:53.415Z</time></trkpt><trkpt lat="40.6965632" lon="14.7119932"><ele>190.85714285714286</ele><time>2026-03-27T09:33:58.415Z</time></trkpt><trkpt lat="40.6965982" lon="14.7120642"><ele>191.28571428571428</ele><time>2026-03-27T09:34:02.415Z</time></trkpt><trkpt lat="40.6966485" lon="14.7121412"><ele>191.71428571428572</ele><time>2026-03-27T09:34:07.415Z</time></trkpt><trkpt lat="40.6966864" lon="14.7122182"><ele>192.14285714285714</ele><time>2026-03-27T09:34:12.415Z</time></trkpt><trkpt lat="40.6967597" lon="14.7122255"><ele>192.57142857142858</ele><time>2026-03-27T09:34:17.415Z</time></trkpt><trkpt lat="40.6968184" lon="14.7121865"><ele>193.0</ele><time>2026-03-27T09:34:21.415Z</time></trkpt><trkpt lat="40.696882" lon="14.712183"><ele>193.00000000000003</ele><time>2026-03-27T09:34:25.415Z</time></trkpt><trkpt lat="40.696948" lon="14.7121333"><ele>193.0</ele><time>2026-03-27T09:34:30.415Z</time></trkpt><trkpt lat="40.6969965" lon="14.7120753"><ele>193.0</ele><time>2026-03-27T09:34:35.415Z</time></trkpt><trkpt lat="40.6970445" lon="14.7120188"><ele>193.0</ele><time>2026-03-27T09:34:41.415Z</time></trkpt><trkpt lat="40.697106" lon="14.7119802"><ele>193.0</ele><time>2026-03-27T09:34:46.415Z</time></trkpt><trkpt lat="40.6971666" lon="14.7119403"><ele>193.00000000000003</ele><time>2026-03-27T09:34:51.415Z</time></trkpt><trkpt lat="40.6972261" lon="14.7119021"><ele>193.0</ele><time>2026-03-27T09:34:56.415Z</time></trkpt><trkpt lat="40.6972911" lon="14.7118607"><ele>193.71428571428572</ele><time>2026-03-27T09:35:01.415Z</time></trkpt><trkpt lat="40.6973541" lon="14.7119233"><ele>194.42857142857144</ele><time>2026-03-27T09:35:09.415Z</time></trkpt><trkpt lat="40.6973904" lon="14.7120109"><ele>195.14285714285717</ele><time>2026-03-27T09:35:14.415Z</time></trkpt><trkpt lat="40.6973858" lon="14.7121097"><ele>195.85714285714286</ele><time>2026-03-27T09:35:20.415Z</time></trkpt><trkpt lat="40.6973847" lon="14.7121937"><ele>196.57142857142856</ele><time>2026-03-27T09:35:25.415Z</time></trkpt><trkpt lat="40.697428" lon="14.7122598"><ele>197.2857142857143</ele><time>2026-03-27T09:35:31.415Z</time></trkpt><trkpt lat="40.6974592" lon="14.7123324"><ele>198.0</ele><time>2026-03-27T09:35:35.415Z</time></trkpt><trkpt lat="40.6974992" lon="14.7124134"><ele>198.0</ele><time>2026-03-27T09:35:40.415Z</time></trkpt><trkpt lat="40.6975519" lon="14.7124664"><ele>198.0</ele><time>2026-03-27T09:35:47.415Z</time></trkpt><trkpt lat="40.6976163" lon="14.7124934"><ele>198.0</ele><time>2026-03-27T09:35:55.415Z</time></trkpt><trkpt lat="40.6976736" lon="14.7124368"><ele>198.0</ele><time>2026-03-27T09:36:01.415Z</time></trkpt><trkpt lat="40.6977781" lon="14.7123587"><ele>198.0</ele><time>2026-03-27T09:37:01.415Z</time></trkpt><trkpt lat="40.6977368" lon="14.7124339"><ele>198.0</ele><time>2026-03-27T09:38:33.415Z</time></trkpt><trkpt lat="40.6976808" lon="14.7124959"><ele>198.0</ele><time>2026-03-27T09:49:08.416Z</time></trkpt><trkpt lat="40.6976031" lon="14.7125164"><ele>198.0</ele><time>2026-03-27T09:52:04.417Z</time></trkpt><trkpt lat="40.6975675" lon="14.7124421"><ele>198.0</ele><time>2026-03-27T09:52:08.416Z</time></trkpt><trkpt lat="40.6975324" lon="14.7123696"><ele>198.0</ele><time>2026-03-27T09:52:13.416Z</time></trkpt><trkpt lat="40.6974974" lon="14.7122943"><ele>198.0</ele><time>2026-03-27T09:52:20.416Z</time></trkpt><trkpt lat="40.697456" lon="14.7122257"><ele>198.0</ele><time>2026-03-27T09:52:30.416Z</time></trkpt><trkpt lat="40.6974189" lon="14.7121525"><ele>198.0</ele><time>2026-03-27T09:52:35.416Z</time></trkpt><trkpt lat="40.6973838" lon="14.7120735"><ele>198.0</ele><time>2026-03-27T09:52:41.416Z</time></trkpt><trkpt lat="40.6973441" lon="14.7120031"><ele>198.0</ele><time>2026-03-27T09:52:48.416Z</time></trkpt><trkpt lat="40.6973648" lon="14.7119228"><ele>198.0</ele><time>2026-03-27T09:52:55.416Z</time></trkpt><trkpt lat="40.6973988" lon="14.7118327"><ele>198.0</ele><time>2026-03-27T09:53:22.417Z</time></trkpt><trkpt lat="40.697474" lon="14.7118237"><ele>198.0</ele><time>2026-03-27T09:54:19.416Z</time></trkpt><trkpt lat="40.6974943" lon="14.7116872"><ele>198.0</ele><time>2026-03-27T09:55:10.417Z</time></trkpt><trkpt lat="40.6975098" lon="14.7116025"><ele>197.2857142857143</ele><time>2026-03-27T09:55:16.416Z</time></trkpt><trkpt lat="40.6974412" lon="14.7116052"><ele>196.57142857142856</ele><time>2026-03-27T09:56:26.416Z</time></trkpt><trkpt lat="40.6973739" lon="14.7116463"><ele>195.85714285714286</ele><time>2026-03-27T09:56:32.416Z</time></trkpt><trkpt lat="40.697311" lon="14.7116636"><ele>195.14285714285717</ele><time>2026-03-27T09:56:37.416Z</time></trkpt><trkpt lat="40.6972457" lon="14.7116947"><ele>194.42857142857144</ele><time>2026-03-27T09:56:43.416Z</time></trkpt><trkpt lat="40.6971861" lon="14.7117244"><ele>193.71428571428572</ele><time>2026-03-27T09:56:49.416Z</time></trkpt><trkpt lat="40.6971201" lon="14.7117613"><ele>193.0</ele><time>2026-03-27T09:56:56.416Z</time></trkpt><trkpt lat="40.6970557" lon="14.7118013"><ele>192.99999999999997</ele><time>2026-03-27T09:57:03.416Z</time></trkpt><trkpt lat="40.6969882" lon="14.7118449"><ele>193.0</ele><time>2026-03-27T09:57:08.416Z</time></trkpt><trkpt lat="40.6969205" lon="14.7118881"><ele>193.0</ele><time>2026-03-27T09:57:15.416Z</time></trkpt><trkpt lat="40.6968622" lon="14.7119267"><ele>193.0</ele><time>2026-03-27T09:57:21.416Z</time></trkpt><trkpt lat="40.6968433" lon="14.712075"><ele>192.99999999999997</ele><time>2026-03-27T09:57:40.416Z</time></trkpt><trkpt lat="40.6968138" lon="14.7121627"><ele>193.0</ele><time>2026-03-27T09:57:45.416Z</time></trkpt><trkpt lat="40.6967561" lon="14.7122168"><ele>193.00000000000003</ele><time>2026-03-27T09:57:50.416Z</time></trkpt><trkpt lat="40.6967126" lon="14.7122854"><ele>193.0</ele><time>2026-03-27T09:57:55.416Z</time></trkpt><trkpt lat="40.6966404" lon="14.7122996"><ele>193.0</ele><time>2026-03-27T09:58:01.416Z</time></trkpt><trkpt lat="40.6965691" lon="14.7123261"><ele>193.0</ele><time>2026-03-27T09:58:06.416Z</time></trkpt><trkpt lat="40.6964985" lon="14.7123625"><ele>193.0</ele><time>2026-03-27T09:58:11.417Z</time></trkpt><trkpt lat="40.6964354" lon="14.7123892"><ele>193.00000000000003</ele><time>2026-03-27T09:58:15.416Z</time></trkpt><trkpt lat="40.6963732" lon="14.7124404"><ele>193.0</ele><time>2026-03-27T09:58:21.416Z</time></trkpt><trkpt lat="40.6963183" lon="14.7124902"><ele>193.00000000000003</ele><time>2026-03-27T09:58:27.416Z</time></trkpt><trkpt lat="40.6962665" lon="14.7125401"><ele>193.0</ele><time>2026-03-27T09:58:34.417Z</time></trkpt><trkpt lat="40.6962035" lon="14.7126106"><ele>193.0</ele><time>2026-03-27T09:58:39.416Z</time></trkpt><trkpt lat="40.6961527" lon="14.7126749"><ele>193.0</ele><time>2026-03-27T09:58:46.416Z</time></trkpt><trkpt lat="40.696105" lon="14.7127355"><ele>193.0</ele><time>2026-03-27T09:58:50.416Z</time></trkpt><trkpt lat="40.6960586" lon="14.7127963"><ele>193.00000000000003</ele><time>2026-03-27T09:58:56.416Z</time></trkpt><trkpt lat="40.696013" lon="14.7128582"><ele>193.0</ele><time>2026-03-27T09:59:02.417Z</time></trkpt><trkpt lat="40.6959636" lon="14.7129274"><ele>192.71428571428572</ele><time>2026-03-27T09:59:07.416Z</time></trkpt><trkpt lat="40.6959144" lon="14.7129945"><ele>192.42857142857144</ele><time>2026-03-27T09:59:12.416Z</time></trkpt><trkpt lat="40.6958696" lon="14.7130543"><ele>192.14285714285717</ele><time>2026-03-27T09:59:16.416Z</time></trkpt><trkpt lat="40.6958149" lon="14.7131368"><ele>191.85714285714286</ele><time>2026-03-27T09:59:20.416Z</time></trkpt><trkpt lat="40.6957952" lon="14.7132245"><ele>191.57142857142856</ele><time>2026-03-27T09:59:26.416Z</time></trkpt><trkpt lat="40.6958256" lon="14.7133147"><ele>191.2857142857143</ele><time>2026-03-27T09:59:30.416Z</time></trkpt><trkpt lat="40.695865" lon="14.7133877"><ele>191.0</ele><time>2026-03-27T09:59:35.417Z</time></trkpt><trkpt lat="40.6959544" lon="14.7134444"><ele>191.0</ele><time>2026-03-27T10:00:16.416Z</time></trkpt><trkpt lat="40.6960003" lon="14.7135042"><ele>191.0</ele><time>2026-03-27T10:00:25.416Z</time></trkpt><trkpt lat="40.6960575" lon="14.7135588"><ele>191.0</ele><time>2026-03-27T10:00:46.416Z</time></trkpt><trkpt lat="40.6961175" lon="14.7136241"><ele>191.0</ele><time>2026-03-27T10:00:53.416Z</time></trkpt><trkpt lat="40.6961687" lon="14.7136806"><ele>191.0</ele><time>2026-03-27T10:00:57.416Z</time></trkpt><trkpt lat="40.6962221" lon="14.7137393"><ele>191.0</ele><time>2026-03-27T10:01:03.416Z</time></trkpt><trkpt lat="40.6962714" lon="14.7137934"><ele>191.0</ele><time>2026-03-27T10:01:09.416Z</time></trkpt><trkpt lat="40.6963225" lon="14.7138498"><ele>190.71428571428572</ele><time>2026-03-27T10:01:15.416Z</time></trkpt><trkpt lat="40.6963736" lon="14.7139068"><ele>190.42857142857142</ele><time>2026-03-27T10:01:19.417Z</time></trkpt><trkpt lat="40.6964306" lon="14.7139686"><ele>190.14285714285714</ele><time>2026-03-27T10:01:25.416Z</time></trkpt><trkpt lat="40.6964828" lon="14.7140182"><ele>189.85714285714286</ele><time>2026-03-27T10:01:30.416Z</time></trkpt><trkpt lat="40.6965369" lon="14.7140706"><ele>189.57142857142856</ele><time>2026-03-27T10:01:35.416Z</time></trkpt><trkpt lat="40.6965976" lon="14.714128"><ele>189.28571428571428</ele><time>2026-03-27T10:01:40.417Z</time></trkpt><trkpt lat="40.6966494" lon="14.7141863"><ele>189.0</ele><time>2026-03-27T10:01:46.416Z</time></trkpt><trkpt lat="40.6967212" lon="14.714212"><ele>189.0</ele><time>2026-03-27T10:01:52.416Z</time></trkpt><trkpt lat="40.6968004" lon="14.7142055"><ele>189.0</ele><time>2026-03-27T10:01:57.416Z</time></trkpt><trkpt lat="40.6968692" lon="14.7141899"><ele>189.0</ele><time>2026-03-27T10:02:02.416Z</time></trkpt><trkpt lat="40.696936" lon="14.7141626"><ele>189.0</ele><time>2026-03-27T10:02:06.416Z</time></trkpt><trkpt lat="40.6970025" lon="14.7141249"><ele>189.0</ele><time>2026-03-27T10:02:11.416Z</time></trkpt><trkpt lat="40.6970609" lon="14.7140935"><ele>189.0</ele><time>2026-03-27T10:02:15.416Z</time></trkpt><trkpt lat="40.6971389" lon="14.7140919"><ele>189.0</ele><time>2026-03-27T10:02:25.416Z</time></trkpt><trkpt lat="40.6972093" lon="14.7140983"><ele>189.14285714285714</ele><time>2026-03-27T10:02:29.416Z</time></trkpt><trkpt lat="40.697228" lon="14.7141877"><ele>189.28571428571428</ele><time>2026-03-27T10:02:32.416Z</time></trkpt><trkpt lat="40.697252" lon="14.7142833"><ele>189.42857142857144</ele><time>2026-03-27T10:02:36.416Z</time></trkpt><trkpt lat="40.6972819" lon="14.7143642"><ele>189.57142857142856</ele><time>2026-03-27T10:02:42.416Z</time></trkpt><trkpt lat="40.6973224" lon="14.7144379"><ele>189.71428571428572</ele><time>2026-03-27T10:02:50.416Z</time></trkpt><trkpt lat="40.6973442" lon="14.7145297"><ele>189.85714285714286</ele><time>2026-03-27T10:02:56.416Z</time></trkpt><trkpt lat="40.6973699" lon="14.7146156"><ele>190.0</ele><time>2026-03-27T10:03:01.416Z</time></trkpt><trkpt lat="40.6973917" lon="14.7146991"><ele>190.0</ele><time>2026-03-27T10:03:06.416Z</time></trkpt><trkpt lat="40.6974248" lon="14.7147722"><ele>190.0</ele><time>2026-03-27T10:03:13.416Z</time></trkpt><trkpt lat="40.6974754" lon="14.7148441"><ele>190.0</ele><time>2026-03-27T10:03:18.416Z</time></trkpt><trkpt lat="40.6975168" lon="14.714909"><ele>190.0</ele><time>2026-03-27T10:03:23.416Z</time></trkpt><trkpt lat="40.6975626" lon="14.7149797"><ele>190.0</ele><time>2026-03-27T10:03:27.416Z</time></trkpt><trkpt lat="40.6976149" lon="14.7150481"><ele>190.0</ele><time>2026-03-27T10:03:35.416Z</time></trkpt><trkpt lat="40.6976673" lon="14.7151088"><ele>190.0</ele><time>2026-03-27T10:03:41.416Z</time></trkpt><trkpt lat="40.6977213" lon="14.7151698"><ele>190.28571428571428</ele><time>2026-03-27T10:03:46.416Z</time></trkpt><trkpt lat="40.6977779" lon="14.7152219"><ele>190.57142857142858</ele><time>2026-03-27T10:03:50.416Z</time></trkpt><trkpt lat="40.6978391" lon="14.7152773"><ele>190.85714285714283</ele><time>2026-03-27T10:03:56.416Z</time></trkpt><trkpt lat="40.697901" lon="14.7153312"><ele>191.14285714285714</ele><time>2026-03-27T10:04:01.416Z</time></trkpt><trkpt lat="40.6979626" lon="14.7153862"><ele>191.42857142857142</ele><time>2026-03-27T10:04:06.416Z</time></trkpt><trkpt lat="40.6980196" lon="14.7154365"><ele>191.7142857142857</ele><time>2026-03-27T10:04:11.416Z</time></trkpt><trkpt lat="40.698072" lon="14.7154835"><ele>192.0</ele><time>2026-03-27T10:04:16.416Z</time></trkpt><trkpt lat="40.6981366" lon="14.7155385"><ele>191.99999999999997</ele><time>2026-03-27T10:04:21.416Z</time></trkpt><trkpt lat="40.6981919" lon="14.7155853"><ele>192.0</ele><time>2026-03-27T10:04:27.416Z</time></trkpt><trkpt lat="40.6982553" lon="14.7156404"><ele>192.0</ele><time>2026-03-27T10:04:33.417Z</time></trkpt><trkpt lat="40.6983194" lon="14.7156975"><ele>192.0</ele><time>2026-03-27T10:04:38.416Z</time></trkpt><trkpt lat="40.6983813" lon="14.7157546"><ele>192.0</ele><time>2026-03-27T10:04:43.416Z</time></trkpt><trkpt lat="40.6984363" lon="14.7158096"><ele>191.99999999999997</ele><time>2026-03-27T10:04:47.416Z</time></trkpt><trkpt lat="40.6984942" lon="14.7158754"><ele>192.0</ele><time>2026-03-27T10:04:52.416Z</time></trkpt><trkpt lat="40.6985403" lon="14.7159323"><ele>193.57142857142856</ele><time>2026-03-27T10:04:56.416Z</time></trkpt><trkpt lat="40.6985927" lon="14.7160007"><ele>195.14285714285714</ele><time>2026-03-27T10:05:01.416Z</time></trkpt><trkpt lat="40.6986452" lon="14.7160674"><ele>196.71428571428572</ele><time>2026-03-27T10:05:06.416Z</time></trkpt><trkpt lat="40.6986846" lon="14.7161338"><ele>198.28571428571428</ele><time>2026-03-27T10:05:11.416Z</time></trkpt><trkpt lat="40.6987195" lon="14.7162058"><ele>199.85714285714286</ele><time>2026-03-27T10:05:16.416Z</time></trkpt><trkpt lat="40.6987496" lon="14.7162825"><ele>201.42857142857142</ele><time>2026-03-27T10:05:21.416Z</time></trkpt><trkpt lat="40.6987774" lon="14.7163694"><ele>203.0</ele><time>2026-03-27T10:05:27.416Z</time></trkpt><trkpt lat="40.698804" lon="14.7164499"><ele>203.00000000000003</ele><time>2026-03-27T10:05:32.416Z</time></trkpt><trkpt lat="40.6988301" lon="14.7165302"><ele>203.0</ele><time>2026-03-27T10:05:36.416Z</time></trkpt><trkpt lat="40.6988564" lon="14.716614"><ele>203.0</ele><time>2026-03-27T10:05:41.416Z</time></trkpt><trkpt lat="40.6988291" lon="14.7167969"><ele>203.0</ele><time>2026-03-27T10:06:07.416Z</time></trkpt><trkpt lat="40.6988123" lon="14.7168913"><ele>203.00000000000003</ele><time>2026-03-27T10:06:13.416Z</time></trkpt><trkpt lat="40.698748" lon="14.7169455"><ele>203.0</ele><time>2026-03-27T10:06:18.416Z</time></trkpt><trkpt lat="40.6986743" lon="14.7169754"><ele>202.28571428571428</ele><time>2026-03-27T10:06:23.416Z</time></trkpt><trkpt lat="40.698599" lon="14.7169543"><ele>201.57142857142856</ele><time>2026-03-27T10:06:28.416Z</time></trkpt><trkpt lat="40.6985285" lon="14.7169273"><ele>200.85714285714286</ele><time>2026-03-27T10:06:33.416Z</time></trkpt><trkpt lat="40.6984657" lon="14.7168987"><ele>200.14285714285714</ele><time>2026-03-27T10:06:41.416Z</time></trkpt><trkpt lat="40.6984035" lon="14.7168699"><ele>199.42857142857142</ele><time>2026-03-27T10:06:47.416Z</time></trkpt><trkpt lat="40.698357" lon="14.7168137"><ele>198.71428571428572</ele><time>2026-03-27T10:06:51.416Z</time></trkpt><trkpt lat="40.6983092" lon="14.716735"><ele>198.0</ele><time>2026-03-27T10:06:56.416Z</time></trkpt><trkpt lat="40.6982631" lon="14.7166684"><ele>197.0</ele><time>2026-03-27T10:07:02.417Z</time></trkpt><trkpt lat="40.6982122" lon="14.7166126"><ele>196.0</ele><time>2026-03-27T10:07:07.416Z</time></trkpt><trkpt lat="40.6981563" lon="14.7165563"><ele>195.0</ele><time>2026-03-27T10:07:13.416Z</time></trkpt><trkpt lat="40.6981019" lon="14.7165019"><ele>194.0</ele><time>2026-03-27T10:07:19.417Z</time></trkpt><trkpt lat="40.6980453" lon="14.7164454"><ele>193.0</ele><time>2026-03-27T10:07:25.416Z</time></trkpt><trkpt lat="40.6979821" lon="14.7163886"><ele>192.0</ele><time>2026-03-27T10:07:30.416Z</time></trkpt><trkpt lat="40.6979242" lon="14.7163407"><ele>191.0</ele><time>2026-03-27T10:07:35.416Z</time></trkpt><trkpt lat="40.6978606" lon="14.7162976"><ele>191.0</ele><time>2026-03-27T10:07:41.416Z</time></trkpt><trkpt lat="40.6978023" lon="14.7162639"><ele>191.0</ele><time>2026-03-27T10:07:46.416Z</time></trkpt><trkpt lat="40.6977382" lon="14.7162286"><ele>191.0</ele><time>2026-03-27T10:07:52.417Z</time></trkpt><trkpt lat="40.6976589" lon="14.716195"><ele>191.0</ele><time>2026-03-27T10:07:57.417Z</time></trkpt><trkpt lat="40.697588" lon="14.7161961"><ele>191.0</ele><time>2026-03-27T10:08:03.417Z</time></trkpt><trkpt lat="40.6975252" lon="14.7162167"><ele>191.0</ele><time>2026-03-27T10:08:08.417Z</time></trkpt><trkpt lat="40.6974608" lon="14.7162332"><ele>191.0</ele><time>2026-03-27T10:08:13.417Z</time></trkpt><trkpt lat="40.6973942" lon="14.7162615"><ele>193.2857142857143</ele><time>2026-03-27T10:08:18.417Z</time></trkpt><trkpt lat="40.6973263" lon="14.7162909"><ele>195.57142857142856</ele><time>2026-03-27T10:08:24.417Z</time></trkpt><trkpt lat="40.6972539" lon="14.7163221"><ele>197.85714285714286</ele><time>2026-03-27T10:08:30.417Z</time></trkpt><trkpt lat="40.6971921" lon="14.7163497"><ele>200.14285714285717</ele><time>2026-03-27T10:08:35.417Z</time></trkpt><trkpt lat="40.697132" lon="14.7163887"><ele>202.42857142857144</ele><time>2026-03-27T10:08:41.417Z</time></trkpt><trkpt lat="40.6970719" lon="14.7164282"><ele>204.71428571428572</ele><time>2026-03-27T10:08:50.417Z</time></trkpt><trkpt lat="40.6969978" lon="14.7164602"><ele>207.0</ele><time>2026-03-27T10:08:55.417Z</time></trkpt><trkpt lat="40.6969376" lon="14.7164985"><ele>207.71428571428572</ele><time>2026-03-27T10:08:59.417Z</time></trkpt><trkpt lat="40.6968792" lon="14.7165344"><ele>208.42857142857144</ele><time>2026-03-27T10:09:03.417Z</time></trkpt><trkpt lat="40.6968232" lon="14.7165735"><ele>209.14285714285717</ele><time>2026-03-27T10:09:08.417Z</time></trkpt><trkpt lat="40.6967625" lon="14.7166222"><ele>209.85714285714286</ele><time>2026-03-27T10:09:12.417Z</time></trkpt><trkpt lat="40.6967012" lon="14.7166843"><ele>210.57142857142856</ele><time>2026-03-27T10:09:15.417Z</time></trkpt><trkpt lat="40.6966814" lon="14.7167728"><ele>211.2857142857143</ele><time>2026-03-27T10:09:18.417Z</time></trkpt><trkpt lat="40.6966621" lon="14.7168556"><ele>212.0</ele><time>2026-03-27T10:09:23.417Z</time></trkpt><trkpt lat="40.6966489" lon="14.7169443"><ele>212.0</ele><time>2026-03-27T10:09:29.417Z</time></trkpt><trkpt lat="40.696637" lon="14.7170288"><ele>212.0</ele><time>2026-03-27T10:09:34.417Z</time></trkpt><trkpt lat="40.6966241" lon="14.7171118"><ele>212.0</ele><time>2026-03-27T10:09:38.417Z</time></trkpt><trkpt lat="40.6966136" lon="14.7172035"><ele>212.0</ele><time>2026-03-27T10:09:45.417Z</time></trkpt><trkpt lat="40.6966451" lon="14.7172773"><ele>212.0</ele><time>2026-03-27T10:09:52.417Z</time></trkpt><trkpt lat="40.696605" lon="14.7173423"><ele>212.0</ele><time>2026-03-27T10:10:03.417Z</time></trkpt><trkpt lat="40.6965454" lon="14.7173891"><ele>212.0</ele><time>2026-03-27T10:10:08.417Z</time></trkpt><trkpt lat="40.6964804" lon="14.7173773"><ele>212.0</ele><time>2026-03-27T10:10:13.417Z</time></trkpt><trkpt lat="40.6964185" lon="14.717357"><ele>212.0</ele><time>2026-03-27T10:10:17.417Z</time></trkpt><trkpt lat="40.6963441" lon="14.7173417"><ele>212.0</ele><time>2026-03-27T10:10:23.417Z</time></trkpt><trkpt lat="40.6962732" lon="14.7173266"><ele>212.0</ele><time>2026-03-27T10:10:28.417Z</time></trkpt><trkpt lat="40.6962076" lon="14.7173138"><ele>212.0</ele><time>2026-03-27T10:10:33.417Z</time></trkpt><trkpt lat="40.6961299" lon="14.7172975"><ele>212.0</ele><time>2026-03-27T10:10:39.417Z</time></trkpt><trkpt lat="40.6960556" lon="14.7172821"><ele>212.0</ele><time>2026-03-27T10:10:44.417Z</time></trkpt><trkpt lat="40.6959893" lon="14.7172695"><ele>211.42857142857144</ele><time>2026-03-27T10:10:51.417Z</time></trkpt><trkpt lat="40.6959368" lon="14.7173331"><ele>210.85714285714283</ele><time>2026-03-27T10:11:05.417Z</time></trkpt><trkpt lat="40.6958848" lon="14.7172816"><ele>210.28571428571428</ele><time>2026-03-27T10:11:14.417Z</time></trkpt><trkpt lat="40.6958408" lon="14.717222"><ele>209.71428571428572</ele><time>2026-03-27T10:11:18.417Z</time></trkpt><trkpt lat="40.69581" lon="14.7171382"><ele>209.14285714285717</ele><time>2026-03-27T10:11:23.417Z</time></trkpt><trkpt lat="40.6957908" lon="14.7170515"><ele>208.57142857142856</ele><time>2026-03-27T10:11:29.417Z</time></trkpt><trkpt lat="40.6957705" lon="14.7169711"><ele>208.0</ele><time>2026-03-27T10:11:34.417Z</time></trkpt><trkpt lat="40.6957457" lon="14.7168769"><ele>208.0</ele><time>2026-03-27T10:11:39.417Z</time></trkpt><trkpt lat="40.69573" lon="14.7167901"><ele>208.0</ele><time>2026-03-27T10:11:45.417Z</time></trkpt><trkpt lat="40.6956907" lon="14.7167095"><ele>208.0</ele><time>2026-03-27T10:11:52.417Z</time></trkpt><trkpt lat="40.6956276" lon="14.7166904"><ele>208.0</ele><time>2026-03-27T10:11:56.417Z</time></trkpt><trkpt lat="40.6955587" lon="14.7166568"><ele>208.0</ele><time>2026-03-27T10:12:01.417Z</time></trkpt><trkpt lat="40.6954849" lon="14.7166389"><ele>208.0</ele><time>2026-03-27T10:12:07.417Z</time></trkpt><trkpt lat="40.6954192" lon="14.7166235"><ele>208.0</ele><time>2026-03-27T10:12:12.417Z</time></trkpt><trkpt lat="40.6953491" lon="14.7166081"><ele>208.0</ele><time>2026-03-27T10:12:18.417Z</time></trkpt><trkpt lat="40.6952835" lon="14.7165923"><ele>208.0</ele><time>2026-03-27T10:12:23.417Z</time></trkpt><trkpt lat="40.6952064" lon="14.7165756"><ele>208.0</ele><time>2026-03-27T10:12:28.418Z</time></trkpt><trkpt lat="40.6951382" lon="14.716559"><ele>208.0</ele><time>2026-03-27T10:12:32.417Z</time></trkpt><trkpt lat="40.6950611" lon="14.7165409"><ele>208.0</ele><time>2026-03-27T10:12:38.417Z</time></trkpt><trkpt lat="40.6949969" lon="14.7165284"><ele>208.0</ele><time>2026-03-27T10:12:43.418Z</time></trkpt><trkpt lat="40.6949255" lon="14.7165155"><ele>208.0</ele><time>2026-03-27T10:12:49.417Z</time></trkpt><trkpt lat="40.6948594" lon="14.7165034"><ele>210.0</ele><time>2026-03-27T10:12:55.417Z</time></trkpt><trkpt lat="40.6947941" lon="14.7165164"><ele>212.0</ele><time>2026-03-27T10:13:05.417Z</time></trkpt><trkpt lat="40.6947337" lon="14.7164864"><ele>214.0</ele><time>2026-03-27T10:13:11.417Z</time></trkpt><trkpt lat="40.6946689" lon="14.7164359"><ele>216.0</ele><time>2026-03-27T10:13:16.417Z</time></trkpt><trkpt lat="40.6946148" lon="14.7163819"><ele>218.0</ele><time>2026-03-27T10:13:20.417Z</time></trkpt><trkpt lat="40.694563" lon="14.7163241"><ele>220.0</ele><time>2026-03-27T10:13:25.417Z</time></trkpt><trkpt lat="40.6944975" lon="14.716293"><ele>222.0</ele><time>2026-03-27T10:13:30.417Z</time></trkpt><trkpt lat="40.6944346" lon="14.716321"><ele>222.28571428571428</ele><time>2026-03-27T10:13:35.417Z</time></trkpt><trkpt lat="40.6943918" lon="14.716389"><ele>222.57142857142858</ele><time>2026-03-27T10:13:40.417Z</time></trkpt><trkpt lat="40.6943689" lon="14.7164717"><ele>222.85714285714286</ele><time>2026-03-27T10:13:45.417Z</time></trkpt><trkpt lat="40.6943731" lon="14.7165554"><ele>223.14285714285714</ele><time>2026-03-27T10:13:50.417Z</time></trkpt><trkpt lat="40.6943809" lon="14.7166411"><ele>223.42857142857144</ele><time>2026-03-27T10:13:56.417Z</time></trkpt><trkpt lat="40.6943912" lon="14.7167282"><ele>223.71428571428572</ele><time>2026-03-27T10:14:00.417Z</time></trkpt><trkpt lat="40.6944012" lon="14.7168314"><ele>224.0</ele><time>2026-03-27T10:14:05.417Z</time></trkpt><trkpt lat="40.6944115" lon="14.7169209"><ele>225.28571428571428</ele><time>2026-03-27T10:14:12.417Z</time></trkpt><trkpt lat="40.6944139" lon="14.7170152"><ele>226.57142857142856</ele><time>2026-03-27T10:14:19.417Z</time></trkpt><trkpt lat="40.6944425" lon="14.7170937"><ele>227.85714285714286</ele><time>2026-03-27T10:14:23.417Z</time></trkpt><trkpt lat="40.6944965" lon="14.7171469"><ele>229.14285714285714</ele><time>2026-03-27T10:14:27.417Z</time></trkpt><trkpt lat="40.6944624" lon="14.7172386"><ele>230.42857142857142</ele><time>2026-03-27T10:14:33.418Z</time></trkpt><trkpt lat="40.6943827" lon="14.7173095"><ele>231.71428571428572</ele><time>2026-03-27T10:15:12.417Z</time></trkpt><trkpt lat="40.6943243" lon="14.7173535"><ele>233.0</ele><time>2026-03-27T10:15:14.417Z</time></trkpt><trkpt lat="40.694272" lon="14.7174317"><ele>233.0</ele><time>2026-03-27T10:15:17.417Z</time></trkpt><trkpt lat="40.6942486" lon="14.717509"><ele>233.0</ele><time>2026-03-27T10:15:21.357Z</time></trkpt><trkpt lat="40.6942243" lon="14.7175994"><ele>233.0</ele><time>2026-03-27T10:15:25.417Z</time></trkpt><trkpt lat="40.6941946" lon="14.7176894"><ele>233.0</ele><time>2026-03-27T10:15:28.417Z</time></trkpt><trkpt lat="40.6941563" lon="14.7177818"><ele>233.0</ele><time>2026-03-27T10:15:32.417Z</time></trkpt><trkpt lat="40.6941413" lon="14.7178649"><ele>233.0</ele><time>2026-03-27T10:15:34.417Z</time></trkpt><trkpt lat="40.6941458" lon="14.7179577"><ele>233.0</ele><time>2026-03-27T10:15:37.417Z</time></trkpt><trkpt lat="40.6941345" lon="14.718046"><ele>234.57142857142858</ele><time>2026-03-27T10:15:41.417Z</time></trkpt><trkpt lat="40.6941058" lon="14.7181216"><ele>236.1428571428571</ele><time>2026-03-27T10:15:46.417Z</time></trkpt><trkpt lat="40.6940769" lon="14.7182163"><ele>237.7142857142857</ele><time>2026-03-27T10:15:50.417Z</time></trkpt><trkpt lat="40.694057" lon="14.7183017"><ele>239.28571428571428</ele><time>2026-03-27T10:15:54.417Z</time></trkpt><trkpt lat="40.69405" lon="14.7183904"><ele>240.85714285714283</ele><time>2026-03-27T10:16:01.417Z</time></trkpt><trkpt lat="40.6940562" lon="14.7184731"><ele>242.4285714285714</ele><time>2026-03-27T10:16:06.417Z</time></trkpt><trkpt lat="40.6940657" lon="14.7185697"><ele>243.99999999999997</ele><time>2026-03-27T10:16:10.417Z</time></trkpt><trkpt lat="40.694079" lon="14.7186613"><ele>244.28571428571425</ele><time>2026-03-27T10:16:14.417Z</time></trkpt><trkpt lat="40.6940923" lon="14.7187427"><ele>244.57142857142856</ele><time>2026-03-27T10:16:19.417Z</time></trkpt><trkpt lat="40.6941128" lon="14.7188417"><ele>244.85714285714286</ele><time>2026-03-27T10:16:25.417Z</time></trkpt><trkpt lat="40.6941288" lon="14.7189297"><ele>245.14285714285714</ele><time>2026-03-27T10:16:31.417Z</time></trkpt><trkpt lat="40.694121" lon="14.7190193"><ele>245.42857142857144</ele><time>2026-03-27T10:16:36.417Z</time></trkpt><trkpt lat="40.6941088" lon="14.7191139"><ele>245.71428571428575</ele><time>2026-03-27T10:16:43.417Z</time></trkpt><trkpt lat="40.6941244" lon="14.7192062"><ele>246.00000000000003</ele><time>2026-03-27T10:16:49.417Z</time></trkpt><trkpt lat="40.6941435" lon="14.7192854"><ele>246.00000000000003</ele><time>2026-03-27T10:16:54.417Z</time></trkpt><trkpt lat="40.6941757" lon="14.719369"><ele>246.0</ele><time>2026-03-27T10:16:59.417Z</time></trkpt><trkpt lat="40.694208" lon="14.7194467"><ele>246.00000000000003</ele><time>2026-03-27T10:17:03.417Z</time></trkpt><trkpt lat="40.6942425" lon="14.7195322"><ele>246.00000000000003</ele><time>2026-03-27T10:17:07.417Z</time></trkpt><trkpt lat="40.6942773" lon="14.7196041"><ele>246.0</ele><time>2026-03-27T10:17:13.417Z</time></trkpt><trkpt lat="40.6943229" lon="14.7196888"><ele>246.00000000000003</ele><time>2026-03-27T10:17:18.417Z</time></trkpt><trkpt lat="40.6943615" lon="14.7197613"><ele>246.00000000000003</ele><time>2026-03-27T10:17:24.417Z</time></trkpt><trkpt lat="40.6943977" lon="14.7198298"><ele>248.33333333333334</ele><time>2026-03-27T10:17:29.418Z</time></trkpt><trkpt lat="40.6944488" lon="14.7199094"><ele>250.66666666666669</ele><time>2026-03-27T10:17:36.417Z</time></trkpt><trkpt lat="40.6945056" lon="14.7199905"><ele>253.0</ele><time>2026-03-27T10:17:42.417Z</time></trkpt><trkpt lat="40.6945498" lon="14.7200515"><ele>255.33333333333334</ele><time>2026-03-27T10:17:50.417Z</time></trkpt><trkpt lat="40.6946086" lon="14.7201344"><ele>257.6666666666667</ele><time>2026-03-27T10:17:57.417Z</time></trkpt><trkpt lat="40.6946648" lon="14.7202153"><ele>260.0</ele><time>2026-03-27T10:18:02.417Z</time></trkpt><trkpt lat="40.6946151" lon="14.7202878"><ele>260.8</ele><time>2026-03-27T10:18:07.417Z</time></trkpt><trkpt lat="40.6945434" lon="14.7204139"><ele>261.6</ele><time>2026-03-27T10:18:09.417Z</time></trkpt><trkpt lat="40.6945094" lon="14.7205605"><ele>262.4</ele><time>2026-03-27T10:18:11.417Z</time></trkpt><trkpt lat="40.6944828" lon="14.7206721"><ele>263.2</ele><time>2026-03-27T10:18:13.417Z</time></trkpt><trkpt lat="40.6944547" lon="14.7207678"><ele>264.0</ele><time>2026-03-27T10:18:15.417Z</time></trkpt><trkpt lat="40.6944271" lon="14.7208508"><ele>263.0</ele><time>2026-03-27T10:18:17.417Z</time></trkpt><trkpt lat="40.6943768" lon="14.7209142"><ele>262.0</ele><time>2026-03-27T10:18:21.417Z</time></trkpt><trkpt lat="40.6943175" lon="14.7209704"><ele>261.0</ele><time>2026-03-27T10:18:27.417Z</time></trkpt><trkpt lat="40.6942701" lon="14.7210388"><ele>260.0</ele><time>2026-03-27T10:18:31.417Z</time></trkpt><trkpt lat="40.6942225" lon="14.7211028"><ele>259.0</ele><time>2026-03-27T10:18:37.417Z</time></trkpt><trkpt lat="40.6941735" lon="14.721165"><ele>258.0</ele><time>2026-03-27T10:18:42.417Z</time></trkpt><trkpt lat="40.6941244" lon="14.7212188"><ele>257.0</ele><time>2026-03-27T10:18:47.417Z</time></trkpt><trkpt lat="40.6940694" lon="14.7212743"><ele>257.0</ele><time>2026-03-27T10:18:53.417Z</time></trkpt><trkpt lat="40.6940056" lon="14.7213348"><ele>257.0</ele><time>2026-03-27T10:18:59.418Z</time></trkpt><trkpt lat="40.6939511" lon="14.7213872"><ele>257.0</ele><time>2026-03-27T10:19:03.418Z</time></trkpt><trkpt lat="40.6938872" lon="14.7214445"><ele>257.0</ele><time>2026-03-27T10:19:08.418Z</time></trkpt><trkpt lat="40.6938325" lon="14.7214903"><ele>257.0</ele><time>2026-03-27T10:19:13.418Z</time></trkpt><trkpt lat="40.6937752" lon="14.7215417"><ele>257.0</ele><time>2026-03-27T10:19:18.418Z</time></trkpt><trkpt lat="40.6937201" lon="14.7215919"><ele>257.0</ele><time>2026-03-27T10:19:23.418Z</time></trkpt><trkpt lat="40.6936687" lon="14.7216522"><ele>257.0</ele><time>2026-03-27T10:19:27.418Z</time></trkpt><trkpt lat="40.6936171" lon="14.7217172"><ele>257.0</ele><time>2026-03-27T10:19:33.418Z</time></trkpt><trkpt lat="40.6935748" lon="14.7217837"><ele>257.0</ele><time>2026-03-27T10:19:38.418Z</time></trkpt><trkpt lat="40.6935371" lon="14.7218551"><ele>257.0</ele><time>2026-03-27T10:19:43.418Z</time></trkpt><trkpt lat="40.6934992" lon="14.7219331"><ele>257.0</ele><time>2026-03-27T10:19:48.418Z</time></trkpt><trkpt lat="40.693467" lon="14.7220132"><ele>257.0</ele><time>2026-03-27T10:19:55.418Z</time></trkpt><trkpt lat="40.6934469" lon="14.7220929"><ele>257.0</ele><time>2026-03-27T10:20:00.418Z</time></trkpt><trkpt lat="40.6934287" lon="14.7221794"><ele>254.16666666666669</ele><time>2026-03-27T10:20:05.418Z</time></trkpt><trkpt lat="40.6934128" lon="14.7222698"><ele>251.33333333333334</ele><time>2026-03-27T10:20:12.418Z</time></trkpt><trkpt lat="40.6933944" lon="14.7223778"><ele>248.5</ele><time>2026-03-27T10:20:19.418Z</time></trkpt><trkpt lat="40.6933778" lon="14.7224755"><ele>245.66666666666669</ele><time>2026-03-27T10:20:26.418Z</time></trkpt><trkpt lat="40.6933597" lon="14.7225753"><ele>242.83333333333334</ele><time>2026-03-27T10:20:31.418Z</time></trkpt><trkpt lat="40.6934442" lon="14.7226368"><ele>240.0</ele><time>2026-03-27T10:20:34.418Z</time></trkpt><trkpt lat="40.6934881" lon="14.722716"><ele>241.33333333333334</ele><time>2026-03-27T10:20:36.419Z</time></trkpt><trkpt lat="40.6935298" lon="14.7228153"><ele>242.66666666666669</ele><time>2026-03-27T10:20:42.418Z</time></trkpt><trkpt lat="40.6935679" lon="14.7229084"><ele>244.0</ele><time>2026-03-27T10:20:47.418Z</time></trkpt><trkpt lat="40.6936065" lon="14.7229988"><ele>245.33333333333334</ele><time>2026-03-27T10:20:52.418Z</time></trkpt><trkpt lat="40.6936543" lon="14.7230629"><ele>246.66666666666669</ele><time>2026-03-27T10:20:56.418Z</time></trkpt><trkpt lat="40.6937149" lon="14.7231321"><ele>248.0</ele><time>2026-03-27T10:21:00.418Z</time></trkpt><trkpt lat="40.6937759" lon="14.7231924"><ele>248.00000000000003</ele><time>2026-03-27T10:21:06.418Z</time></trkpt><trkpt lat="40.6938413" lon="14.7232507"><ele>248.0</ele><time>2026-03-27T10:21:10.418Z</time></trkpt><trkpt lat="40.6939137" lon="14.7232977"><ele>248.0</ele><time>2026-03-27T10:21:14.418Z</time></trkpt><trkpt lat="40.6939891" lon="14.7233455"><ele>248.0</ele><time>2026-03-27T10:21:22.418Z</time></trkpt><trkpt lat="40.6940586" lon="14.723354"><ele>248.00000000000003</ele><time>2026-03-27T10:21:29.418Z</time></trkpt><trkpt lat="40.6941342" lon="14.7233266"><ele>248.0</ele><time>2026-03-27T10:21:32.418Z</time></trkpt><trkpt lat="40.6942047" lon="14.7232791"><ele>248.0</ele><time>2026-03-27T10:21:36.418Z</time></trkpt><trkpt lat="40.694265" lon="14.723237"><ele>248.00000000000003</ele><time>2026-03-27T10:21:40.419Z</time></trkpt><trkpt lat="40.6943324" lon="14.7232486"><ele>248.0</ele><time>2026-03-27T10:21:44.418Z</time></trkpt><trkpt lat="40.6943974" lon="14.7232956"><ele>248.0</ele><time>2026-03-27T10:21:49.418Z</time></trkpt><trkpt lat="40.6944566" lon="14.7233386"><ele>248.00000000000003</ele><time>2026-03-27T10:21:54.418Z</time></trkpt><trkpt lat="40.6945183" lon="14.7233838"><ele>248.0</ele><time>2026-03-27T10:21:59.418Z</time></trkpt><trkpt lat="40.6945815" lon="14.7234291"><ele>248.0</ele><time>2026-03-27T10:22:04.418Z</time></trkpt><trkpt lat="40.6946447" lon="14.7234761"><ele>249.14285714285717</ele><time>2026-03-27T10:22:10.418Z</time></trkpt><trkpt lat="40.6947052" lon="14.7235191"><ele>250.2857142857143</ele><time>2026-03-27T10:22:17.418Z</time></trkpt><trkpt lat="40.6947679" lon="14.7235642"><ele>251.42857142857144</ele><time>2026-03-27T10:22:24.418Z</time></trkpt><trkpt lat="40.6948281" lon="14.7236028"><ele>252.57142857142856</ele><time>2026-03-27T10:22:28.418Z</time></trkpt><trkpt lat="40.6949024" lon="14.7236505"><ele>253.7142857142857</ele><time>2026-03-27T10:22:32.418Z</time></trkpt><trkpt lat="40.6949633" lon="14.7236901"><ele>254.85714285714283</ele><time>2026-03-27T10:22:36.418Z</time></trkpt><trkpt lat="40.6950202" lon="14.7237264"><ele>256.0</ele><time>2026-03-27T10:22:41.418Z</time></trkpt><trkpt lat="40.6950813" lon="14.7237647"><ele>256.0</ele><time>2026-03-27T10:22:46.418Z</time></trkpt><trkpt lat="40.6951447" lon="14.7237998"><ele>255.99999999999997</ele><time>2026-03-27T10:22:52.418Z</time></trkpt><trkpt lat="40.6952041" lon="14.7238325"><ele>256.0</ele><time>2026-03-27T10:22:57.418Z</time></trkpt><trkpt lat="40.6952724" lon="14.7238746"><ele>256.0</ele><time>2026-03-27T10:23:03.418Z</time></trkpt><trkpt lat="40.695341" lon="14.7239178"><ele>255.99999999999997</ele><time>2026-03-27T10:23:08.418Z</time></trkpt><trkpt lat="40.6954123" lon="14.7239649"><ele>256.0</ele><time>2026-03-27T10:23:12.418Z</time></trkpt><trkpt lat="40.695467" lon="14.7240285"><ele>256.0</ele><time>2026-03-27T10:23:16.418Z</time></trkpt><trkpt lat="40.6955147" lon="14.7240944"><ele>258.7142857142857</ele><time>2026-03-27T10:23:22.418Z</time></trkpt><trkpt lat="40.6955425" lon="14.7241792"><ele>261.4285714285714</ele><time>2026-03-27T10:23:27.418Z</time></trkpt><trkpt lat="40.6955521" lon="14.7242643"><ele>264.1428571428571</ele><time>2026-03-27T10:23:32.418Z</time></trkpt><trkpt lat="40.6955518" lon="14.7243607"><ele>266.85714285714283</ele><time>2026-03-27T10:23:37.418Z</time></trkpt><trkpt lat="40.695555" lon="14.7244542"><ele>269.57142857142856</ele><time>2026-03-27T10:23:43.418Z</time></trkpt><trkpt lat="40.6955517" lon="14.7245458"><ele>272.2857142857143</ele><time>2026-03-27T10:23:54.418Z</time></trkpt><trkpt lat="40.6955545" lon="14.7246464"><ele>275.0</ele><time>2026-03-27T10:23:59.418Z</time></trkpt><trkpt lat="40.6955625" lon="14.7247358"><ele>275.0</ele><time>2026-03-27T10:24:03.418Z</time></trkpt><trkpt lat="40.6955761" lon="14.7248231"><ele>275.0</ele><time>2026-03-27T10:24:08.418Z</time></trkpt><trkpt lat="40.6955941" lon="14.7249033"><ele>275.0</ele><time>2026-03-27T10:24:13.418Z</time></trkpt><trkpt lat="40.6956182" lon="14.7249884"><ele>275.0</ele><time>2026-03-27T10:24:19.418Z</time></trkpt><trkpt lat="40.6956266" lon="14.7250714"><ele>275.0</ele><time>2026-03-27T10:24:24.418Z</time></trkpt><trkpt lat="40.695601" lon="14.7251492"><ele>275.0</ele><time>2026-03-27T10:24:30.418Z</time></trkpt><trkpt lat="40.6955883" lon="14.7252366"><ele>275.0</ele><time>2026-03-27T10:24:36.418Z</time></trkpt><trkpt lat="40.6955832" lon="14.7253222"><ele>275.8571428571429</ele><time>2026-03-27T10:24:40.419Z</time></trkpt><trkpt lat="40.6955567" lon="14.7254052"><ele>276.7142857142857</ele><time>2026-03-27T10:24:44.418Z</time></trkpt><trkpt lat="40.6955299" lon="14.7254872"><ele>277.57142857142856</ele><time>2026-03-27T10:24:48.418Z</time></trkpt><trkpt lat="40.6955038" lon="14.7255711"><ele>278.42857142857144</ele><time>2026-03-27T10:24:53.418Z</time></trkpt><trkpt lat="40.6954782" lon="14.7256535"><ele>279.2857142857143</ele><time>2026-03-27T10:24:57.418Z</time></trkpt><trkpt lat="40.6954537" lon="14.7257399"><ele>280.14285714285717</ele><time>2026-03-27T10:25:01.418Z</time></trkpt><trkpt lat="40.6954274" lon="14.7258308"><ele>281.0</ele><time>2026-03-27T10:25:06.418Z</time></trkpt><trkpt lat="40.6954031" lon="14.7259132"><ele>281.00000000000006</ele><time>2026-03-27T10:25:10.418Z</time></trkpt><trkpt lat="40.6953775" lon="14.7260006"><ele>281.0</ele><time>2026-03-27T10:25:14.418Z</time></trkpt><trkpt lat="40.6953571" lon="14.7260795"><ele>281.0</ele><time>2026-03-27T10:25:19.418Z</time></trkpt><trkpt lat="40.6953344" lon="14.7261746"><ele>281.0</ele><time>2026-03-27T10:25:24.418Z</time></trkpt><trkpt lat="40.6953143" lon="14.7262638"><ele>281.0</ele><time>2026-03-27T10:25:29.418Z</time></trkpt><trkpt lat="40.6953017" lon="14.7263452"><ele>281.00000000000006</ele><time>2026-03-27T10:25:34.418Z</time></trkpt><trkpt lat="40.6952896" lon="14.7264355"><ele>281.0</ele><time>2026-03-27T10:25:40.418Z</time></trkpt><trkpt lat="40.6953422" lon="14.7265069"><ele>280.5</ele><time>2026-03-27T10:25:47.418Z</time></trkpt><trkpt lat="40.6953839" lon="14.7265777"><ele>280.0</ele><time>2026-03-27T10:25:52.418Z</time></trkpt><trkpt lat="40.6954047" lon="14.7266644"><ele>279.5</ele><time>2026-03-27T10:25:55.418Z</time></trkpt><trkpt lat="40.6954264" lon="14.7267603"><ele>279.0</ele><time>2026-03-27T10:25:58.418Z</time></trkpt><trkpt lat="40.6954426" lon="14.7268415"><ele>278.5</ele><time>2026-03-27T10:26:01.418Z</time></trkpt><trkpt lat="40.6954085" lon="14.7267597"><ele>278.0</ele><time>2026-03-27T10:26:15.418Z</time></trkpt><trkpt lat="40.6955198" lon="14.7267489"><ele>278.0</ele><time>2026-03-27T10:26:32.418Z</time></trkpt><trkpt lat="40.6952496" lon="14.7266071"><ele>278.0</ele><time>2026-03-27T10:26:55.409Z</time></trkpt><trkpt lat="40.6954216" lon="14.726695"><ele>278.0</ele><time>2026-03-27T10:26:57.409Z</time></trkpt><trkpt lat="40.6954899" lon="14.7267267"><ele>278.0</ele><time>2026-03-27T10:26:58.409Z</time></trkpt><trkpt lat="40.6955534" lon="14.7267292"><ele>278.0</ele><time>2026-03-27T10:27:04.409Z</time></trkpt><trkpt lat="40.6956402" lon="14.7267492"><ele>278.0</ele><time>2026-03-27T10:27:24.409Z</time></trkpt><trkpt lat="40.6955711" lon="14.7267564"><ele>278.0</ele><time>2026-03-27T10:27:31.409Z</time></trkpt><trkpt lat="40.6955083" lon="14.7267337"><ele>278.0</ele><time>2026-03-27T10:27:34.409Z</time></trkpt><trkpt lat="40.695446" lon="14.7267127"><ele>278.0</ele><time>2026-03-27T10:27:41.409Z</time></trkpt><trkpt lat="40.6955113" lon="14.7267167"><ele>278.0</ele><time>2026-03-27T10:27:54.409Z</time></trkpt><trkpt lat="40.695543" lon="14.7267963"><ele>278.0</ele><time>2026-03-27T10:28:04.409Z</time></trkpt><trkpt lat="40.6955864" lon="14.7268609"><ele>278.0</ele><time>2026-03-27T10:28:10.409Z</time></trkpt><trkpt lat="40.6956051" lon="14.7269406"><ele>278.0</ele><time>2026-03-27T10:28:16.409Z</time></trkpt><trkpt lat="40.6956403" lon="14.726865"><ele>278.0</ele><time>2026-03-27T10:28:59.409Z</time></trkpt><trkpt lat="40.695708" lon="14.7268513"><ele>278.0</ele><time>2026-03-27T10:29:57.409Z</time></trkpt><trkpt lat="40.6957887" lon="14.726865"><ele>278.0</ele><time>2026-03-27T10:30:18.41Z</time></trkpt><trkpt lat="40.6957101" lon="14.7268554"><ele>278.0</ele><time>2026-03-27T10:31:05.41Z</time></trkpt><trkpt lat="40.6956396" lon="14.7268157"><ele>278.0</ele><time>2026-03-27T10:31:08.41Z</time></trkpt><trkpt lat="40.6955833" lon="14.7267603"><ele>278.0</ele><time>2026-03-27T10:32:32.411Z</time></trkpt><trkpt lat="40.6955254" lon="14.7267059"><ele>278.0</ele><time>2026-03-27T10:33:57.425Z</time></trkpt><trkpt lat="40.6954945" lon="14.7266307"><ele>278.0</ele><time>2026-03-27T10:34:44.41Z</time></trkpt><trkpt lat="40.6955195" lon="14.7265528"><ele>278.0</ele><time>2026-03-27T10:34:48.41Z</time></trkpt><trkpt lat="40.6954394" lon="14.7264865"><ele>278.0</ele><time>2026-03-27T10:34:50.41Z</time></trkpt><trkpt lat="40.6952898" lon="14.7264098"><ele>274.6666666666667</ele><time>2026-03-27T10:34:53.41Z</time></trkpt><trkpt lat="40.6952344" lon="14.7263686"><ele>271.33333333333337</ele><time>2026-03-27T10:34:54.41Z</time></trkpt><trkpt lat="40.6951733" lon="14.726306"><ele>268.0</ele><time>2026-03-27T10:34:55.41Z</time></trkpt><trkpt lat="40.6951041" lon="14.7262825"><ele>264.6666666666667</ele><time>2026-03-27T10:34:56.411Z</time></trkpt><trkpt lat="40.695034" lon="14.7262452"><ele>261.3333333333333</ele><time>2026-03-27T10:34:57.41Z</time></trkpt><trkpt lat="40.6950082" lon="14.7261146"><ele>258.0</ele><time>2026-03-27T10:34:59.41Z</time></trkpt><trkpt lat="40.6949928" lon="14.7260266"><ele>258.0</ele><time>2026-03-27T10:35:01.41Z</time></trkpt><trkpt lat="40.6949587" lon="14.7259468"><ele>258.0</ele><time>2026-03-27T10:35:04.41Z</time></trkpt><trkpt lat="40.6949067" lon="14.7260428"><ele>258.0</ele><time>2026-03-27T10:35:06.41Z</time></trkpt><trkpt lat="40.6949235" lon="14.7261574"><ele>258.0</ele><time>2026-03-27T10:35:08.41Z</time></trkpt><trkpt lat="40.6950174" lon="14.7262355"><ele>258.0</ele><time>2026-03-27T10:35:09.41Z</time></trkpt><trkpt lat="40.6951004" lon="14.7263405"><ele>257.25</ele><time>2026-03-27T10:35:11.41Z</time></trkpt><trkpt lat="40.6951839" lon="14.7264227"><ele>256.5</ele><time>2026-03-27T10:35:13.41Z</time></trkpt><trkpt lat="40.695272" lon="14.7265037"><ele>255.75</ele><time>2026-03-27T10:35:15.41Z</time></trkpt><trkpt lat="40.6953817" lon="14.7265448"><ele>255.0</ele><time>2026-03-27T10:35:25.41Z</time></trkpt><trkpt lat="40.6954151" lon="14.7267028"><ele>255.0</ele><time>2026-03-27T10:35:49.41Z</time></trkpt><trkpt lat="40.6953387" lon="14.7267181"><ele>255.00000000000003</ele><time>2026-03-27T10:37:01.41Z</time></trkpt><trkpt lat="40.6952854" lon="14.7266573"><ele>255.0</ele><time>2026-03-27T10:37:10.41Z</time></trkpt><trkpt lat="40.6953305" lon="14.7267354"><ele>255.0</ele><time>2026-03-27T10:37:44.41Z</time></trkpt><trkpt lat="40.6953959" lon="14.7267597"><ele>255.00000000000003</ele><time>2026-03-27T10:37:48.41Z</time></trkpt><trkpt lat="40.6953295" lon="14.7267969"><ele>255.0</ele><time>2026-03-27T10:38:09.41Z</time></trkpt><trkpt lat="40.6952434" lon="14.7267844"><ele>255.0</ele><time>2026-03-27T10:38:11.41Z</time></trkpt><trkpt lat="40.6951787" lon="14.726785"><ele>257.3333333333333</ele><time>2026-03-27T10:38:12.41Z</time></trkpt><trkpt lat="40.6949974" lon="14.7271188"><ele>259.66666666666663</ele><time>2026-03-27T10:38:19.412Z</time></trkpt><trkpt lat="40.6950365" lon="14.7272583"><ele>262.0</ele><time>2026-03-27T10:38:20.412Z</time></trkpt><trkpt lat="40.6950984" lon="14.7272896"><ele>262.0</ele><time>2026-03-27T10:38:21.412Z</time></trkpt><trkpt lat="40.6950796" lon="14.7271851"><ele>262.0</ele><time>2026-03-27T10:38:23.412Z</time></trkpt><trkpt lat="40.6950285" lon="14.7271316"><ele>262.0</ele><time>2026-03-27T10:38:24.412Z</time></trkpt><trkpt lat="40.695027" lon="14.7270305"><ele>262.0</ele><time>2026-03-27T10:38:25.412Z</time></trkpt><trkpt lat="40.6950872" lon="14.7269803"><ele>262.0</ele><time>2026-03-27T10:38:27.412Z</time></trkpt><trkpt lat="40.6951754" lon="14.7269743"><ele>262.0</ele><time>2026-03-27T10:38:31.412Z</time></trkpt><trkpt lat="40.6952501" lon="14.7269646"><ele>265.4</ele><time>2026-03-27T10:38:32.412Z</time></trkpt><trkpt lat="40.6953867" lon="14.7269182"><ele>268.79999999999995</ele><time>2026-03-27T10:38:34.412Z</time></trkpt><trkpt lat="40.6954633" lon="14.726913"><ele>272.2</ele><time>2026-03-27T10:38:37.412Z</time></trkpt><trkpt lat="40.695532" lon="14.7269405"><ele>275.59999999999997</ele><time>2026-03-27T10:38:40.413Z</time></trkpt><trkpt lat="40.6955966" lon="14.7270196"><ele>279.0</ele><time>2026-03-27T10:38:45.411Z</time></trkpt><trkpt lat="40.6955374" lon="14.7269619"><ele>279.0</ele><time>2026-03-27T10:38:54.411Z</time></trkpt><trkpt lat="40.6954766" lon="14.7268052"><ele>278.0</ele><time>2026-03-27T10:38:59.411Z</time></trkpt></trkseg></trk></gpx>